UnionvilleWeather Station
Hourly Leaf Wetness Data

Source: University of Missouri

To the bottom of the page

Year Month Day Hour Leaf Wetness Total
Precipitation
Avg. Temp Avg. Rel.
Humidity
Wind
Speed
CST mV in mm F C % mph
2020 10 14 1:00 267.1 0.0 0.00 49.8 9.9 61.87 2.1
2020 10 14 2:00 266.8 0.0 0.00 48.7 9.3 64.67 3.3
2020 10 14 3:00 268.0 0.0 0.00 48.8 9.3 63.45 5.9
2020 10 14 4:00 269.4 0.0 0.00 50.2 10.1 58.27 7.1
2020 10 14 5:00 269.4 0.0 0.00 51.9 11.1 55.98 7.5
2020 10 14 6:00 269.4 0.0 0.00 52.3 11.3 58.65 7.7
2020 10 14 7:00 269.3 0.0 0.00 53.2 11.8 60.86 8.7
2020 10 14 8:00 268.9 0.0 0.00 54.7 12.6 63.42 9.5
2020 10 14 9:00 268.6 0.0 0.00 59.4 15.2 58.94 10.9
2020 10 14 10:00 267.9 0.0 0.00 64.5 18.1 51.01 12.1
2020 10 14 11:00 267.6 0.0 0.00 67.4 19.7 47.83 13.0
2020 10 14 12:00 267.2 0.0 0.00 71.0 21.7 43.95 14.9
2020 10 14 13:00 266.6 0.0 0.00 74.2 23.4 39.72 13.5
2020 10 14 14:00 266.3 0.0 0.00 75.6 24.2 35.9 13.7
2020 10 14 15:00 265.9 0.0 0.00 75.7 24.3 34.08 13.2
2020 10 14 16:00 265.8 0.0 0.00 75.4 24.1 31.96 9.8
2020 10 14 17:00 265.9 0.0 0.00 73.2 22.9 32.46 7.4
2020 10 14 18:00 266.4 0.0 0.00 69.5 20.8 34.96 7.8
2020 10 14 19:00 266.1 0.0 0.00 66.0 18.9 31.16 9.6
2020 10 14 20:00 265.9 0.0 0.00 63.8 17.6 31.86 10.3
2020 10 14 21:00 265.9 0.0 0.00 63.0 17.2 33.3 10.0
2020 10 14 22:00 265.9 0.0 0.00 62.5 16.9 34.64 12.1
2020 10 14 23:00 266.0 0.0 0.00 62.0 16.6 33.81 10.9
2020 10 14 24:00 267.9 0.0 0.00 59.5 15.3 42.31 8.8
2020 10 15 1:00 267.4 0.0 0.00 53.8 12.1 48.15 9.9
2020 10 15 2:00 268.0 0.0 0.00 49.8 9.9 51.1 6.9
2020 10 15 3:00 268.0 0.0 0.00 48.3 9.1 53.57 6.5
2020 10 15 4:00 268.4 0.0 0.00 47.5 8.6 56.31 7.1
2020 10 15 5:00 268.7 0.0 0.00 46.7 8.2 58.58 7.3
2020 10 15 6:00 268.7 0.0 0.00 45.9 7.7 59.25 6.6
2020 10 15 7:00 268.8 0.0 0.00 44.5 7.0 64.41 6.1
2020 10 15 8:00 268.9 0.0 0.00 43.9 6.6 65.7 8.0
2020 10 15 9:00 268.8 0.0 0.00 43.9 6.6 61.13 9.8
2020 10 15 10:00 268.0 0.0 0.00 46.1 7.8 51.6 11.3
2020 10 15 11:00 266.5 0.0 0.00 47.5 8.6 32.55 10.0
2020 10 15 12:00 266.0 0.0 0.00 49.5 9.7 28.72 9.8
2020 10 15 13:00 265.9 0.0 0.00 51.7 11.0 27.8 10.1
2020 10 15 14:00 265.9 0.0 0.00 53.2 11.8 26.18 10.6
2020 10 15 15:00 265.9 0.0 0.00 53.7 12.0 24.67 10.9
2020 10 15 16:00 265.9 0.0 0.00 53.3 11.8 23.91 10.5
2020 10 15 17:00 265.8 0.0 0.00 52.2 11.2 25 8.3
2020 10 15 18:00 266.3 0.0 0.00 48.9 9.4 28.67 4.4
2020 10 15 19:00 266.9 0.0 0.00 46.1 7.8 32.11 3.5
2020 10 15 20:00 267.4 0.0 0.00 44.7 7.1 34.03 3.5
2020 10 15 21:00 267.4 0.0 0.00 42.9 6.1 37.63 3.4
2020 10 15 22:00 267.9 0.0 0.00 40.5 4.7 43.04 2.4
2020 10 15 23:00 268.4 0.0 0.00 39.7 4.3 45.13 3.6
2020 10 15 24:00 268.9 0.0 0.00 38.4 3.6 48.13 4.5
2020 10 16 1:00 268.9 0.0 0.00 36.9 2.7 52.18 4.6
2020 10 16 2:00 269.1 0.0 0.00 36.1 2.3 53.55 4.4
2020 10 16 3:00 269.3 0.0 0.00 35.3 1.9 55.03 4.0
2020 10 16 4:00 269.3 0.0 0.00 35.0 1.7 55.43 3.1
2020 10 16 5:00 268.9 0.0 0.00 35.5 1.9 56.72 3.3
2020 10 16 6:00 269.0 0.0 0.00 36.5 2.5 56.47 5.6
2020 10 16 7:00 269.4 0.0 0.00 35.2 1.8 63.69 7.1
2020 10 16 8:00 268.9 0.0 0.00 36.8 2.6 66.07 7.4
2020 10 16 9:00 268.7 0.0 0.00 41.7 5.4 62.53 8.3
2020 10 16 10:00 268.1 0.0 0.00 46.4 8.0 57.32 9.5
2020 10 16 11:00 267.6 0.0 0.00 49.8 9.9 49.79 11.3
2020 10 16 12:00 267.1 0.0 0.00 51.8 11.0 40.79 14.0
2020 10 16 13:00 266.6 0.0 0.00 52.5 11.4 38.04 14.4
2020 10 16 14:00 266.3 0.0 0.00 54.3 12.4 33.22 15.3
2020 10 16 15:00 265.9 0.0 0.00 53.8 12.1 29.27 14.6
2020 10 16 16:00 265.9 0.0 0.00 53.4 11.9 28.42 12.7
2020 10 16 17:00 266.1 0.0 0.00 52.2 11.2 30.95 6.1
2020 10 16 18:00 267.2 0.0 0.00 49.3 9.6 36.28 0.4
2020 10 16 19:00 268.2 0.0 0.00 44.5 7.0 46.77 0.4
2020 10 16 20:00 268.9 0.0 0.00 41.8 5.4 52.48 0.0
2020 10 16 21:00 269.3 0.0 0.00 40.9 5.0 56.16 0.0
2020 10 16 22:00 269.3 0.0 0.00 41.4 5.2 59.14 2.0
2020 10 16 23:00 269.5 0.0 0.00 41.5 5.3 60.41 4.4
2020 10 16 24:00 268.9 0.0 0.00 44.6 7.0 53.29 5.3
2020 10 17 1:00 268.0 0.0 0.00 47.4 8.6 44.73 8.6
2020 10 17 2:00 267.3 0.0 0.00 49.7 9.8 36.75 11.5
2020 10 17 3:00 266.7 0.0 0.00 50.7 10.4 35.69 11.5
2020 10 17 4:00 267.1 0.0 0.00 50.8 10.4 38.76 10.7
2020 10 17 5:00 267.2 0.0 0.00 51.4 10.8 39.55 12.5
2020 10 17 6:00 267.2 0.0 0.00 51.8 11.0 39.9 13.0
2020 10 17 7:00 267.3 0.0 0.00 51.6 10.9 42.56 12.1
2020 10 17 8:00 267.3 0.0 0.00 52.2 11.2 44.79 13.2
2020 10 17 9:00 267.3 0.0 0.00 54.1 12.3 43.26 15.7
2020 10 17 10:00 267.0 0.0 0.00 55.5 13.0 41.92 15.6
2020 10 17 11:00 266.4 0.0 0.00 58.0 14.4 37.53 15.6
2020 10 17 12:00 265.9 0.0 0.00 61.0 16.1 33.09 15.5
2020 10 17 13:00 265.7 0.0 0.00 63.4 17.5 29.65 14.0
2020 10 17 14:00 265.3 0.0 0.00 64.7 18.2 28.37 12.9
2020 10 17 15:00 264.8 0.0 0.00 67.2 19.6 24.8 13.1
2020 10 17 16:00 264.6 0.0 0.00 67.6 19.8 25.12 12.4
2020 10 17 17:00 265.2 0.0 0.00 65.9 18.9 28.41 7.8
2020 10 17 18:00 266.1 0.0 0.00 63.0 17.2 33.96 3.6
2020 10 17 19:00 267.0 0.0 0.00 58.8 14.9 40.87 0.6
2020 10 17 20:00 267.3 0.0 0.00 56.8 13.8 43.09 1.1
2020 10 17 21:00 267.3 0.0 0.00 56.2 13.4 43.38 3.3
2020 10 17 22:00 267.3 0.0 0.00 56.9 13.9 42.62 2.8
2020 10 17 23:00 267.5 0.0 0.00 56.2 13.4 45.16 1.9
2020 10 17 24:00 268.3 0.0 0.00 52.7 11.5 56.41 6.9
2020 10 18 1:00 268.7 0.0 0.00 49.0 9.4 65.67 5.9
2020 10 18 2:00 265.0 0.0 0.00 46.5 8.0 74.82 5.2
2020 10 18 3:00 261.5 0.0 0.00 44.3 6.8 80.2 4.8
2020 10 18 4:00 264.7 0.0 0.00 43.6 6.5 79.02 6.6
2020 10 18 5:00 268.3 0.0 0.00 42.0 5.6 72.66 8.4
2020 10 18 6:00 Wet 288.6 0.0 0.00 40.4 4.7 74.19 9.7
2020 10 18 7:00 271.3 0.0 0.00 38.7 3.7 79.91 6.9
2020 10 18 8:00 267.4 0.0 0.00 38.3 3.5 83 6.1
2020 10 18 9:00 Wet 368.8 0.0 0.25 36.6 2.5 85.5 7.0
2020 10 18 10:00 Wet 322.8 0.0 0.00 36.5 2.5 84.3 6.6
2020 10 18 11:00 Wet 285.9 0.0 0.00 36.0 2.2 76.73 7.6
2020 10 18 12:00 271.9 0.0 0.00 37.1 2.8 72.49 6.6
2020 10 18 13:00 269.5 0.0 0.00 38.2 3.4 67.01 5.4
2020 10 18 14:00 268.1 0.0 0.00 41.0 5.0 56.37 6.3
2020 10 18 15:00 267.5 0.0 0.00 42.7 5.9 49.38 5.1
2020 10 18 16:00 267.4 0.0 0.00 43.2 6.2 46.38 5.1
2020 10 18 17:00 267.6 0.0 0.00 41.5 5.3 46 3.4
2020 10 18 18:00 268.3 0.0 0.00 39.7 4.3 53.01 2.0
2020 10 18 19:00 268.8 0.0 0.00 38.8 3.8 59.56 1.1
2020 10 18 20:00 268.8 0.0 0.00 38.5 3.6 60.55 1.7
2020 10 18 21:00 268.8 0.0 0.00 38.3 3.5 61.25 1.3
2020 10 18 22:00 268.8 0.0 0.00 38.5 3.6 59.39 1.5
2020 10 18 23:00 268.8 0.0 0.00 38.3 3.5 61.17 3.3
2020 10 18 24:00 268.8 0.0 0.00 38.3 3.5 61.91 3.9
2020 10 19 1:00 270.5 0.0 0.00 38.2 3.4 60.48 7.4
2020 10 19 2:00 Wet 307.4 0.0 0.00 35.2 1.8 73.24 9.0
2020 10 19 3:00 270.7 0.0 0.00 35.1 1.7 68.91 6.4
2020 10 19 4:00 269.6 0.0 0.00 35.1 1.7 68.47 5.3
2020 10 19 5:00 270.2 0.0 0.00 34.5 1.4 75.95 5.2
2020 10 19 6:00 270.3 0.0 0.00 34.4 1.4 78.61 6.5
2020 10 19 7:00 270.2 0.0 0.00 34.6 1.5 74.53 6.4
2020 10 19 8:00 269.6 0.0 0.00 35.2 1.8 70.98 7.8
2020 10 19 9:00 269.3 0.0 0.00 36.1 2.3 66.16 6.8
2020 10 19 10:00 268.9 0.0 0.00 36.8 2.6 61.78 7.6
2020 10 19 11:00 268.8 0.0 0.00 37.1 2.8 58.93 7.7
2020 10 19 12:00 268.2 0.0 0.00 37.4 3.0 55.38 8.0
2020 10 19 13:00 268.1 0.0 0.00 37.5 3.0 55.05 6.4
2020 10 19 14:00 268.1 0.0 0.00 38.2 3.4 55.23 6.6
2020 10 19 15:00 268.1 0.0 0.00 38.7 3.7 55.71 7.7
2020 10 19 16:00 268.1 0.0 0.00 38.9 3.8 56.66 8.0
2020 10 19 17:00 268.4 0.0 0.00 38.3 3.5 60.54 8.0
2020 10 19 18:00 269.3 0.0 0.00 36.0 2.2 73.28 8.2
2020 10 19 19:00 269.5 0.0 0.00 35.5 1.9 77.31 7.8
2020 10 19 20:00 269.9 0.0 0.00 35.9 2.2 78.66 6.1
2020 10 19 21:00 270.2 0.0 0.00 36.0 2.2 81.3 4.6
2020 10 19 22:00 270.2 0.0 0.00 36.1 2.3 82.2 5.2
2020 10 19 23:00 270.3 0.0 0.00 36.2 2.3 83.2 4.7
2020 10 19 24:00 270.4 0.0 0.00 36.6 2.6 82.8 3.1
2020 10 20 1:00 270.9 0.0 0.00 36.7 2.6 83.4 4.0
2020 10 20 2:00 272.3 0.0 0.00 35.7 2.0 87.4 5.8
2020 10 20 3:00 271.6 0.0 0.00 35.3 1.8 88.6 5.2
2020 10 20 4:00 271.6 0.0 0.00 35.5 1.9 88.5 5.7
2020 10 20 5:00 271.7 0.0 0.00 35.4 1.9 89.4 6.5
2020 10 20 6:00 272.1 0.0 0.00 35.6 2.0 90.2 6.3
2020 10 20 7:00 272.3 0.0 0.00 35.8 2.1 90.9 6.2
2020 10 20 8:00 272.2 0.0 0.00 36.4 2.4 91.5 5.6
2020 10 20 9:00 271.6 0.0 0.00 37.5 3.1 89.7 7.3
2020 10 20 10:00 271.5 0.0 0.00 39.2 4.0 88.3 8.7
2020 10 20 11:00 271.1 0.0 0.00 40.9 5.0 85.6 9.2
2020 10 20 12:00 271.0 0.0 0.00 41.7 5.4 84.5 7.4
2020 10 20 13:00 271.3 0.0 0.00 42.3 5.7 85.8 8.3
2020 10 20 14:00 273.3 0.0 0.00 42.5 5.8 95.9 6.4
2020 10 20 15:00 Wet 314.0 0.0 0.00 42.6 5.9 100 4.1
2020 10 20 16:00 Wet 329.4 0.0 0.00 43.4 6.3 100 2.8
2020 10 20 17:00 Wet 347.6 0.0 0.00 43.8 6.5 100 0.9
2020 10 20 18:00 Wet 349.3 0.0 0.00 44.0 6.6 100 1.4
2020 10 20 19:00 Wet 333.1 0.0 0.00 44.0 6.7 100 2.9
2020 10 20 20:00 Wet 319.6 0.0 0.00 43.9 6.6 100 5.3
2020 10 20 21:00 Wet 300.6 0.0 0.00 43.9 6.6 100 6.7
2020 10 20 22:00 Wet 286.2 0.0 0.00 43.8 6.5 100 7.5
2020 10 20 23:00 279.0 0.0 0.00 43.6 6.5 100 6.1
2020 10 20 24:00 275.1 0.0 0.00 43.5 6.4 100 5.7
2020 10 21 1:00 274.5 0.0 0.00 43.7 6.5 100 3.9
2020 10 21 2:00 273.4 0.0 0.00 43.9 6.6 98.7 5.2
2020 10 21 3:00 273.3 0.0 0.00 43.1 6.2 90 5.1
2020 10 21 4:00 Wet 284.6 0.0 0.00 40.5 4.7 98.3 3.4
2020 10 21 5:00 Wet 322.4 0.0 0.00 39.1 3.9 100 0.8
2020 10 21 6:00 Wet 367.9 0.0 0.00 37.4 3.0 100 0.9
2020 10 21 7:00 Wet 374.4 0.0 0.00 34.7 1.5 100 0.4
2020 10 21 8:00 Wet 352.7 0.0 0.00 35.2 1.8 100 2.0
2020 10 21 9:00 Wet 295.8 0.0 0.00 41.4 5.2 100 2.8
2020 10 21 10:00 272.9 0.0 0.00 45.3 7.4 87.3 7.8
2020 10 21 11:00 269.6 0.0 0.00 48.7 9.3 76.12 7.3
2020 10 21 12:00 269.4 0.0 0.00 50.8 10.4 69.62 7.8
2020 10 21 13:00 Wet 301.6 0.0 0.25 50.2 10.1 73.04 5.7
2020 10 21 14:00 Wet 369.8 0.0 0.25 48.6 9.2 89.3 2.4
2020 10 21 15:00 Wet 342.3 0.0 0.00 48.6 9.2 97.4 4.4
2020 10 21 16:00 282.3 0.0 0.00 49.0 9.4 85.7 7.0
2020 10 21 17:00 Wet 327.0 0.0 0.00 47.7 8.7 95.3 7.8
2020 10 21 18:00 Wet 388.7 0.0 0.51 46.7 8.1 100 6.9
2020 10 21 19:00 Wet 360.7 0.0 0.00 46.4 8.0 100 7.7
2020 10 21 20:00 Wet 382.1 0.0 0.51 46.3 8.0 100 6.3
2020 10 21 21:00 Wet 385.5 0.0 0.00 46.3 8.0 100 6.0
2020 10 21 22:00 Wet 389.4 0.0 0.51 46.1 7.8 100 5.9
2020 10 21 23:00 Wet 369.0 0.0 0.00 45.9 7.7 100 6.7
2020 10 21 24:00 Wet 377.7 0.0 0.00 46.0 7.8 100 5.7
2020 10 22 1:00 Wet 414.9 0.0 0.00 46.2 7.9 100 5.5
2020 10 22 2:00 Wet 448.8 0.0 0.00 46.5 8.0 100 5.3
2020 10 22 3:00 Wet 431.1 0.0 0.00 46.7 8.2 100 5.8
2020 10 22 4:00 Wet 392.7 0.0 0.00 47.1 8.4 100 5.0
2020 10 22 5:00 Wet 375.7 0.0 0.00 47.6 8.6 100 5.1
2020 10 22 6:00 Wet 360.8 0.0 0.00 47.9 8.8 100 5.4
2020 10 22 7:00 Wet 342.4 0.0 0.00 48.8 9.3 100 6.3
2020 10 22 8:00 Wet 330.8 0.0 0.00 53.1 11.7 100 8.4
2020 10 22 9:00 Wet 304.6 0.0 0.00 60.4 15.8 99.9 11.4
2020 10 22 10:00 272.4 0.0 0.25 67.7 19.8 94.2 15.0
2020 10 22 11:00 270.4 0.0 0.00 72.5 22.5 76.69 16.5
2020 10 22 12:00 269.4 0.0 0.00 75.1 24.0 70.07 15.3
2020 10 22 13:00 268.6 0.0 0.00 77.2 25.1 64.73 14.7
2020 10 22 14:00 268.5 0.0 0.00 76.5 24.7 64.65 14.5
2020 10 22 15:00 268.3 0.0 0.00 78.0 25.5 61.39 13.8
2020 10 22 16:00 268.5 0.0 0.00 77.8 25.5 60.74 13.4
2020 10 22 17:00 268.5 0.0 0.00 76.8 24.9 60.63 10.0
2020 10 22 18:00 268.5 0.0 0.00 74.8 23.8 61.22 9.8
2020 10 22 19:00 268.5 0.0 0.00 73.6 23.1 62.36 10.1
2020 10 22 20:00 268.7 0.0 0.00 70.0 21.1 66.11 8.3
2020 10 22 21:00 270.4 0.0 0.00 52.9 11.6 87.4 10.9
2020 10 22 22:00 Wet 287.3 0.0 0.00 46.8 8.2 97.9 8.3
2020 10 22 23:00 280.4 0.0 0.00 44.7 7.0 96.9 8.3
2020 10 22 24:00 271.8 0.0 0.00 42.6 5.9 89.4 8.6
2020 10 23 1:00 273.7 0.0 0.00 40.9 4.9 87.8 7.8
2020 10 23 2:00 Wet 362.2 0.0 0.00 39.4 4.1 94.5 7.6
2020 10 23 3:00 Wet 534.0 0.2 4.32 37.9 3.3 100 8.8
2020 10 23 4:00 Wet 484.7 0.1 3.05 37.0 2.8 100 8.1
2020 10 23 5:00 Wet 480.5 0.1 2.79 36.7 2.6 100 6.5
2020 10 23 6:00 Wet 312.4 0.0 0.00 36.8 2.7 100 7.7
2020 10 23 7:00 Wet 308.6 0.0 0.00 36.9 2.7 99.9 8.7
2020 10 23 8:00 Wet 292.5 0.0 0.00 36.7 2.6 96.7 10.8
2020 10 23 9:00 273.3 0.0 0.00 36.9 2.7 91.5 8.6
2020 10 23 10:00 271.4 0.0 0.00 37.8 3.2 88 9.1
2020 10 23 11:00 270.9 0.0 0.00 38.2 3.4 85.2 10.8
2020 10 23 12:00 270.6 0.0 0.00 39.1 3.9 81.1 9.7
2020 10 23 13:00 269.8 0.0 0.00 40.8 4.9 75.2 11.3
2020 10 23 14:00 269.5 0.0 0.00 41.5 5.3 71.75 9.5
2020 10 23 15:00 269.5 0.0 0.00 41.1 5.0 70.43 9.9
2020 10 23 16:00 269.5 0.0 0.00 40.3 4.6 70.27 9.6
2020 10 23 17:00 269.5 0.0 0.00 39.6 4.2 70.14 8.0
2020 10 23 18:00 269.8 0.0 0.00 38.5 3.6 71.69 7.2
2020 10 23 19:00 270.1 0.0 0.00 37.2 2.9 73.27 5.6
2020 10 23 20:00 270.2 0.0 0.00 36.6 2.5 75.8 3.9
2020 10 23 21:00 270.2 0.0 0.00 36.0 2.2 76.07 5.3
2020 10 23 22:00 270.3 0.0 0.00 35.5 1.9 77.34 5.0
2020 10 23 23:00 270.3 0.0 0.00 35.2 1.8 77.74 3.9
2020 10 23 24:00 270.3 0.0 0.00 34.7 1.5 76.65 4.2
2020 10 24 1:00 270.3 0.0 0.00 34.1 1.2 76.29 3.7
2020 10 24 2:00 270.3 0.0 0.00 33.8 1.0 76.51 3.3
2020 10 24 3:00 270.3 0.0 0.00 33.5 0.8 77.63 2.9
2020 10 24 4:00 270.3 0.0 0.00 33.3 0.7 78.72 3.4
2020 10 24 5:00 270.3 0.0 0.00 33.0 0.6 80.4 3.2
2020 10 24 6:00 270.3 0.0 0.00 32.7 0.4 81.6 5.0
2020 10 24 7:00 270.8 0.0 0.00 32.6 0.3 82.8 3.6
2020 10 24 8:00 270.4 0.0 0.00 32.7 0.4 82.1 4.3
2020 10 24 9:00 270.3 0.0 0.00 33.1 0.6 81.6 5.8
2020 10 24 10:00 269.9 0.0 0.00 34.3 1.3 76.18 6.9
2020 10 24 11:00 269.6 0.0 0.00 35.0 1.7 73.61 7.3
2020 10 24 12:00 269.1 0.0 0.00 36.5 2.5 71.47 6.5
2020 10 24 13:00 268.5 0.0 0.00 39.0 3.9 64.65 6.6
2020 10 24 14:00 268.1 0.0 0.00 40.1 4.5 62.17 3.9
2020 10 24 15:00 268.6 0.0 0.00 40.8 4.9 60.97 5.9
2020 10 24 16:00 268.8 0.0 0.00 40.5 4.7 61.33 6.7
2020 10 24 17:00 269.0 0.0 0.00 39.5 4.2 65.99 7.0
2020 10 24 18:00 269.5 0.0 0.00 38.3 3.5 68.82 7.2
2020 10 24 19:00 269.5 0.0 0.00 37.7 3.2 70.38 6.6
2020 10 24 20:00 269.5 0.0 0.00 37.5 3.1 72.37 4.6
2020 10 24 21:00 269.5 0.0 0.00 37.6 3.1 72.69 5.3
2020 10 24 22:00 270.2 0.0 0.00 36.0 2.2 73.61 3.8
2020 10 24 23:00 270.3 0.0 0.00 35.0 1.7 79.53 5.4
2020 10 24 24:00 271.0 0.0 0.00 33.6 0.9 82.7 4.8
2020 10 25 1:00 270.9 0.0 0.00 33.6 0.9 83.2 5.1
2020 10 25 2:00 270.6 0.0 0.00 34.6 1.4 80.3 6.1
2020 10 25 3:00 270.3 0.0 0.00 35.3 1.9 77.4 7.4
2020 10 25 4:00 270.3 0.0 0.00 35.4 1.9 77.06 6.2
2020 10 25 5:00 270.3 0.0 0.00 35.5 1.9 76.84 6.4
2020 10 25 6:00 270.3 0.0 0.00 35.7 2.0 77.94 7.7
2020 10 25 7:00 270.3 0.0 0.00 35.5 1.9 79.21 8.2
2020 10 25 8:00 270.3 0.0 0.00 35.6 2.0 80.2 7.8
2020 10 25 9:00 270.3 0.0 0.00 36.4 2.4 78.75 7.3
2020 10 25 10:00 270.2 0.0 0.00 37.3 3.0 76.32 8.4
2020 10 25 11:00 269.9 0.0 0.00 37.8 3.2 74.16 8.0
2020 10 25 12:00 270.3 0.0 0.00 38.2 3.5 74.21 7.0
2020 10 25 13:00 Wet 291.4 0.0 0.00 37.6 3.1 77.9 7.8
2020 10 25 14:00 Wet 300.5 0.0 0.00 36.7 2.6 82.9 8.1
2020 10 25 15:00 278.1 0.0 0.00 35.6 2.0 83.4 7.4
2020 10 25 16:00 Wet 429.0 0.0 0.00 34.4 1.3 94.2 6.8
2020 10 25 17:00 Wet 452.1 0.0 0.00 34.0 1.1 100 7.1
2020 10 25 18:00 Wet 422.0 0.0 0.00 33.6 0.9 100 7.3
2020 10 25 19:00 Wet 327.1 0.0 0.00 33.7 0.9 98.1 6.9
2020 10 25 20:00 273.5 0.0 0.00 34.5 1.4 81.5 6.6
2020 10 25 21:00 271.3 0.0 0.00 34.5 1.4 76.4 6.9
2020 10 25 22:00 Wet 296.5 0.0 0.00 32.9 0.5 88.8 7.2
2020 10 25 23:00 Wet 286.1 0.0 0.00 31.8 -0.1 96.5 7.7
2020 10 25 24:00 275.3 0.0 0.00 31.4 -0.3 97.5 7.0
2020 10 26 1:00 273.9 0.0 0.00 30.8 -0.6 91.5 5.9
2020 10 26 2:00 Wet 290.9 0.0 0.00 29.9 -1.2 97 6.1
2020 10 26 3:00 Wet 305.2 0.0 0.00 29.4 -1.4 100 6.2
2020 10 26 4:00 Wet 309.3 0.0 0.00 28.9 -1.7 93.9 5.6
2020 10 26 5:00 Wet 307.1 0.0 0.00 28.0 -2.2 93.8 6.5
2020 10 26 6:00 Wet 305.5 0.0 0.00 26.5 -3.1 100 5.7
2020 10 26 7:00 Wet 303.7 0.0 0.00 25.8 -3.5 100 5.8
2020 10 26 8:00 Wet 301.3 0.0 0.00 26.2 -3.2 99.9 5.5
2020 10 26 9:00 Wet 296.6 0.0 0.00 26.8 -2.9 89.4 6.7
2020 10 26 10:00 Wet 289.3 0.0 0.00 27.6 -2.4 82.4 7.0
2020 10 26 11:00 279.8 0.0 0.00 28.4 -2.0 80.6 5.6
2020 10 26 12:00 272.7 0.0 0.00 28.9 -1.7 78.42 4.7
2020 10 26 13:00 270.8 0.0 0.00 29.1 -1.6 77.83 4.9
2020 10 26 14:00 270.0 0.0 0.51 30.2 -1.0 72.55 5.9
2020 10 26 15:00 269.8 0.0 0.00 30.7 -0.7 69.27 5.7
2020 10 26 16:00 270.2 0.0 0.00 30.8 -0.7 71.17 5.3
2020 10 26 17:00 270.3 0.0 0.00 30.7 -0.7 70.38 5.0
2020 10 26 18:00 270.3 0.0 0.00 30.4 -0.9 72.58 3.0
2020 10 26 19:00 270.3 0.0 0.00 30.1 -1.1 73.34 3.5
2020 10 26 20:00 270.3 0.0 0.00 29.9 -1.2 74.08 3.1
2020 10 26 21:00 270.3 0.0 0.00 29.8 -1.2 74.49 3.1
2020 10 26 22:00 270.3 0.0 0.00 29.9 -1.2 74.54 2.5
2020 10 26 23:00 270.3 0.0 0.00 29.9 -1.2 73.3 2.9
2020 10 26 24:00 270.3 0.0 0.00 29.8 -1.2 71.1 3.2
2020 10 27 1:00 270.3 0.0 0.00 29.3 -1.5 70.59 4.4
2020 10 27 2:00 270.3 0.0 0.00 28.7 -1.8 70.89 3.8
2020 10 27 3:00 270.3 0.0 0.00 28.5 -2.0 70.52 3.9
2020 10 27 4:00 270.3 0.0 0.00 28.4 -2.0 69.06 3.0
2020 10 27 5:00 270.1 0.0 0.00 28.3 -2.0 67.41 2.8
2020 10 27 6:00 270.3 0.0 0.00 28.3 -2.1 69.11 3.3
2020 10 27 7:00 270.3 0.0 0.00 28.0 -2.2 69.27 3.3
2020 10 27 8:00 269.8 0.0 0.00 28.3 -2.0 69.08 3.0
2020 10 27 9:00 269.1 0.0 0.00 29.8 -1.2 66.16 3.5
2020 10 27 10:00 268.6 0.0 0.00 31.7 -0.2 61.65 2.9
2020 10 27 11:00 268.3 0.0 0.00 32.8 0.4 58.41 2.5
2020 10 27 12:00 268.2 0.0 0.00 33.5 0.9 56.86 3.4
2020 10 27 13:00 268.0 0.0 0.00 33.8 1.0 55.51 2.4
2020 10 27 14:00 267.6 0.0 0.00 34.8 1.5 53.74 1.3
2020 10 27 15:00 267.9 0.0 0.00 35.4 1.9 51.97 3.2
2020 10 27 16:00 268.1 0.0 0.00 35.7 2.1 50.26 3.1
2020 10 27 17:00 268.1 0.0 0.00 35.8 2.1 49.43 3.4
2020 10 27 18:00 268.2 0.0 0.00 35.6 2.0 52.7 2.6
2020 10 27 19:00 268.6 0.0 0.00 35.6 2.0 54.94 1.7
2020 10 27 20:00 268.8 0.0 0.00 35.6 2.0 55.88 1.2
2020 10 27 21:00 269.1 0.0 0.00 34.8 1.6 59.6 1.9
2020 10 27 22:00 269.6 0.0 0.00 32.7 0.4 66.48 2.6
2020 10 27 23:00 269.6 0.0 0.00 31.9 -0.0 66.65 3.0
2020 10 27 24:00 270.1 0.0 0.00 30.6 -0.8 69.78 3.2
2020 10 28 1:00 270.3 0.0 0.00 30.2 -1.0 72.84 3.3
2020 10 28 2:00 271.0 0.0 0.00 29.7 -1.3 79.5 4.2
2020 10 28 3:00 271.6 0.0 0.00 29.5 -1.4 81.9 3.3
2020 10 28 4:00 273.0 0.0 0.00 29.0 -1.7 84.1 2.6
2020 10 28 5:00 274.3 0.0 0.00 28.5 -2.0 85.8 2.2
2020 10 28 6:00 276.3 0.0 0.00 28.1 -2.2 87.3 1.8
2020 10 28 7:00 275.6 0.0 0.00 27.7 -2.4 87.9 3.2
2020 10 28 8:00 270.8 0.0 0.00 29.5 -1.4 83.7 3.5
2020 10 28 9:00 269.2 0.0 0.00 34.6 1.4 69.83 5.4
2020 10 28 10:00 268.9 0.0 0.00 36.7 2.6 64.33 5.3
2020 10 28 11:00 268.0 0.0 0.00 40.0 4.4 57.92 5.2
2020 10 28 12:00 267.4 0.0 0.00 42.8 6.0 49.24 5.1
2020 10 28 13:00 267.4 0.0 0.00 44.2 6.8 48.82 6.4
2020 10 28 14:00 267.3 0.0 0.00 46.1 7.9 48.54 4.6
2020 10 28 15:00 267.2 0.0 0.00 46.9 8.3 46.63 2.2
2020 10 28 16:00 267.4 0.0 0.00 47.1 8.4 47.28 1.8
2020 10 28 17:00 268.2 0.0 0.00 45.6 7.5 53.18 1.3
2020 10 28 18:00 268.8 0.0 0.00 43.1 6.2 60.11 0.9
2020 10 28 19:00 269.1 0.0 0.00 42.7 5.9 60.62 0.3
2020 10 28 20:00 269.5 0.0 0.00 40.9 4.9 67.51 1.3
2020 10 28 21:00 269.5 0.0 0.00 41.0 5.0 65.58 1.1
2020 10 28 22:00 269.5 0.0 0.00 40.7 4.8 67.97 1.6
2020 10 28 23:00 269.4 0.0 0.00 41.2 5.1 64.31 2.9
2020 10 28 24:00 268.9 0.0 0.00 41.8 5.5 57.4 4.2
2020 10 29 1:00 268.8 0.0 0.00 43.0 6.1 60.59 6.4
2020 10 29 2:00 269.0 0.0 0.00 43.7 6.5 67.4 9.8
2020 10 29 3:00 269.5 0.0 0.00 42.4 5.8 73.75 9.5
2020 10 29 4:00 269.6 0.0 0.00 41.4 5.2 76.71 9.2
2020 10 29 5:00 270.2 0.0 0.00 40.4 4.6 79.52 7.2
2020 10 29 6:00 270.6 0.0 0.00 39.0 3.9 83.1 6.2
2020 10 29 7:00 270.9 0.0 0.00 37.8 3.2 85.4 6.7
2020 10 29 8:00 270.9 0.0 0.00 37.5 3.0 85 6.3
2020 10 29 9:00 270.5 0.0 0.00 37.8 3.2 82.7 7.5
2020 10 29 10:00 270.0 0.0 0.00 38.8 3.8 78.28 8.0
2020 10 29 11:00 269.5 0.0 0.00 39.6 4.2 71.71 9.5
2020 10 29 12:00 269.4 0.0 0.00 39.6 4.2 69.7 8.2
2020 10 29 13:00 268.9 0.0 0.00 40.5 4.7 66.58 8.1
2020 10 29 14:00 268.8 0.0 0.00 41.6 5.4 63.87 7.4
2020 10 29 15:00 268.6 0.0 0.00 42.7 6.0 60.84 7.0
2020 10 29 16:00 268.6 0.0 0.00 43.3 6.3 57.96 6.8
2020 10 29 17:00 268.7 0.0 0.00 42.9 6.1 57.36 6.0
2020 10 29 18:00 269.1 0.0 0.00 40.5 4.7 61.69 4.5
2020 10 29 19:00 269.6 0.0 0.00 38.0 3.4 67.38 4.9
2020 10 29 20:00 270.2 0.0 0.00 35.9 2.2 71.87 4.2
2020 10 29 21:00 270.8 0.0 0.00 33.6 0.9 76.16 4.3
2020 10 29 22:00 271.1 0.0 0.00 32.0 -0.0 79.62 4.6
2020 10 29 23:00 271.0 0.0 0.00 32.0 0.0 79.09 5.1
2020 10 29 24:00 272.9 0.0 0.00 31.7 -0.1 80.2 0.8
2020 10 30 1:00 272.5 0.0 0.00 31.4 -0.3 81.2 0.9
2020 10 30 2:00 273.7 0.0 0.00 29.8 -1.2 83.9 1.0
2020 10 30 3:00 280.6 0.0 0.00 28.3 -2.1 90.2 0.0
2020 10 30 4:00 275.3 0.0 0.00 27.0 -2.8 98.3 0.0
2020 10 30 5:00 277.2 0.0 0.00 26.6 -3.0 100 0.0
2020 10 30 6:00 278.7 0.0 0.00 26.5 -3.1 98.9 0.9
2020 10 30 7:00 280.5 0.0 0.00 25.6 -3.6 99.8 0.6
2020 10 30 8:00 Wet 287.4 0.0 0.00 29.1 -1.6 93 0.4
2020 10 30 9:00 Wet 308.5 0.0 0.00 34.4 1.3 79.8 3.4
2020 10 30 10:00 270.7 0.0 0.00 39.9 4.4 66.68 4.6
2020 10 30 11:00 267.7 0.0 0.00 43.4 6.3 58.65 5.0
2020 10 30 12:00 267.3 0.0 0.00 46.3 8.0 52.41 4.5
2020 10 30 13:00 267.3 0.0 0.00 48.7 9.3 48.21 5.4
2020 10 30 14:00 267.2 0.0 0.00 50.5 10.3 45.29 6.3
2020 10 30 15:00 267.3 0.0 0.00 51.5 10.8 44.23 6.1
2020 10 30 16:00 267.3 0.0 0.00 51.7 10.9 44.83 6.5
2020 10 30 17:00 267.5 0.0 0.00 49.7 9.9 48.48 5.6
2020 10 30 18:00 268.6 0.0 0.00 45.5 7.5 55.57 3.7
2020 10 30 19:00 268.9 0.0 0.00 43.3 6.3 59.21 3.7
2020 10 30 20:00 269.5 0.0 0.00 41.4 5.2 63.32 3.5
2020 10 30 21:00 269.7 0.0 0.00 39.2 4.0 68.43 4.2
2020 10 30 22:00 270.1 0.0 0.00 38.1 3.4 70.43 4.7
2020 10 30 23:00 270.2 0.0 0.00 37.1 2.8 72.29 4.5
2020 10 30 24:00 270.3 0.0 0.00 37.5 3.0 71.46 5.2
2020 10 31 1:00 270.3 0.0 0.00 37.0 2.8 73.9 4.6
2020 10 31 2:00 270.3 0.0 0.00 38.0 3.3 73.95 5.7
2020 10 31 3:00 270.5 0.0 0.00 38.3 3.5 76.09 6.0
2020 10 31 4:00 270.9 0.0 0.00 39.2 4.0 77.96 6.6
2020 10 31 5:00 270.9 0.0 0.00 39.8 4.3 79.24 7.1
2020 10 31 6:00 271.2 0.0 0.00 39.3 4.1 82.4 7.5
2020 10 31 7:00 271.6 0.0 0.00 39.9 4.4 84.8 7.9
2020 10 31 8:00 270.6 0.0 0.00 43.2 6.2 82.1 9.5
2020 10 31 9:00 269.7 0.0 0.00 47.7 8.7 73.91 12.4
2020 10 31 10:00 268.7 0.0 0.00 53.3 11.8 62.3 13.4
2020 10 31 11:00 267.7 0.0 0.00 58.4 14.7 51.92 14.9
2020 10 31 12:00 267.3 0.0 0.00 61.3 16.3 46.52 15.8
2020 10 31 13:00 266.8 0.0 0.00 63.6 17.6 41.93 15.3
2020 10 31 14:00 266.3 0.0 0.00 65.0 18.3 36.45 15.8
2020 10 31 15:00 265.9 0.0 0.00 65.3 18.5 34.75 14.6
2020 10 31 16:00 265.8 0.0 0.00 65.1 18.4 33.53 11.6
2020 10 31 17:00 265.9 0.0 0.00 64.1 17.8 34.11 8.1
2020 10 31 18:00 266.2 0.0 0.00 62.0 16.6 38.94 6.6
2020 10 31 19:00 266.9 0.0 0.00 58.8 14.9 48.21 8.0
2020 10 31 20:00 267.3 0.0 0.00 57.0 13.9 50.87 9.6
2020 10 31 21:00 267.3 0.0 0.00 55.6 13.1 51.32 8.3
2020 10 31 22:00 267.5 0.0 0.00 53.2 11.8 52.83 9.3
2020 10 31 23:00 267.4 0.0 0.00 51.0 10.6 49.62 8.9
2020 10 31 24:00 267.2 0.0 0.00 49.3 9.6 42.4 11.4
2020 11 01 1:00 267.3 0.0 0.00 46.3 7.9 45.67 12.6
2020 11 01 2:00 267.4 0.0 0.00 43.1 6.1 44.54 13.7
2020 11 01 3:00 267.5 0.0 0.00 40.0 4.5 50.47 9.6
2020 11 01 4:00 268.0 0.0 0.00 37.8 3.2 55.91 8.5
2020 11 01 5:00 268.2 0.0 0.00 36.4 2.4 56.27 10.4
2020 11 01 6:00 268.3 0.0 0.00 34.2 1.2 60.53 9.3
2020 11 01 7:00 268.8 0.0 0.00 32.4 0.2 64.86 7.6
2020 11 01 8:00 268.5 0.0 0.00 32.2 0.1 65.23 8.9
2020 11 01 9:00 268.1 0.0 0.00 34.0 1.1 59.44 12.6
2020 11 01 10:00 267.5 0.0 0.00 36.5 2.5 50.61 13.2
2020 11 01 11:00 267.0 0.0 0.00 38.8 3.8 42.86 14.3
2020 11 01 12:00 266.5 0.0 0.00 41.2 5.1 36.2 13.3
2020 11 01 13:00 266.0 0.0 0.00 42.9 6.0 31.25 13.2
2020 11 01 14:00 266.0 0.0 0.00 44.4 6.9 28.95 11.8
2020 11 01 15:00 266.0 0.0 0.00 45.0 7.2 26.71 11.2
2020 11 01 16:00 266.0 0.0 0.00 44.8 7.1 27.02 9.9
2020 11 01 17:00 266.0 0.0 0.00 43.4 6.3 28.71 7.7
2020 11 01 18:00 266.6 0.0 0.00 39.7 4.3 34.64 4.5
2020 11 01 19:00 266.8 0.0 0.00 38.2 3.4 36.1 3.1
2020 11 01 20:00 267.3 0.0 0.00 36.5 2.5 38.73 3.6
2020 11 01 21:00 267.5 0.0 0.00 35.0 1.7 41.7 2.7
2020 11 01 22:00 268.3 0.0 0.00 30.7 -0.7 52.86 0.6
2020 11 01 23:00 268.7 0.0 0.00 29.7 -1.3 54.1 1.3
2020 11 01 24:00 268.4 0.0 0.00 30.0 -1.1 52.05 2.5
2020 11 02 1:00 268.6 0.0 0.00 29.2 -1.6 54.13 1.6
2020 11 02 2:00 269.0 0.0 0.00 28.2 -2.1 56.83 0.8
2020 11 02 3:00 269.3 0.0 0.00 26.9 -2.8 61.05 1.8
2020 11 02 4:00 269.4 0.0 0.00 26.1 -3.3 63.69 1.6
2020 11 02 5:00 269.3 0.0 0.00 26.3 -3.2 64.54 3.5
2020 11 02 6:00 269.0 0.0 0.00 27.6 -2.4 61.78 4.4
2020 11 02 7:00 269.0 0.0 0.00 28.1 -2.1 62.58 4.3
2020 11 02 8:00 268.3 0.0 0.00 30.6 -0.8 61.02 5.0
2020 11 02 9:00 267.0 0.0 0.00 37.7 3.1 48.87 7.7
2020 11 02 10:00 266.2 0.0 0.00 43.8 6.6 39.31 9.9
2020 11 02 11:00 265.9 0.0 0.00 48.5 9.2 34.43 11.8
2020 11 02 12:00 265.3 0.0 0.00 53.0 11.7 30.54 11.6
2020 11 02 13:00 265.2 0.0 0.00 55.8 13.2 30.03 11.6
2020 11 02 14:00 265.2 0.0 0.00 58.3 14.6 30.03 10.3
2020 11 02 15:00 265.0 0.0 0.00 60.4 15.8 29.21 9.4
2020 11 02 16:00 265.2 0.0 0.00 60.5 15.8 30.88 8.9
2020 11 02 17:00 265.6 0.0 0.00 58.7 14.8 33.07 5.2
2020 11 02 18:00 266.3 0.0 0.00 54.9 12.7 38.01 2.5
2020 11 02 19:00 266.7 0.0 0.00 52.6 11.4 41.28 1.2
2020 11 02 20:00 267.2 0.0 0.00 49.8 9.9 46.18 2.7
2020 11 02 21:00 267.4 0.0 0.00 48.8 9.3 48.47 2.9
2020 11 02 22:00 267.4 0.0 0.00 48.3 9.1 50.09 3.1
2020 11 02 23:00 267.4 0.0 0.00 48.0 8.9 51.02 2.7
2020 11 02 24:00 267.8 0.0 0.00 47.0 8.3 53.73 3.5
2020 11 03 1:00 268.1 0.0 0.00 47.1 8.4 54.27 2.9
2020 11 03 2:00 268.3 0.0 0.00 45.1 7.3 58.76 3.1
2020 11 03 3:00 268.8 0.0 0.00 43.2 6.2 63.75 3.6
2020 11 03 4:00 268.9 0.0 0.00 43.1 6.2 65.38 4.2
2020 11 03 5:00 269.5 0.0 0.00 41.0 5.0 72.11 4.1
2020 11 03 6:00 269.8 0.0 0.00 39.7 4.3 76.22 3.9
2020 11 03 7:00 270.8 0.0 0.00 38.5 3.6 81.3 3.6
2020 11 03 8:00 269.6 0.0 0.00 40.4 4.7 81.8 3.8
2020 11 03 9:00 268.4 0.0 0.00 47.9 8.8 72.67 6.0
2020 11 03 10:00 267.5 0.0 0.00 54.3 12.4 61.31 7.4
2020 11 03 11:00 266.7 0.0 0.00 60.2 15.7 52.15 7.9
2020 11 03 12:00 266.1 0.0 0.00 65.4 18.6 44.25 8.9
2020 11 03 13:00 265.8 0.0 0.00 69.2 20.7 37.69 10.5
2020 11 03 14:00 265.8 0.0 0.00 71.2 21.8 35.28 10.5
2020 11 03 15:00 265.8 0.0 0.00 71.4 21.9 35.7 10.1
2020 11 03 16:00 265.8 0.0 0.00 70.3 21.3 37.71 9.4
2020 11 03 17:00 266.0 0.0 0.00 66.8 19.3 43.05 7.3
2020 11 03 18:00 267.1 0.0 0.00 60.4 15.8 53.35 5.5
2020 11 03 19:00 267.9 0.0 0.00 57.1 13.9 59.42 5.7
2020 11 03 20:00 267.8 0.0 0.00 58.0 14.4 56.96 7.0
2020 11 03 21:00 267.3 0.0 0.00 59.1 15.1 53.57 8.1
2020 11 03 22:00 267.3 0.0 0.00 59.2 15.1 52.29 7.9
2020 11 03 23:00 267.3 0.0 0.00 58.7 14.9 51.98 8.2
2020 11 03 24:00 267.7 0.0 0.00 56.1 13.4 56.56 7.1
2020 11 04 1:00 268.0 0.0 0.00 54.0 12.2 60.18 6.2
2020 11 04 2:00 268.0 0.0 0.00 52.5 11.4 62.06 6.5
2020 11 04 3:00 268.2 0.0 0.00 51.1 10.6 63.45 5.4
2020 11 04 4:00 268.5 0.0 0.00 50.6 10.3 63.46 5.4
2020 11 04 5:00 268.7 0.0 0.00 49.6 9.8 64.52 5.5
2020 11 04 6:00 268.7 0.0 0.00 48.2 9.0 67 5.3
2020 11 04 7:00 268.9 0.0 0.00 46.8 8.2 70.42 4.8
2020 11 04 8:00 268.4 0.0 0.00 48.8 9.3 69.22 5.7
2020 11 04 9:00 267.3 0.0 0.00 55.4 13.0 57.55 9.7
2020 11 04 10:00 266.6 0.0 0.00 58.9 14.9 51.39 10.4
2020 11 04 11:00 266.1 0.0 0.00 62.4 16.9 46.69 10.2
2020 11 04 12:00 266.1 0.0 0.00 63.7 17.6 45.17 9.1
2020 11 04 13:00 265.9 0.0 0.00 65.8 18.8 42.97 9.8
2020 11 04 14:00 265.8 0.0 0.00 67.6 19.8 41.18 10.7
2020 11 04 15:00 265.8 0.0 0.00 66.7 19.3 42.76 9.6
2020 11 04 16:00 266.4 0.0 0.00 64.3 17.9 46.21 8.4
2020 11 04 17:00 266.8 0.0 0.00 62.0 16.6 50.32 5.3
2020 11 04 18:00 267.3 0.0 0.00 59.0 15.0 54.62 3.4
2020 11 04 19:00 267.8 0.0 0.00 57.1 13.9 58.52 2.3
2020 11 04 20:00 268.0 0.0 0.00 56.0 13.3 62.07 3.7
2020 11 04 21:00 267.7 0.0 0.00 58.5 14.7 57.75 5.3
2020 11 04 22:00 267.3 0.0 0.00 60.4 15.8 53.89 5.7
2020 11 04 23:00 267.5 0.0 0.00 58.5 14.8 57.75 4.4
2020 11 04 24:00 267.5 0.0 0.00 58.4 14.7 57.25 5.7
2020 11 05 1:00 267.8 0.0 0.00 57.7 14.3 58.03 5.2
2020 11 05 2:00 267.8 0.0 0.00 57.3 14.1 57.61 5.0
2020 11 05 3:00 267.9 0.0 0.00 56.9 13.8 57.62 5.9
2020 11 05 4:00 268.2 0.0 0.00 53.6 12.0 63.55 3.9
2020 11 05 5:00 269.0 0.0 0.00 50.6 10.3 69.55 3.2
2020 11 05 6:00 269.4 0.0 0.00 49.6 9.8 71.59 4.1
2020 11 05 7:00 269.3 0.0 0.00 49.7 9.8 70.63 4.9
2020 11 05 8:00 268.4 0.0 0.00 50.4 10.2 69.98 4.5
2020 11 05 9:00 267.4 0.0 0.00 54.9 12.7 62.07 6.9
2020 11 05 10:00 266.6 0.0 0.00 58.8 14.9 55.49 7.3
2020 11 05 11:00 266.2 0.0 0.00 61.9 16.6 52.26 6.2
2020 11 05 12:00 265.8 0.0 0.00 65.0 18.3 49.15 5.4
2020 11 05 13:00 265.8 0.0 0.00 68.1 20.0 45.59 4.3
2020 11 05 14:00 265.8 0.0 0.00 70.2 21.2 42.67 5.8
2020 11 05 15:00 265.8 0.0 0.00 71.1 21.7 41.63 5.1
2020 11 05 16:00 265.8 0.0 0.00 71.3 21.8 41.46 3.7
2020 11 05 17:00 266.6 0.0 0.00 68.3 20.1 47.65 2.1
2020 11 05 18:00 267.5 0.0 0.00 64.1 17.8 52.92 1.9
2020 11 05 19:00 268.2 0.0 0.00 60.8 16.0 58.8 1.1
2020 11 05 20:00 269.1 0.0 0.00 58.9 15.0 63.12 0.0
2020 11 05 21:00 269.7 0.0 0.00 55.8 13.2 68.97 1.9
2020 11 05 22:00 269.5 0.0 0.00 55.3 12.9 69.15 2.5
2020 11 05 23:00 269.8 0.0 0.00 54.1 12.3 71.79 3.0
2020 11 05 24:00 270.1 0.0 0.00 53.5 12.0 74.52 3.0
2020 11 06 1:00 270.4 0.0 0.00 53.8 12.1 75.42 2.1
2020 11 06 2:00 271.8 0.0 0.00 52.8 11.6 78.47 1.7
2020 11 06 3:00 273.6 0.0 0.00 50.0 10.0 84.4 3.3
2020 11 06 4:00 273.8 0.0 0.00 49.2 9.6 86.9 3.1
2020 11 06 5:00 273.2 0.0 0.00 48.9 9.4 89.1 3.6
2020 11 06 6:00 280.7 0.0 0.00 48.1 8.9 97.6 2.8
2020 11 06 7:00 Wet 308.2 0.0 0.00 47.7 8.7 100 3.3
2020 11 06 8:00 Wet 303.7 0.0 0.00 49.4 9.6 100 3.4
2020 11 06 9:00 271.1 0.0 0.00 54.7 12.6 91.4 6.5
2020 11 06 10:00 269.8 0.0 0.00 60.7 16.0 79.78 8.0
2020 11 06 11:00 268.7 0.0 0.00 65.0 18.4 70 9.0
2020 11 06 12:00 267.9 0.0 0.00 68.3 20.2 62.8 10.0
2020 11 06 13:00 267.3 0.0 0.00 71.0 21.7 55.78 9.7
2020 11 06 14:00 267.2 0.0 0.00 72.1 22.2 53.72 10.6
2020 11 06 15:00 267.2 0.0 0.00 72.8 22.7 49.83 11.2
2020 11 06 16:00 267.2 0.0 0.00 71.6 22.0 53.06 10.9
2020 11 06 17:00 267.8 0.0 0.00 68.6 20.4 58.82 8.4
2020 11 06 18:00 268.9 0.0 0.00 64.2 17.9 67.7 6.0
2020 11 06 19:00 269.6 0.0 0.00 61.8 16.6 73.47 5.8
2020 11 06 20:00 270.6 0.0 0.00 59.2 15.1 79.37 5.1
2020 11 06 21:00 271.4 0.0 0.00 58.0 14.5 81.8 5.2
2020 11 06 22:00 271.4 0.0 0.00 58.2 14.6 81.7 6.9
2020 11 06 23:00 272.1 0.0 0.00 57.0 13.9 84.2 5.4
2020 11 06 24:00 273.0 0.0 0.00 56.4 13.5 85.8 5.5
2020 11 07 1:00 272.2 0.0 0.00 56.1 13.4 83.3 6.6
2020 11 07 2:00 271.9 0.0 0.00 54.1 12.3 80.7 5.8
2020 11 07 3:00 271.4 0.0 0.00 53.4 11.9 77.57 5.4
2020 11 07 4:00 271.7 0.0 0.00 51.5 10.8 80.8 5.7
2020 11 07 5:00 272.1 0.0 0.00 50.3 10.2 82.6 5.7
2020 11 07 6:00 271.7 0.0 0.00 50.3 10.1 81.7 7.0
2020 11 07 7:00 271.4 0.0 0.00 50.1 10.1 79.61 8.3
2020 11 07 8:00 270.5 0.0 0.00 51.5 10.8 77.81 7.8
2020 11 07 9:00 269.4 0.0 0.00 55.9 13.2 71.02 8.5
2020 11 07 10:00 268.6 0.0 0.00 60.3 15.7 64.77 11.4
2020 11 07 11:00 268.0 0.0 0.00 63.9 17.7 59.78 11.2
2020 11 07 12:00 267.5 0.0 0.00 66.9 19.4 55.21 12.5
2020 11 07 13:00 267.3 0.0 0.00 68.4 20.2 54.22 13.4
2020 11 07 14:00 267.3 0.0 0.00 69.0 20.6 53.16 14.0
2020 11 07 15:00 267.2 0.0 0.00 69.1 20.6 51.02 13.2
2020 11 07 16:00 267.2 0.0 0.00 68.1 20.1 47.65 12.6
2020 11 07 17:00 267.2 0.0 0.00 65.9 18.8 48.14 9.4
2020 11 07 18:00 268.3 0.0 0.00 60.7 15.9 56.17 5.1
2020 11 07 19:00 268.6 0.0 0.00 60.1 15.6 59.07 7.2
2020 11 07 20:00 268.6 0.0 0.00 60.5 15.8 60.97 8.2
2020 11 07 21:00 268.6 0.0 0.00 60.7 15.9 62.71 9.3
2020 11 07 22:00 268.6 0.0 0.00 60.2 15.7 64.91 9.3
2020 11 07 23:00 268.7 0.0 0.00 60.1 15.6 66.02 9.4
2020 11 07 24:00 269.1 0.0 0.00 60.1 15.6 68.39 9.9
2020 11 08 1:00 269.3 0.0 0.00 60.0 15.6 72.56 8.8
2020 11 08 2:00 269.5 0.0 0.00 60.7 15.9 73.81 10.3
2020 11 08 3:00 270.0 0.0 0.00 60.3 15.7 76.62 9.6
2020 11 08 4:00 270.0 0.0 0.00 60.0 15.6 78.02 9.9
2020 11 08 5:00 270.0 0.0 0.00 59.8 15.4 79.23 8.7
2020 11 08 6:00 270.0 0.0 0.00 59.9 15.5 79.14 10.1
2020 11 08 7:00 270.3 0.0 0.00 60.1 15.6 79.83 10.5
2020 11 08 8:00 270.0 0.0 0.00 61.3 16.3 78.76 10.8
2020 11 08 9:00 269.8 0.0 0.00 63.0 17.2 76.75 10.9
2020 11 08 10:00 268.9 0.0 0.00 66.2 19.0 71.67 12.1
2020 11 08 11:00 268.6 0.0 0.00 68.0 20.0 68.69 14.0
2020 11 08 12:00 268.2 0.0 0.00 70.1 21.2 64.8 14.1
2020 11 08 13:00 267.9 0.0 0.00 71.1 21.7 61.57 14.4
2020 11 08 14:00 267.8 0.0 0.00 72.3 22.4 58.45 15.8
2020 11 08 15:00 267.9 0.0 0.00 71.6 22.0 60.68 14.5
2020 11 08 16:00 268.2 0.0 0.00 70.9 21.6 62.11 14.7
2020 11 08 17:00 268.5 0.0 0.00 69.6 20.9 63.05 14.6
2020 11 08 18:00 268.7 0.0 0.00 68.0 20.0 66.21 12.3
2020 11 08 19:00 269.2 0.0 0.00 66.4 19.1 69.96 9.1
2020 11 08 20:00 269.4 0.0 0.00 65.4 18.6 72.97 9.8
2020 11 08 21:00 269.9 0.0 0.00 65.2 18.4 74.92 12.5
2020 11 08 22:00 270.0 0.0 0.00 64.8 18.2 78 12.1
2020 11 08 23:00 270.6 0.0 0.00 64.5 18.1 81 11.9
2020 11 08 24:00 270.9 0.0 0.00 64.4 18.0 83.2 12.0
2020 11 09 1:00 271.6 0.0 0.00 63.9 17.7 85.9 10.6
2020 11 09 2:00 272.2 0.0 0.00 63.6 17.6 88.1 10.8
2020 11 09 3:00 272.3 0.0 0.00 63.8 17.6 87.8 12.6
2020 11 09 4:00 272.4 0.0 0.00 63.6 17.6 87.7 11.9
2020 11 09 5:00 271.9 0.0 0.00 64.2 17.9 86.5 12.5
2020 11 09 6:00 272.0 0.0 0.00 63.9 17.7 86.5 12.8
2020 11 09 7:00 272.0 0.0 0.00 63.4 17.4 86.8 12.9
2020 11 09 8:00 271.7 0.0 0.00 63.5 17.5 85.8 12.8
2020 11 09 9:00 270.8 0.0 0.00 64.8 18.2 82.2 15.0
2020 11 09 10:00 270.3 0.0 0.00 66.2 19.0 79.19 14.2
2020 11 09 11:00 269.9 0.0 0.00 67.4 19.6 75.84 14.2
2020 11 09 12:00 269.2 0.0 0.00 69.0 20.6 70.05 15.4
2020 11 09 13:00 268.6 0.0 0.00 71.0 21.7 64.87 14.9
2020 11 09 14:00 268.2 0.0 0.00 72.2 22.3 60.11 13.6
2020 11 09 15:00 267.9 0.0 0.00 72.3 22.4 57.76 12.9
2020 11 09 16:00 267.8 0.0 0.00 72.0 22.2 54.47 10.8
2020 11 09 17:00 267.8 0.0 0.00 70.9 21.6 56.4 9.1
2020 11 09 18:00 267.8 0.0 0.00 70.1 21.2 57.59 8.5
2020 11 09 19:00 267.9 0.0 0.00 69.8 21.0 59.18 8.7
2020 11 09 20:00 268.3 0.0 0.00 69.4 20.8 61.36 10.5
2020 11 09 21:00 269.3 0.0 0.00 67.6 19.8 74.02 14.2
2020 11 09 22:00 270.0 0.0 0.00 66.5 19.2 80.7 12.3
2020 11 09 23:00 270.6 0.0 0.00 65.7 18.7 83.6 11.7
2020 11 09 24:00 270.7 0.0 0.00 65.2 18.5 85.1 12.4
2020 11 10 1:00 271.3 0.0 0.00 65.0 18.4 85.1 12.4
2020 11 10 2:00 271.3 0.0 0.00 65.2 18.4 84.8 12.7
2020 11 10 3:00 271.3 0.0 0.00 65.8 18.8 85.7 14.0
2020 11 10 4:00 271.3 0.0 0.00 65.4 18.6 86.9 14.3
2020 11 10 5:00 274.2 0.0 0.00 65.1 18.4 87.2 13.0
2020 11 10 6:00 Wet 406.8 0.1 1.52 48.7 9.3 97.4 11.4
2020 11 10 7:00 Wet 418.1 0.0 0.51 40.4 4.7 100 9.7
2020 11 10 8:00 Wet 389.2 0.0 1.02 40.7 4.8 100 7.7
2020 11 10 9:00 Wet 481.7 0.2 5.33 41.8 5.4 100 8.6
2020 11 10 10:00 Wet 455.1 0.3 7.37 44.5 7.0 100 7.1
2020 11 10 11:00 Wet 440.3 0.2 4.57 44.8 7.1 100 6.0
2020 11 10 12:00 Wet 354.3 0.1 2.29 47.7 8.7 100 5.6
2020 11 10 13:00 Wet 349.4 0.0 1.02 51.9 11.1 100 9.8
2020 11 10 14:00 Wet 287.1 0.0 0.00 48.3 9.0 100 16.9
2020 11 10 15:00 272.1 0.0 0.00 43.5 6.4 93.1 17.1
2020 11 10 16:00 271.5 0.0 0.00 40.7 4.8 83.7 17.2
2020 11 10 17:00 271.5 0.0 0.00 38.3 3.5 82.8 16.1
2020 11 10 18:00 271.3 0.0 0.00 36.5 2.5 79.34 16.9
2020 11 10 19:00 270.9 0.0 0.00 35.2 1.8 76.35 15.3
2020 11 10 20:00 270.9 0.0 0.00 34.4 1.3 78.45 12.0
2020 11 10 21:00 270.9 0.0 0.00 33.2 0.7 76.07 12.0
2020 11 10 22:00 270.9 0.0 0.00 32.3 0.2 76.61 9.9
2020 11 10 23:00 271.1 0.0 0.00 31.1 -0.5 80 7.5
2020 11 10 24:00 271.0 0.0 0.00 30.8 -0.7 82.3 7.4
2020 11 11 1:00 270.9 0.0 0.00 30.9 -0.6 82.1 8.0
2020 11 11 2:00 271.4 0.0 0.00 30.2 -1.0 83.2 7.9
2020 11 11 3:00 274.7 0.0 0.00 28.9 -1.7 86.6 4.8
2020 11 11 4:00 277.8 0.0 0.00 27.8 -2.3 89 1.9
2020 11 11 5:00 275.3 0.0 0.00 26.9 -2.8 98 0.5
2020 11 11 6:00 277.5 0.0 0.00 26.6 -3.0 100 2.5
2020 11 11 7:00 279.4 0.0 0.00 25.6 -3.6 100 2.1
2020 11 11 8:00 280.9 0.0 0.00 25.9 -3.4 100 2.4
2020 11 11 9:00 Wet 284.1 0.0 0.00 30.2 -1.0 96.9 4.9
2020 11 11 10:00 Wet 298.3 0.0 0.00 35.2 1.8 80.2 5.2
2020 11 11 11:00 268.9 0.0 0.00 39.6 4.2 69.8 6.3
2020 11 11 12:00 268.7 0.0 0.00 42.8 6.0 63.94 7.3
2020 11 11 13:00 268.5 0.0 0.00 45.8 7.7 57.55 8.3
2020 11 11 14:00 268.1 0.0 0.00 48.6 9.2 52.2 8.5
2020 11 11 15:00 268.0 0.0 0.00 50.2 10.1 49.4 8.4
2020 11 11 16:00 268.0 0.0 0.00 50.6 10.3 48.7 7.8
2020 11 11 17:00 268.5 0.0 0.00 48.4 9.1 54.51 5.0
2020 11 11 18:00 269.6 0.0 0.00 43.6 6.4 64.13 3.2
2020 11 11 19:00 270.3 0.0 0.00 40.4 4.7 71.24 3.2
2020 11 11 20:00 270.8 0.0 0.00 38.9 3.8 75.06 4.0
2020 11 11 21:00 270.9 0.0 0.00 38.6 3.7 75.99 3.3
2020 11 11 22:00 270.9 0.0 0.00 38.8 3.8 75.87 3.4
2020 11 11 23:00 271.0 0.0 0.00 38.9 3.8 77.37 3.3
2020 11 11 24:00 271.2 0.0 0.00 38.4 3.5 79.93 2.8
2020 11 12 1:00 271.6 0.0 0.00 37.9 3.3 80.9 2.4
2020 11 12 2:00 271.3 0.0 0.00 37.4 3.0 81 3.4
2020 11 12 3:00 271.3 0.0 0.00 37.3 3.0 80.6 3.0
2020 11 12 4:00 272.2 0.0 0.00 36.8 2.6 79.87 2.6
2020 11 12 5:00 281.4 0.0 0.00 35.6 2.0 80.6 0.7
2020 11 12 6:00 Wet 297.7 0.0 0.00 35.5 1.9 79.2 0.6
2020 11 12 7:00 Wet 309.7 0.0 0.00 34.5 1.4 80.7 1.5
2020 11 12 8:00 Wet 304.2 0.0 0.00 34.2 1.2 80.6 1.2
2020 11 12 9:00 275.3 0.0 0.00 37.9 3.3 76.67 4.5
2020 11 12 10:00 268.8 0.0 0.00 45.7 7.6 59.83 8.1
2020 11 12 11:00 267.6 0.0 0.00 50.6 10.3 45.8 11.2
2020 11 12 12:00 266.7 0.0 0.00 53.2 11.8 34.85 13.9
2020 11 12 13:00 266.0 0.0 0.00 55.1 12.8 32.32 11.9
2020 11 12 14:00 265.9 0.0 0.00 53.8 12.1 35.06 8.7
2020 11 12 15:00 266.7 0.0 0.00 53.6 12.0 36.78 6.5
2020 11 12 16:00 Wet 297.6 0.0 0.00 51.5 10.8 48.08 3.5
2020 11 12 17:00 272.1 0.0 0.00 49.5 9.7 54.93 2.7
2020 11 12 18:00 268.9 0.0 0.00 47.0 8.3 61.47 5.9
2020 11 12 19:00 270.0 0.0 0.00 41.6 5.3 76.65 12.4
2020 11 12 20:00 270.6 0.0 0.00 36.2 2.3 82.4 12.9
2020 11 12 21:00 270.2 0.0 0.00 34.3 1.3 78.82 12.3
2020 11 12 22:00 270.3 0.0 0.00 32.6 0.4 79.39 11.7
2020 11 12 23:00 270.4 0.0 0.00 30.7 -0.7 79.09 11.4
2020 11 12 24:00 270.3 0.0 0.00 28.3 -2.1 75.06 9.5
2020 11 13 1:00 270.7 0.0 0.00 26.6 -3.0 78.27 7.6
2020 11 13 2:00 270.6 0.0 0.00 24.9 -3.9 76.98 6.8
2020 11 13 3:00 271.1 0.0 0.00 23.9 -4.5 79.09 6.1
2020 11 13 4:00 271.9 0.0 0.00 22.3 -5.4 83.1 3.9
2020 11 13 5:00 272.6 0.0 0.00 22.1 -5.5 83 4.2
2020 11 13 6:00 273.4 0.0 0.00 21.9 -5.6 82.3 4.1
2020 11 13 7:00 274.5 0.0 0.00 20.8 -6.2 84.1 0.6
2020 11 13 8:00 275.3 0.0 0.00 20.3 -6.5 85 2.0
2020 11 13 9:00 272.1 0.0 0.00 23.7 -4.6 78.62 2.5
2020 11 13 10:00 268.0 0.0 0.00 28.8 -1.8 66.04 1.4
2020 11 13 11:00 267.2 0.0 0.00 32.6 0.3 54.12 2.8
2020 11 13 12:00 266.8 0.0 0.00 36.1 2.3 45.52 2.6
2020 11 13 13:00 266.7 0.0 0.00 39.2 4.0 40.16 5.4
2020 11 13 14:00 266.7 0.0 0.00 41.1 5.1 38.8 7.0
2020 11 13 15:00 266.8 0.0 0.00 42.0 5.6 37.54 7.1
2020 11 13 16:00 266.7 0.0 0.00 41.9 5.5 36.44 6.2
2020 11 13 17:00 267.4 0.0 0.00 40.0 4.4 39.88 6.7
2020 11 13 18:00 268.1 0.0 0.00 36.4 2.4 47.08 5.2
2020 11 13 19:00 268.7 0.0 0.00 34.1 1.2 51.67 4.7
2020 11 13 20:00 268.9 0.0 0.00 32.4 0.2 55.94 4.6
2020 11 13 21:00 268.9 0.0 0.00 31.5 -0.3 57.93 4.9
2020 11 13 22:00 268.9 0.0 0.00 31.7 -0.2 58.26 6.3
2020 11 13 23:00 268.9 0.0 0.00 32.5 0.3 57.82 8.1
2020 11 13 24:00 268.9 0.0 0.00 32.4 0.2 58.39 8.5
2020 11 14 1:00 268.7 0.0 0.00 34.1 1.2 54 11.6
2020 11 14 2:00 268.2 0.0 0.00 36.2 2.4 49.09 14.3
2020 11 14 3:00 268.2 0.0 0.00 36.8 2.7 49.64 12.0
2020 11 14 4:00 268.2 0.0 0.00 38.8 3.8 51.46 11.5
2020 11 14 5:00 268.1 0.0 0.00 40.1 4.5 53.74 11.0
2020 11 14 6:00 268.3 0.0 0.00 41.8 5.4 58.69 11.6
2020 11 14 7:00 270.8 0.0 0.00 40.0 4.5 88.2 11.4
2020 11 14 8:00 271.2 0.0 0.00 41.4 5.2 98.9 13.0
2020 11 14 9:00 270.8 0.0 0.00 42.8 6.0 90 15.9
2020 11 14 10:00 270.5 0.0 0.00 44.5 6.9 85.9 16.6
2020 11 14 11:00 271.1 0.0 0.00 45.0 7.2 93.9 14.7
2020 11 14 12:00 271.0 0.0 0.00 46.7 8.2 95.3 13.5
2020 11 14 13:00 270.8 0.0 0.00 49.9 9.9 88.3 15.2
2020 11 14 14:00 270.8 0.0 0.00 52.2 11.2 86.3 15.8
2020 11 14 15:00 270.7 0.0 0.00 54.6 12.5 83.9 14.7
2020 11 14 16:00 270.5 0.0 0.00 57.4 14.1 80.4 14.6
2020 11 14 17:00 270.6 0.0 0.00 58.3 14.6 80.3 14.5
2020 11 14 18:00 270.7 0.0 0.00 58.0 14.5 82.7 11.3
2020 11 14 19:00 272.0 0.0 0.00 57.5 14.1 89.5 10.2
2020 11 14 20:00 272.9 0.0 0.00 56.0 13.4 95.6 6.7
2020 11 14 21:00 273.1 0.0 0.00 55.5 13.1 90.5 7.8
2020 11 14 22:00 270.2 0.0 0.00 52.7 11.5 66.07 10.4
2020 11 14 23:00 269.4 0.0 0.00 49.2 9.5 61.04 10.2
2020 11 14 24:00 269.4 0.0 0.00 46.3 7.9 60.67 9.6
2020 11 15 1:00 269.2 0.0 0.00 44.7 7.0 58.33 9.4
2020 11 15 2:00 269.5 0.0 0.00 44.2 6.8 59.58 13.2
2020 11 15 3:00 Wet 291.5 0.0 0.00 44.0 6.7 62.7 19.1
2020 11 15 4:00 Wet 402.1 0.0 0.76 40.3 4.6 82 19.2
2020 11 15 5:00 Wet 324.8 0.0 0.00 39.2 4.0 86.6 13.3
2020 11 15 6:00 Wet 285.2 0.0 0.00 39.2 4.0 83.4 15.4
2020 11 15 7:00 271.1 0.0 0.00 38.5 3.6 76.94 16.3
2020 11 15 8:00 270.4 0.0 0.00 37.9 3.3 72.25 16.1
2020 11 15 9:00 270.1 0.0 0.00 37.6 3.1 69.16 16.2
2020 11 15 10:00 269.6 0.0 0.00 39.5 4.1 64.72 18.2
2020 11 15 11:00 269.1 0.0 0.00 41.7 5.4 58.27 19.6
2020 11 15 12:00 268.6 0.0 0.00 44.3 6.8 52.81 18.5
2020 11 15 13:00 268.1 0.0 0.00 46.3 7.9 46.12 20.1
2020 11 15 14:00 267.7 0.0 0.00 47.9 8.8 40.45 19.8
2020 11 15 15:00 267.4 0.0 0.00 48.7 9.3 36.84 18.5
2020 11 15 16:00 267.3 0.0 0.00 48.3 9.1 35.57 17.7
2020 11 15 17:00 267.3 0.0 0.00 46.7 8.2 37.85 13.2
2020 11 15 18:00 267.4 0.0 0.00 44.1 6.7 41.45 9.8
2020 11 15 19:00 267.9 0.0 0.00 40.8 4.9 47.75 5.2
2020 11 15 20:00 268.5 0.0 0.00 38.2 3.5 52.24 3.6
2020 11 15 21:00 268.9 0.0 0.00 36.7 2.6 55.35 3.1
2020 11 15 22:00 268.9 0.0 0.00 35.7 2.1 56.74 2.7
2020 11 15 23:00 268.9 0.0 0.00 35.0 1.7 58.22 3.8
2020 11 15 24:00 269.4 0.0 0.00 34.2 1.2 59.04 1.2
2020 11 16 1:00 269.6 0.0 0.00 33.3 0.7 61.32 2.2
2020 11 16 2:00 269.6 0.0 0.00 32.6 0.3 62.85 3.0
2020 11 16 3:00 269.6 0.0 0.00 32.6 0.3 61.71 2.2
2020 11 16 4:00 269.7 0.0 0.00 31.1 -0.5 64.93 3.2
2020 11 16 5:00 269.7 0.0 0.00 30.6 -0.8 64.96 3.6
2020 11 16 6:00 269.7 0.0 0.00 29.4 -1.5 67.27 3.4
2020 11 16 7:00 269.7 0.0 0.00 29.9 -1.2 64.33 4.1
2020 11 16 8:00 268.8 0.0 0.00 33.0 0.6 57.64 5.3
2020 11 16 9:00 267.6 0.0 0.00 38.7 3.7 48.74 7.8
2020 11 16 10:00 267.2 0.0 0.00 42.4 5.8 44.42 10.2
2020 11 16 11:00 266.4 0.0 0.00 46.9 8.2 39.38 8.5
2020 11 16 12:00 266.0 0.0 0.00 51.9 11.1 34.52 8.3
2020 11 16 13:00 265.9 0.0 0.00 55.4 13.0 31.66 11.7
2020 11 16 14:00 265.9 0.0 0.00 57.7 14.3 29.17 14.1
2020 11 16 15:00 265.9 0.0 0.00 59.1 15.1 27.54 15.1
2020 11 16 16:00 265.5 0.0 0.00 58.1 14.5 26.43 14.5
2020 11 16 17:00 265.5 0.0 0.00 55.6 13.1 26.14 14.3
2020 11 16 18:00 266.0 0.0 0.00 52.0 11.1 33.21 9.1
2020 11 16 19:00 266.6 0.0 0.00 48.3 9.1 38.28 5.9
2020 11 16 20:00 267.1 0.0 0.00 45.2 7.3 43.25 5.5
2020 11 16 21:00 267.4 0.0 0.00 44.5 6.9 46.57 6.8
2020 11 16 22:00 267.6 0.0 0.00 42.8 6.0 52.95 6.9
2020 11 16 23:00 268.6 0.0 0.00 40.1 4.5 66.2 4.6
2020 11 16 24:00 269.3 0.0 0.00 38.4 3.6 70.7 4.7
2020 11 17 1:00 269.5 0.0 0.00 36.5 2.5 71.03 4.5
2020 11 17 2:00 270.0 0.0 0.00 34.4 1.4 75.3 3.9
2020 11 17 3:00 270.8 0.0 0.00 32.3 0.2 79.4 3.9
2020 11 17 4:00 273.8 0.0 0.00 30.0 -1.1 84.4 2.1
2020 11 17 5:00 273.8 0.0 0.00 28.6 -1.9 87.9 3.8
2020 11 17 6:00 275.5 0.0 0.00 27.6 -2.5 92.8 1.8
2020 11 17 7:00 277.7 0.0 0.00 26.7 -2.9 99.8 3.1
2020 11 17 8:00 278.3 0.0 0.00 28.7 -1.8 100 3.8
2020 11 17 9:00 275.3 0.0 0.00 30.4 -0.9 90.7 4.4
2020 11 17 10:00 270.2 0.0 0.00 32.1 0.0 79.3 3.6
2020 11 17 11:00 269.2 0.0 0.00 33.8 1.0 72.33 3.8
2020 11 17 12:00 267.8 0.0 0.00 37.8 3.2 56.28 5.7
2020 11 17 13:00 266.6 0.0 0.00 42.7 6.0 37.34 7.7
2020 11 17 14:00 266.0 0.0 0.00 44.8 7.1 32 7.8
2020 11 17 15:00 266.0 0.0 0.00 45.5 7.5 30.82 8.5
2020 11 17 16:00 266.1 0.0 0.00 45.1 7.3 33.35 8.3
2020 11 17 17:00 266.8 0.0 0.00 42.7 5.9 37.42 5.5
2020 11 17 18:00 267.4 0.0 0.00 39.0 3.9 42.1 5.3
2020 11 17 19:00 267.5 0.0 0.00 37.8 3.2 45.01 6.4
2020 11 17 20:00 267.7 0.0 0.00 36.8 2.7 47.29 5.5
2020 11 17 21:00 268.2 0.0 0.00 35.2 1.8 51.9 5.0
2020 11 17 22:00 268.2 0.0 0.00 34.3 1.3 53.8 5.3
2020 11 17 23:00 268.2 0.0 0.00 35.2 1.8 51.43 6.5
2020 11 17 24:00 268.2 0.0 0.00 35.6 2.0 50.96 8.7
2020 11 18 1:00 267.8 0.0 0.00 36.3 2.4 48.84 9.7
2020 11 18 2:00 268.2 0.0 0.00 35.8 2.1 50.66 8.9
2020 11 18 3:00 268.1 0.0 0.00 37.0 2.8 51.08 9.9
2020 11 18 4:00 268.2 0.0 0.00 36.9 2.7 54.15 9.5
2020 11 18 5:00 268.2 0.0 0.00 37.1 2.8 56.5 9.5
2020 11 18 6:00 268.2 0.0 0.00 37.3 2.9 59.32 9.4
2020 11 18 7:00 268.6 0.0 0.00 37.6 3.1 62.24 11.5
2020 11 18 8:00 268.4 0.0 0.00 38.9 3.8 63.56 12.1
2020 11 18 9:00 267.8 0.0 0.00 43.4 6.3 56.93 14.2
2020 11 18 10:00 267.1 0.0 0.00 49.7 9.8 47.05 16.1
2020 11 18 11:00 266.7 0.0 0.00 54.1 12.3 41.31 18.3
2020 11 18 12:00 266.2 0.0 0.00 56.9 13.8 38.06 18.7
2020 11 18 13:00 266.0 0.0 0.00 58.8 14.9 36.18 19.3
2020 11 18 14:00 265.9 0.0 0.00 61.0 16.1 33.49 20.0
2020 11 18 15:00 265.9 0.0 0.00 61.9 16.6 32.44 19.8
2020 11 18 16:00 265.9 0.0 0.00 62.2 16.8 32.06 18.4
2020 11 18 17:00 265.9 0.0 0.00 60.4 15.8 34.82 15.0
2020 11 18 18:00 265.9 0.0 0.00 57.8 14.3 37.84 12.1
2020 11 18 19:00 266.2 0.0 0.00 55.6 13.1 40.26 11.2
2020 11 18 20:00 266.7 0.0 0.00 54.2 12.4 41.94 10.7
2020 11 18 21:00 266.4 0.0 0.00 55.2 12.9 39.63 13.0
2020 11 18 22:00 266.0 0.0 0.00 56.4 13.5 36.56 14.5
2020 11 18 23:00 266.0 0.0 0.00 56.2 13.5 35.88 14.7
2020 11 18 24:00 266.0 0.0 0.00 55.3 12.9 37.54 13.6
2020 11 19 1:00 266.1 0.0 0.00 54.5 12.5 40.29 13.2
2020 11 19 2:00 266.4 0.0 0.00 54.6 12.6 42.33 12.3
2020 11 19 3:00 266.7 0.0 0.00 54.3 12.4 44.72 12.4
2020 11 19 4:00 266.7 0.0 0.00 53.5 11.9 47.73 11.4
2020 11 19 5:00 266.9 0.0 0.00 52.9 11.6 50.51 10.8
2020 11 19 6:00 267.3 0.0 0.00 52.6 11.4 52.17 11.0
2020 11 19 7:00 267.3 0.0 0.00 53.7 12.1 51.55 12.1
2020 11 19 8:00 267.1 0.0 0.00 54.7 12.6 51.69 11.7
2020 11 19 9:00 266.6 0.0 0.00 56.7 13.7 50.6 12.8
2020 11 19 10:00 266.5 0.0 0.00 59.9 15.5 48.21 15.1
2020 11 19 11:00 265.9 0.0 0.00 63.7 17.6 45.35 17.5
2020 11 19 12:00 265.8 0.0 0.00 66.0 18.9 43.9 17.7
2020 11 19 13:00 265.8 0.0 0.00 67.7 19.9 42.4 17.3
2020 11 19 14:00 265.8 0.0 0.00 68.4 20.2 41.85 15.0
2020 11 19 15:00 265.8 0.0 0.00 68.3 20.2 42.51 14.3
2020 11 19 16:00 265.8 0.0 0.00 67.7 19.8 43.87 12.9
2020 11 19 17:00 266.3 0.0 0.00 65.8 18.8 47.14 9.1
2020 11 19 18:00 266.7 0.0 0.00 63.2 17.3 52.16 7.1
2020 11 19 19:00 267.3 0.0 0.00 60.3 15.7 57.9 4.6
2020 11 19 20:00 267.8 0.0 0.00 59.3 15.2 60.79 4.9
2020 11 19 21:00 267.9 0.0 0.00 59.6 15.4 62.46 6.6
2020 11 19 22:00 267.9 0.0 0.00 59.2 15.1 65.42 7.2
2020 11 19 23:00 268.4 0.0 0.00 59.3 15.2 67.65 8.2
2020 11 19 24:00 268.8 0.0 0.00 57.9 14.4 71.92 7.0
2020 11 20 1:00 269.4 0.0 0.00 56.6 13.7 75.84 6.2
2020 11 20 2:00 271.3 0.0 0.00 53.5 11.9 82.3 4.9
2020 11 20 3:00 273.7 0.0 0.00 51.1 10.6 87.6 5.0
2020 11 20 4:00 276.1 0.0 0.00 48.9 9.4 88.9 4.6
2020 11 20 5:00 274.6 0.0 0.00 46.9 8.3 84.9 3.1
2020 11 20 6:00 272.9 0.0 0.00 44.9 7.2 82.4 4.1
2020 11 20 7:00 276.1 0.0 0.00 42.1 5.6 86.2 2.5
2020 11 20 8:00 279.1 0.0 0.00 41.4 5.2 88.4 3.3
2020 11 20 9:00 270.3 0.0 0.00 44.5 7.0 79.95 4.7
2020 11 20 10:00 268.9 0.0 0.00 48.2 9.0 70.73 5.9
2020 11 20 11:00 268.7 0.0 0.00 48.8 9.3 67.95 6.9
2020 11 20 12:00 268.5 0.0 0.00 50.3 10.2 63.72 6.0
2020 11 20 13:00 267.9 0.0 0.00 51.9 11.1 56.21 6.0
2020 11 20 14:00 266.9 0.0 0.00 55.3 13.0 45.98 7.9
2020 11 20 15:00 266.6 0.0 0.00 55.5 13.1 42.9 8.1
2020 11 20 16:00 266.5 0.0 0.00 54.4 12.4 38.26 9.2
2020 11 20 17:00 266.6 0.0 0.00 52.7 11.5 39.69 6.2
2020 11 20 18:00 267.0 0.0 0.00 50.2 10.1 44.75 5.7
2020 11 20 19:00 267.5 0.0 0.00 48.3 9.0 52.5 5.4
2020 11 20 20:00 268.2 0.0 0.00 45.8 7.7 59.95 3.6
2020 11 20 21:00 268.8 0.0 0.00 44.4 6.9 65.91 3.3
2020 11 20 22:00 269.2 0.0 0.00 43.3 6.3 69.27 3.2
2020 11 20 23:00 269.5 0.0 0.00 42.7 6.0 71.8 3.8
2020 11 20 24:00 269.5 0.0 0.00 42.8 6.0 72.69 6.2
2020 11 21 1:00 269.5 0.0 0.00 42.3 5.7 73.51 7.1
2020 11 21 2:00 269.5 0.0 0.00 41.1 5.1 76.54 6.8
2020 11 21 3:00 269.5 0.0 0.00 40.3 4.6 78.38 7.6
2020 11 21 4:00 270.1 0.0 0.00 39.4 4.1 80.3 7.7
2020 11 21 5:00 269.8 0.0 0.00 38.1 3.4 79.15 9.4
2020 11 21 6:00 269.5 0.0 0.00 36.9 2.7 75.04 8.0
2020 11 21 7:00 269.9 0.0 0.00 35.8 2.1 78.18 5.9
2020 11 21 8:00 270.2 0.0 0.00 35.2 1.8 81.1 6.4
2020 11 21 9:00 269.6 0.0 0.00 36.2 2.3 79.34 7.3
2020 11 21 10:00 269.4 0.0 0.00 37.6 3.1 76.84 7.5
2020 11 21 11:00 268.8 0.0 0.00 39.9 4.4 72.08 7.1
2020 11 21 12:00 268.5 0.0 0.00 41.2 5.1 68.15 7.2
2020 11 21 13:00 268.3 0.0 0.00 42.1 5.6 65.39 6.9
2020 11 21 14:00 268.3 0.0 0.00 42.8 6.0 63.63 5.5
2020 11 21 15:00 268.6 0.0 0.00 43.0 6.1 63.66 6.3
2020 11 21 16:00 268.8 0.0 0.00 42.5 5.8 64.49 6.6
2020 11 21 17:00 268.8 0.0 0.00 41.8 5.5 67.31 6.0
2020 11 21 18:00 280.4 0.0 0.00 41.3 5.1 71.22 4.3
2020 11 21 19:00 Wet 287.6 0.0 0.00 40.6 4.8 75.66 3.9
2020 11 21 20:00 270.2 0.0 0.00 40.7 4.8 74.2 4.6
2020 11 21 21:00 271.1 0.0 0.00 40.7 4.8 74.48 6.1
2020 11 21 22:00 271.4 0.0 0.00 40.4 4.7 78.39 6.9
2020 11 21 23:00 282.5 0.0 0.00 40.3 4.6 82.4 2.9
2020 11 21 24:00 Wet 288.4 0.0 0.00 40.1 4.5 83.9 2.1
2020 11 22 1:00 271.5 0.0 0.00 39.7 4.3 83.8 2.9
2020 11 22 2:00 271.3 0.0 0.00 39.0 3.9 83.3 3.3
2020 11 22 3:00 271.5 0.0 0.00 38.1 3.4 83.3 2.5
2020 11 22 4:00 271.4 0.0 0.00 37.0 2.8 83 2.9
2020 11 22 5:00 270.9 0.0 0.00 36.9 2.7 81.7 2.8
2020 11 22 6:00 271.1 0.0 0.00 36.8 2.6 81 2.3
2020 11 22 7:00 272.0 0.0 0.00 35.9 2.2 84.8 0.9
2020 11 22 8:00 271.2 0.0 0.00 36.3 2.4 86 2.1
2020 11 22 9:00 270.5 0.0 0.00 38.9 3.9 81.6 4.0
2020 11 22 10:00 Wet 315.1 0.0 0.00 40.9 5.0 78.59 5.0
2020 11 22 11:00 Wet 349.1 0.0 0.25 40.6 4.8 86.5 5.2
2020 11 22 12:00 Wet 297.4 0.0 0.00 44.3 6.8 82.9 6.9
2020 11 22 13:00 270.4 0.0 0.00 48.0 8.9 68.93 11.3
2020 11 22 14:00 268.7 0.0 0.00 49.5 9.7 58.95 11.5
2020 11 22 15:00 267.8 0.0 0.00 51.3 10.7 44.12 11.0
2020 11 22 16:00 267.3 0.0 0.00 50.7 10.4 39.59 11.5
2020 11 22 17:00 267.5 0.0 0.00 48.2 9.0 43.6 6.7
2020 11 22 18:00 268.1 0.0 0.00 44.6 7.0 48.33 4.8
2020 11 22 19:00 268.6 0.0 0.00 41.6 5.4 54.99 5.1
2020 11 22 20:00 268.8 0.0 0.00 39.8 4.4 59.45 5.8
2020 11 22 21:00 268.8 0.0 0.00 38.6 3.7 62.64 6.6
2020 11 22 22:00 269.3 0.0 0.00 37.1 2.8 65.48 5.5
2020 11 22 23:00 269.8 0.0 0.00 35.8 2.1 67.96 3.8
2020 11 22 24:00 270.3 0.0 0.00 34.0 1.1 72.19 5.1
2020 11 23 1:00 270.3 0.0 0.00 32.8 0.5 74.57 4.8
2020 11 23 2:00 270.6 0.0 0.00 31.7 -0.2 76.8 4.5
2020 11 23 3:00 271.3 0.0 0.00 30.8 -0.7 78.97 3.9
2020 11 23 4:00 272.2 0.0 0.00 30.6 -0.8 80.1 3.2
2020 11 23 5:00 275.1 0.0 0.00 30.1 -1.0 82.3 1.4
2020 11 23 6:00 275.3 0.0 0.00 29.5 -1.4 84.2 2.2
2020 11 23 7:00 274.9 0.0 0.00 27.3 -2.6 88.4 0.1
2020 11 23 8:00 277.0 0.0 0.00 26.8 -2.9 96.3 1.9
2020 11 23 9:00 283.6 0.0 0.00 31.9 -0.0 83.9 0.3
2020 11 23 10:00 269.6 0.0 0.00 34.6 1.5 75.78 3.7
2020 11 23 11:00 268.9 0.0 0.00 36.6 2.6 64.36 4.6
2020 11 23 12:00 268.8 0.0 0.00 37.5 3.0 61.65 3.9
2020 11 23 13:00 268.8 0.0 0.00 37.3 2.9 66.53 4.8
2020 11 23 14:00 268.8 0.0 0.00 37.0 2.8 68.05 5.0
2020 11 23 15:00 269.6 0.0 0.00 36.8 2.6 71.36 6.1
2020 11 23 16:00 Wet 337.5 0.0 0.00 32.6 0.4 97.7 3.8
2020 11 23 17:00 Wet 456.3 0.0 0.00 32.1 0.1 100 3.3
2020 11 23 18:00 Wet 676.2 0.0 0.00 32.1 0.1 100 4.1
2020 11 23 19:00 Wet 695.7 0.0 0.00 32.3 0.2 100 6.3
2020 11 23 20:00 Wet 519.7 0.2 4.06 32.7 0.4 100 8.5
2020 11 23 21:00 Wet 381.4 0.1 2.54 32.9 0.5 100 9.3
2020 11 23 22:00 Wet 307.1 0.0 1.02 32.9 0.5 100 9.4
2020 11 23 23:00 Wet 349.0 0.1 1.27 32.8 0.5 100 9.9
2020 11 23 24:00 Wet 359.5 0.1 1.27 33.1 0.6 100 9.7
2020 11 24 1:00 Wet 329.3 0.0 0.76 33.6 0.9 100 8.7
2020 11 24 2:00 Wet 458.0 0.1 2.03 33.6 0.9 100 10.2
2020 11 24 3:00 Wet 380.7 0.1 1.78 33.8 1.0 100 10.6
2020 11 24 4:00 Wet 416.6 0.1 1.78 34.2 1.2 100 9.8
2020 11 24 5:00 Wet 467.9 0.1 1.78 34.9 1.6 100 8.3
2020 11 24 6:00 Wet 423.6 0.0 0.51 35.6 2.0 100 8.1
2020 11 24 7:00 Wet 408.3 0.0 0.51 36.7 2.6 100 8.9
2020 11 24 8:00 Wet 379.0 0.0 0.51 37.9 3.3 100 8.0
2020 11 24 9:00 Wet 379.6 0.0 0.25 39.1 4.0 100 5.5
2020 11 24 10:00 Wet 420.7 0.1 1.27 39.9 4.4 100 4.9
2020 11 24 11:00 Wet 475.7 0.2 4.57 40.6 4.8 100 4.3
2020 11 24 12:00 Wet 502.6 0.3 7.11 41.1 5.1 100 6.3
2020 11 24 13:00 Wet 409.8 0.2 4.32 41.9 5.5 100 4.5
2020 11 24 14:00 Wet 340.3 0.0 0.25 42.6 5.9 100 4.7
2020 11 24 15:00 Wet 440.0 0.1 2.54 43.6 6.4 100 4.2
2020 11 24 16:00 Wet 448.0 0.1 2.79 45.0 7.2 100 3.9
2020 11 24 17:00 Wet 410.8 0.1 2.29 46.9 8.3 100 6.2
2020 11 24 18:00 Wet 438.0 0.1 2.03 47.2 8.4 100 4.3
2020 11 24 19:00 Wet 399.2 0.0 0.76 46.9 8.3 100 4.5
2020 11 24 20:00 Wet 347.0 0.0 0.00 46.5 8.1 100 4.5
2020 11 24 21:00 Wet 329.1 0.0 0.00 46.3 7.9 100 4.0
2020 11 24 22:00 Wet 447.3 0.1 1.52 46.4 8.0 100 0.7
2020 11 24 23:00 Wet 414.9 0.0 0.51 46.2 7.9 100 2.7
2020 11 24 24:00 Wet 342.0 0.0 0.00 46.0 7.8 100 3.3
2020 11 25 1:00 Wet 476.4 0.0 0.51 46.1 7.8 100 1.3
2020 11 25 2:00 Wet 497.5 0.0 0.76 46.1 7.8 100 2.0
2020 11 25 3:00 Wet 437.3 0.0 0.25 45.2 7.3 100 10.5
2020 11 25 4:00 Wet 355.2 0.0 0.00 43.7 6.5 100 11.2
2020 11 25 5:00 Wet 414.8 0.0 0.25 43.9 6.6 100 3.5
2020 11 25 6:00 Wet 396.6 0.0 0.00 43.7 6.5 100 6.6
2020 11 25 7:00 Wet 450.6 0.0 0.25 43.5 6.4 100 5.7
2020 11 25 8:00 Wet 528.1 0.0 0.76 43.1 6.2 100 4.4
2020 11 25 9:00 Wet 535.5 0.0 0.76 42.0 5.6 100 7.0
2020 11 25 10:00 Wet 429.3 0.0 0.25 40.7 4.9 100 7.7
2020 11 25 11:00 Wet 312.9 0.0 0.00 40.2 4.6 100 8.3
2020 11 25 12:00 273.5 0.0 0.00 40.5 4.7 100 7.6
2020 11 25 13:00 283.1 0.0 0.00 41.0 5.0 100 6.5
2020 11 25 14:00 279.2 0.0 0.00 40.3 4.6 100 7.1
2020 11 25 15:00 Wet 381.0 0.0 0.00 39.6 4.2 100 8.2
2020 11 25 16:00 Wet 289.0 0.0 0.00 38.8 3.8 100 8.9
2020 11 25 17:00 Wet 340.1 0.0 0.00 38.4 3.6 100 9.4
2020 11 25 18:00 Wet 311.8 0.0 0.00 38.3 3.5 100 7.2
2020 11 25 19:00 Wet 295.2 0.0 0.00 38.3 3.5 100 6.1
2020 11 25 20:00 Wet 295.3 0.0 0.00 38.2 3.5 100 6.4
2020 11 25 21:00 Wet 288.5 0.0 0.00 38.1 3.4 100 6.1
2020 11 25 22:00 283.3 0.0 0.00 38.0 3.3 100 6.0
2020 11 25 23:00 277.2 0.0 0.00 38.1 3.4 100 6.1
2020 11 25 24:00 275.0 0.0 0.00 38.0 3.4 100 4.4
2020 11 26 1:00 275.0 0.0 0.00 37.9 3.3 100 3.9
2020 11 26 2:00 273.0 0.0 0.00 37.9 3.3 94.2 6.9
2020 11 26 3:00 272.2 0.0 0.00 37.3 3.0 89.2 6.4
2020 11 26 4:00 272.2 0.0 0.00 36.9 2.7 90.2 6.1
2020 11 26 5:00 272.2 0.0 0.00 35.8 2.1 91.3 6.3
2020 11 26 6:00 272.6 0.0 0.00 34.9 1.6 96.8 5.7
2020 11 26 7:00 273.0 0.0 0.00 33.9 1.0 100 7.4
2020 11 26 8:00 273.0 0.0 0.00 34.1 1.2 100 8.0
2020 11 26 9:00 272.7 0.0 0.00 35.2 1.8 100 9.5
2020 11 26 10:00 272.1 0.0 0.00 37.1 2.9 95.8 10.3
2020 11 26 11:00 270.9 0.0 0.00 40.8 4.9 84.6 9.3
2020 11 26 12:00 270.2 0.0 0.00 43.6 6.4 75.51 9.4
2020 11 26 13:00 269.5 0.0 0.00 47.2 8.4 66.35 8.1
2020 11 26 14:00 269.0 0.0 0.00 49.9 9.9 58.61 8.5
2020 11 26 15:00 268.7 0.0 0.00 50.6 10.3 56.27 8.0
2020 11 26 16:00 268.7 0.0 0.00 50.4 10.2 56.75 7.1
2020 11 26 17:00 269.7 0.0 0.00 47.5 8.6 64.55 2.9
2020 11 26 18:00 271.8 0.0 0.00 44.3 6.8 72.7 0.1
2020 11 26 19:00 276.0 0.0 0.00 41.9 5.5 79.29 0.0
2020 11 26 20:00 276.8 0.0 0.00 41.4 5.2 81.1 0.0
2020 11 26 21:00 279.4 0.0 0.00 39.7 4.3 84.6 1.6
2020 11 26 22:00 273.3 0.0 0.00 39.7 4.3 81.9 2.2
2020 11 26 23:00 272.6 0.0 0.00 38.9 3.8 83.6 2.0
2020 11 26 24:00 273.6 0.0 0.00 37.9 3.3 86 3.9
2020 11 27 1:00 272.7 0.0 0.00 36.9 2.7 91.3 4.5
2020 11 27 2:00 272.8 0.0 0.00 36.7 2.6 99.1 4.4
2020 11 27 3:00 273.0 0.0 0.00 35.9 2.1 100 4.7
2020 11 27 4:00 273.8 0.0 0.00 34.4 1.3 100 5.7
2020 11 27 5:00 274.3 0.0 0.00 33.5 0.9 100 5.3
2020 11 27 6:00 274.8 0.0 0.00 33.9 1.0 100 3.4
2020 11 27 7:00 Wet 293.3 0.0 0.00 33.2 0.7 100 3.9
2020 11 27 8:00 Wet 296.6 0.0 0.00 33.3 0.7 100 4.8
2020 11 27 9:00 278.4 0.0 0.00 33.7 1.0 100 6.7
2020 11 27 10:00 271.3 0.0 0.00 36.2 2.3 90.2 5.6
2020 11 27 11:00 270.2 0.0 0.00 40.0 4.5 75.16 6.5
2020 11 27 12:00 269.5 0.0 0.00 42.7 6.0 66.95 6.4
2020 11 27 13:00 268.8 0.0 0.00 45.6 7.6 56.46 7.4
2020 11 27 14:00 268.4 0.0 0.00 47.1 8.4 49.34 8.6
2020 11 27 15:00 268.1 0.0 0.00 47.1 8.4 46.85 8.8
2020 11 27 16:00 268.0 0.0 0.00 46.4 8.0 46.61 8.3
2020 11 27 17:00 268.5 0.0 0.00 44.5 6.9 49.63 4.5
2020 11 27 18:00 269.0 0.0 0.00 41.9 5.5 53.76 1.1
2020 11 27 19:00 269.5 0.0 0.00 40.1 4.5 57.24 1.8
2020 11 27 20:00 270.1 0.0 0.00 38.2 3.4 62.27 2.3
2020 11 27 21:00 270.1 0.0 0.00 38.0 3.3 62.54 3.1
2020 11 27 22:00 270.4 0.0 0.00 35.8 2.1 67.55 3.2
2020 11 27 23:00 270.9 0.0 0.00 34.1 1.2 71.04 3.3
2020 11 27 24:00 270.9 0.0 0.00 33.7 0.9 71.94 4.2
2020 11 28 1:00 270.9 0.0 0.00 33.1 0.6 73.14 3.8
2020 11 28 2:00 270.9 0.0 0.00 32.8 0.4 74.61 3.9
2020 11 28 3:00 270.9 0.0 0.00 33.4 0.8 75.06 4.3
2020 11 28 4:00 270.9 0.0 0.00 33.9 1.1 74.12 4.4
2020 11 28 5:00 270.9 0.0 0.00 33.0 0.6 75.6 4.2
2020 11 28 6:00 270.9 0.0 0.00 32.3 0.2 76.35 4.2
2020 11 28 7:00 270.9 0.0 0.00 31.7 -0.2 76.62 3.9
2020 11 28 8:00 270.4 0.0 0.00 32.8 0.4 74.12 4.2
2020 11 28 9:00 269.3 0.0 0.00 36.2 2.3 69.11 7.0
2020 11 28 10:00 268.7 0.0 0.00 41.2 5.1 61.14 9.7
2020 11 28 11:00 268.1 0.0 0.00 46.5 8.0 52.78 10.7
2020 11 28 12:00 267.4 0.0 0.00 50.7 10.4 47.04 9.6
2020 11 28 13:00 267.2 0.0 0.00 53.3 11.8 42.89 10.0
2020 11 28 14:00 266.6 0.0 0.00 55.4 13.0 39.68 10.1
2020 11 28 15:00 266.6 0.0 0.00 55.8 13.2 38.55 10.3
2020 11 28 16:00 266.6 0.0 0.00 55.1 12.8 39.26 9.3
2020 11 28 17:00 267.1 0.0 0.00 52.5 11.4 41.94 8.2
2020 11 28 18:00 267.9 0.0 0.00 47.8 8.8 50.37 3.2
2020 11 28 19:00 268.7 0.0 0.00 44.2 6.8 57.92 5.1
2020 11 28 20:00 269.0 0.0 0.00 41.4 5.2 64.31 4.5
2020 11 28 21:00 269.5 0.0 0.00 39.9 4.4 67.16 5.1
2020 11 28 22:00 269.5 0.0 0.00 39.7 4.3 65.52 5.8
2020 11 28 23:00 268.9 0.0 0.00 40.3 4.6 61.4 4.7
2020 11 28 24:00 268.8 0.0 0.00 41.2 5.1 58.07 7.4
2020 11 29 1:00 268.8 0.0 0.00 40.1 4.5 59.54 6.0
2020 11 29 2:00 268.9 0.0 0.00 38.5 3.6 62.77 5.6
2020 11 29 3:00 269.3 0.0 0.00 36.8 2.7 66.85 5.0
2020 11 29 4:00 269.6 0.0 0.00 35.1 1.7 70.39 4.1
2020 11 29 5:00 269.6 0.0 0.00 35.2 1.8 68.63 3.7
2020 11 29 6:00 269.6 0.0 0.00 34.7 1.5 70.73 4.5
2020 11 29 7:00 269.6 0.0 0.00 35.8 2.1 69.32 3.5
2020 11 29 8:00 269.6 0.0 0.00 35.9 2.2 70 4.2
2020 11 29 9:00 269.6 0.0 0.00 37.5 3.0 70.6 8.9
2020 11 29 10:00 269.4 0.0 0.00 37.7 3.2 71.05 8.8
2020 11 29 11:00 268.6 0.0 0.00 40.8 4.9 64.64 10.3
2020 11 29 12:00 268.7 0.0 0.00 39.5 4.1 64.65 10.3
2020 11 29 13:00 268.8 0.0 0.00 38.1 3.4 67.2 10.1
2020 11 29 14:00 268.5 0.0 0.00 38.7 3.7 62.59 10.4
2020 11 29 15:00 268.3 0.0 0.00 38.7 3.7 59.4 11.0
2020 11 29 16:00 268.5 0.0 0.00 37.5 3.1 59.15 12.1
2020 11 29 17:00 268.8 0.0 0.00 36.2 2.3 59.04 10.3
2020 11 29 18:00 268.9 0.0 0.00 34.5 1.4 56.78 10.5
2020 11 29 19:00 268.9 0.0 0.00 32.6 0.3 62.56 7.8
2020 11 29 20:00 269.3 0.0 0.00 30.9 -0.6 66.17 7.7
2020 11 29 21:00 269.3 0.0 0.00 29.8 -1.2 64.48 9.3
2020 11 29 22:00 269.0 0.0 0.00 29.1 -1.6 60.7 8.0
2020 11 29 23:00 269.0 0.0 0.00 28.2 -2.1 60.14 9.1
2020 11 29 24:00 269.0 0.0 0.00 27.0 -2.8 62.33 8.6
2020 11 30 1:00 269.1 0.0 0.00 26.1 -3.3 64.73 7.5
2020 11 30 2:00 269.0 0.0 0.00 26.5 -3.0 62.15 10.1
2020 11 30 3:00 269.3 0.0 0.00 25.6 -3.5 65.42 9.8
2020 11 30 4:00 269.7 0.0 0.00 23.6 -4.7 72.1 10.9
2020 11 30 5:00 269.8 0.0 0.00 22.6 -5.2 74.09 10.0
2020 11 30 6:00 270.4 0.0 0.00 21.2 -6.0 77.47 8.9
2020 11 30 7:00 270.4 0.0 0.00 20.3 -6.5 78.72 8.5
2020 11 30 8:00 270.5 0.0 0.00 19.4 -7.0 80.4 6.9
2020 11 30 9:00 269.9 0.0 0.00 20.6 -6.3 78.5 7.7
2020 11 30 10:00 269.6 0.0 0.00 22.0 -5.6 74.74 7.1
2020 11 30 11:00 269.2 0.0 0.00 22.7 -5.2 71.39 8.8
2020 11 30 12:00 269.0 0.0 0.00 24.8 -4.0 67.56 8.6
2020 11 30 13:00 268.9 0.0 0.00 26.7 -3.0 63.58 8.8
2020 11 30 14:00 268.9 0.0 0.00 28.5 -1.9 58.49 8.6
2020 11 30 15:00 268.8 0.0 0.00 30.1 -1.0 54.48 7.7
2020 11 30 16:00 268.2 0.0 0.00 30.2 -1.0 50.16 7.3
2020 11 30 17:00 268.7 0.0 0.00 29.3 -1.5 50.94 3.0
2020 11 30 18:00 269.5 0.0 0.00 26.4 -3.1 58.92 0.2
2020 11 30 19:00 269.7 0.0 0.00 25.6 -3.5 61.06 0.4
2020 11 30 20:00 270.6 0.0 0.00 23.3 -4.9 67.69 0.4
2020 11 30 21:00 271.2 0.0 0.00 21.3 -6.0 74.17 0.1
2020 11 30 22:00 272.1 0.0 0.00 20.1 -6.6 76.92 1.8
2020 11 30 23:00 273.4 0.0 0.00 19.4 -7.0 79.55 2.5
2020 11 30 24:00 274.3 0.0 0.00 19.7 -6.8 77.76 2.1
2020 12 01 1:00 275.0 0.0 0.00 19.0 -7.2 78.58 2.1
2020 12 01 2:00 276.0 0.0 0.00 18.0 -7.8 81.4 0.2
2020 12 01 3:00 277.3 0.0 0.00 18.1 -7.7 83.1 0.6
2020 12 01 4:00 278.3 0.0 0.00 18.8 -7.4 79.1 2.2
2020 12 01 5:00 279.2 0.0 0.00 18.1 -7.7 80.2 0.4
2020 12 01 6:00 280.1 0.0 0.00 15.1 -9.4 84.9 0.5
2020 12 01 7:00 281.3 0.0 0.00 14.6 -9.7 87 0.4
2020 12 01 8:00 282.1 0.0 0.00 16.2 -8.8 83.8 0.3
2020 12 01 9:00 281.5 0.0 0.00 20.0 -6.7 81.5 1.0
2020 12 01 10:00 277.7 0.0 0.00 27.2 -2.7 69.73 4.2
2020 12 01 11:00 268.6 0.0 0.00 31.9 -0.1 60.55 3.2
2020 12 01 12:00 267.0 0.0 0.00 35.9 2.2 49.05 2.6
2020 12 01 13:00 266.7 0.0 0.00 39.1 3.9 39.59 3.4
2020 12 01 14:00 266.3 0.0 0.00 41.6 5.4 33.67 3.7
2020 12 01 15:00 266.7 0.0 0.00 42.0 5.5 34.95 4.4
2020 12 01 16:00 266.6 0.0 0.00 41.6 5.3 32.68 5.2
2020 12 01 17:00 267.2 0.0 0.00 38.0 3.3 36.02 3.8
2020 12 01 18:00 267.6 0.0 0.00 35.1 1.7 38.87 1.7
2020 12 01 19:00 268.2 0.0 0.00 33.0 0.6 43.99 2.2
2020 12 01 20:00 268.4 0.0 0.00 30.3 -0.9 49.54 2.5
2020 12 01 21:00 269.0 0.0 0.00 28.4 -2.0 55.83 2.4
2020 12 01 22:00 269.0 0.0 0.00 27.7 -2.4 58.46 3.1
2020 12 01 23:00 269.0 0.0 0.00 27.3 -2.6 59.74 0.8
2020 12 01 24:00 269.1 0.0 0.00 27.2 -2.7 59.88 0.6
2020 12 02 1:00 269.4 0.0 0.00 25.8 -3.5 63.48 0.9
2020 12 02 2:00 269.7 0.0 0.00 25.4 -3.6 64.62 2.8
2020 12 02 3:00 270.0 0.0 0.00 24.1 -4.4 68.41 1.6
2020 12 02 4:00 269.8 0.0 0.00 24.0 -4.4 68.19 3.0
2020 12 02 5:00 269.8 0.0 0.00 23.9 -4.5 68.71 2.9
2020 12 02 6:00 270.0 0.0 0.00 23.5 -4.7 69.2 2.1
2020 12 02 7:00 270.5 0.0 0.00 22.2 -5.4 72.75 1.8
2020 12 02 8:00 270.2 0.0 0.00 22.5 -5.3 72.24 1.5
2020 12 02 9:00 269.0 0.0 0.00 25.2 -3.8 70.28 3.1
2020 12 02 10:00 268.4 0.0 0.00 30.0 -1.1 65.23 5.5
2020 12 02 11:00 267.6 0.0 0.00 35.6 2.0 52.06 6.1
2020 12 02 12:00 266.7 0.0 0.00 39.4 4.1 41.78 5.4
2020 12 02 13:00 266.0 0.0 0.00 44.1 6.7 34.38 3.0
2020 12 02 14:00 265.5 0.0 0.00 46.7 8.1 27.06 2.2
2020 12 02 15:00 265.7 0.0 0.00 46.8 8.2 25.25 3.0
2020 12 02 16:00 265.3 0.0 0.00 47.2 8.4 24.41 3.0
2020 12 02 17:00 266.3 0.0 0.00 43.6 6.5 32.04 1.5
2020 12 02 18:00 267.3 0.0 0.00 38.1 3.4 41.93 2.3
2020 12 02 19:00 268.1 0.0 0.00 35.1 1.7 49.47 2.1
2020 12 02 20:00 268.3 0.0 0.00 34.3 1.3 51.88 0.4
2020 12 02 21:00 268.6 0.0 0.00 33.0 0.5 54.75 0.5
2020 12 02 22:00 269.1 0.0 0.00 30.2 -1.0 62.27 0.0
2020 12 02 23:00 269.2 0.0 0.00 29.4 -1.5 62.46 0.0
2020 12 02 24:00 269.9 0.0 0.00 27.4 -2.6 66.12 0.5
2020 12 03 1:00 269.9 0.0 0.00 27.8 -2.3 64.67 0.5
2020 12 03 2:00 270.6 0.0 0.00 25.9 -3.4 69.38 1.2
2020 12 03 3:00 270.3 0.0 0.00 26.1 -3.3 69.96 2.6
2020 12 03 4:00 270.4 0.0 0.00 25.4 -3.7 71.72 3.2
2020 12 03 5:00 271.0 0.0 0.00 25.0 -3.9 72.43 0.2
2020 12 03 6:00 270.9 0.0 0.00 24.9 -4.0 74.46 1.4
2020 12 03 7:00 271.9 0.0 0.00 21.0 -6.1 80.9 1.9
2020 12 03 8:00 272.5 0.0 0.00 23.6 -4.7 84.1 4.6
2020 12 03 9:00 269.7 0.0 0.00 26.9 -2.9 80.2 1.0
2020 12 03 10:00 269.0 0.0 0.00 30.7 -0.7 76.62 2.9
2020 12 03 11:00 268.4 0.0 0.00 33.7 0.9 71.71 2.0
2020 12 03 12:00 267.6 0.0 0.00 37.6 3.1 64.03 1.7
2020 12 03 13:00 267.5 0.0 0.00 40.9 5.0 52.15 4.5
2020 12 03 14:00 267.5 0.0 0.00 41.9 5.5 48.51 5.1
2020 12 03 15:00 267.3 0.0 0.00 43.6 6.4 40.82 5.8
2020 12 03 16:00 267.0 0.0 0.00 43.4 6.3 41.27 5.2
2020 12 03 17:00 267.8 0.0 0.00 40.2 4.5 48.77 3.5
2020 12 03 18:00 268.4 0.0 0.00 36.4 2.4 53.36 3.3
2020 12 03 19:00 268.9 0.0 0.00 33.8 1.0 61.78 3.2
2020 12 03 20:00 269.5 0.0 0.00 31.8 -0.1 67.39 3.2
2020 12 03 21:00 270.0 0.0 0.00 30.6 -0.8 71.97 3.3
2020 12 03 22:00 270.5 0.0 0.00 29.8 -1.2 76.58 3.7
2020 12 03 23:00 271.0 0.0 0.00 29.3 -1.5 80.2 4.0
2020 12 03 24:00 272.4 0.0 0.00 28.8 -1.8 82 2.5
2020 12 04 1:00 272.6 0.0 0.00 28.1 -2.2 83.5 3.2
2020 12 04 2:00 272.6 0.0 0.00 26.9 -2.8 85.2 3.3
2020 12 04 3:00 273.2 0.0 0.00 26.2 -3.2 86.3 3.2
2020 12 04 4:00 273.7 0.0 0.00 26.0 -3.4 86.4 3.9
2020 12 04 5:00 273.8 0.0 0.00 25.9 -3.4 86.6 4.4
2020 12 04 6:00 273.6 0.0 0.00 26.1 -3.3 86.2 5.0
2020 12 04 7:00 273.5 0.0 0.00 25.5 -3.6 86.9 4.3
2020 12 04 8:00 273.2 0.0 0.00 25.7 -3.5 86.3 4.9
2020 12 04 9:00 270.2 0.0 0.00 28.8 -1.8 80.7 6.4
2020 12 04 10:00 269.4 0.0 0.00 33.1 0.6 72.28 7.3
2020 12 04 11:00 268.3 0.0 0.00 38.2 3.5 60.58 5.8
2020 12 04 12:00 267.5 0.0 0.00 42.6 5.9 51.26 6.2
2020 12 04 13:00 267.3 0.0 0.00 46.2 7.9 44.16 7.1
2020 12 04 14:00 267.0 0.0 0.00 48.4 9.1 42.01 7.0
2020 12 04 15:00 267.1 0.0 0.00 49.7 9.8 40.65 7.8
2020 12 04 16:00 266.9 0.0 0.00 49.9 10.0 41.35 6.3
2020 12 04 17:00 267.6 0.0 0.00 47.9 8.8 45.03 4.5
2020 12 04 18:00 268.1 0.0 0.00 45.1 7.3 49.55 3.7
2020 12 04 19:00 268.5 0.0 0.00 42.7 6.0 54.04 3.6
2020 12 04 20:00 268.8 0.0 0.00 41.6 5.4 56.32 3.8
2020 12 04 21:00 268.8 0.0 0.00 40.4 4.7 58.9 4.2
2020 12 04 22:00 269.0 0.0 0.00 38.3 3.5 62.98 4.2
2020 12 04 23:00 269.6 0.0 0.00 36.8 2.7 66.09 5.4
2020 12 04 24:00 269.9 0.0 0.00 36.0 2.2 68.09 1.6
2020 12 05 1:00 272.1 0.0 0.00 33.1 0.6 74.8 0.4
2020 12 05 2:00 273.0 0.0 0.00 31.9 -0.0 78.87 0.0
2020 12 05 3:00 273.3 0.0 0.00 32.1 0.0 78.08 1.2
2020 12 05 4:00 271.8 0.0 0.00 30.7 -0.7 80.3 3.4
2020 12 05 5:00 273.2 0.0 0.00 28.7 -1.8 82.9 0.6
2020 12 05 6:00 274.3 0.0 0.00 29.5 -1.4 85.2 1.9
2020 12 05 7:00 273.8 0.0 0.00 30.5 -0.9 82.9 1.3
2020 12 05 8:00 274.4 0.0 0.00 28.7 -1.8 86.6 0.1
2020 12 05 9:00 273.1 0.0 0.00 31.6 -0.2 83.3 0.6
2020 12 05 10:00 269.0 0.0 0.00 36.7 2.6 75.43 3.0
2020 12 05 11:00 267.5 0.0 0.00 42.3 5.7 63.77 1.6
2020 12 05 12:00 267.4 0.0 0.00 46.1 7.9 54.05 2.4
2020 12 05 13:00 266.7 0.0 0.00 48.6 9.2 48.95 1.2
2020 12 05 14:00 266.9 0.0 0.00 50.1 10.0 46.48 1.0
2020 12 05 15:00 267.2 0.0 0.00 50.5 10.3 45.54 3.0
2020 12 05 16:00 267.3 0.0 0.00 49.4 9.7 47.65 2.1
2020 12 05 17:00 268.2 0.0 0.00 46.5 8.0 52.6 0.4
2020 12 05 18:00 268.8 0.0 0.00 42.4 5.8 60.01 0.4
2020 12 05 19:00 269.1 0.0 0.00 40.8 4.9 62.46 0.2
2020 12 05 20:00 269.5 0.0 0.00 39.5 4.2 65.4 0.4
2020 12 05 21:00 270.3 0.0 0.00 36.1 2.3 72.09 1.9
2020 12 05 22:00 271.5 0.0 0.00 35.4 1.9 74.82 2.4
2020 12 05 23:00 270.9 0.0 0.00 34.2 1.2 77.13 4.7
2020 12 05 24:00 271.2 0.0 0.00 32.5 0.3 79.95 4.3
2020 12 06 1:00 274.6 0.0 0.00 30.2 -1.0 84.2 2.6
2020 12 06 2:00 271.9 0.0 0.00 30.6 -0.8 84.4 4.2
2020 12 06 3:00 271.2 0.0 0.00 30.9 -0.6 85 4.8
2020 12 06 4:00 271.9 0.0 0.00 31.3 -0.4 83.2 2.6
2020 12 06 5:00 274.8 0.0 0.00 30.5 -0.8 84.3 1.3
2020 12 06 6:00 274.3 0.0 0.00 30.1 -1.0 85.8 3.5
2020 12 06 7:00 274.2 0.0 0.00 29.2 -1.5 86.9 3.9
2020 12 06 8:00 275.2 0.0 0.00 27.9 -2.3 89.1 3.5
2020 12 06 9:00 272.0 0.0 0.00 29.4 -1.4 88 3.9
2020 12 06 10:00 270.6 0.0 0.00 33.1 0.6 83.8 4.9
2020 12 06 11:00 269.8 0.0 0.00 36.3 2.4 77.85 4.9
2020 12 06 12:00 269.0 0.0 0.00 39.4 4.1 70.59 4.9
2020 12 06 13:00 268.7 0.0 0.00 41.3 5.2 66.56 4.2
2020 12 06 14:00 268.7 0.0 0.00 42.5 5.8 62.97 4.6
2020 12 06 15:00 268.7 0.0 0.00 42.1 5.6 63.01 3.5
2020 12 06 16:00 268.7 0.0 0.00 41.0 5.0 64.45 3.6
2020 12 06 17:00 269.2 0.0 0.00 39.8 4.4 66.1 2.3
2020 12 06 18:00 269.5 0.0 0.00 39.0 3.9 69.54 2.2
2020 12 06 19:00 269.8 0.0 0.00 37.1 2.8 76.95 3.4
2020 12 06 20:00 270.2 0.0 0.00 35.9 2.2 80.3 1.9
2020 12 06 21:00 270.8 0.0 0.00 35.2 1.8 82.4 0.6
2020 12 06 22:00 270.9 0.0 0.00 34.8 1.6 83.9 3.3
2020 12 06 23:00 270.3 0.0 0.00 35.0 1.6 80.2 5.0
2020 12 06 24:00 270.3 0.0 0.00 34.9 1.6 79.91 6.6
2020 12 07 1:00 270.3 0.0 0.00 34.4 1.4 80.3 7.7
2020 12 07 2:00 270.4 0.0 0.00 33.3 0.7 81.9 7.7
2020 12 07 3:00 271.9 0.0 0.00 31.2 -0.5 86.6 6.2
2020 12 07 4:00 272.3 0.0 0.00 30.7 -0.7 92.5 6.2
2020 12 07 5:00 272.3 0.0 0.00 30.5 -0.9 100 5.5
2020 12 07 6:00 272.5 0.0 0.00 30.2 -1.0 100 4.0
2020 12 07 7:00 273.5 0.0 0.00 30.1 -1.1 100 3.9
2020 12 07 8:00 273.7 0.0 0.00 30.1 -1.0 100 1.9
2020 12 07 9:00 273.2 0.0 0.00 30.5 -0.8 100 1.6
2020 12 07 10:00 272.1 0.0 0.00 31.0 -0.6 100 1.0
2020 12 07 11:00 271.6 0.0 0.00 31.3 -0.4 100 1.6
2020 12 07 12:00 271.1 0.0 0.00 31.7 -0.2 100 2.6
2020 12 07 13:00 270.9 0.0 0.00 32.3 0.1 100 2.7
2020 12 07 14:00 270.9 0.0 0.00 32.9 0.5 94.7 2.1
2020 12 07 15:00 270.9 0.0 0.00 33.1 0.6 91 1.2
2020 12 07 16:00 270.9 0.0 0.00 33.3 0.7 89.4 2.3
2020 12 07 17:00 271.3 0.0 0.00 33.0 0.6 89.9 0.7
2020 12 07 18:00 271.6 0.0 0.00 32.9 0.5 90.5 1.5
2020 12 07 19:00 271.6 0.0 0.00 32.5 0.3 94 1.2
2020 12 07 20:00 271.6 0.0 0.00 32.4 0.2 99.3 0.7
2020 12 07 21:00 271.8 0.0 0.00 32.1 0.0 100 1.2
2020 12 07 22:00 272.3 0.0 0.00 32.0 -0.0 100 2.6
2020 12 07 23:00 272.4 0.0 0.00 31.7 -0.2 100 3.2
2020 12 07 24:00 273.0 0.0 0.00 31.3 -0.4 100 3.1
2020 12 08 1:00 273.4 0.0 0.00 31.1 -0.5 100 3.0
2020 12 08 2:00 273.9 0.0 0.00 31.1 -0.5 100 1.5
2020 12 08 3:00 274.9 0.0 0.00 30.8 -0.7 100 1.8
2020 12 08 4:00 275.1 0.0 0.00 30.6 -0.8 100 1.6
2020 12 08 5:00 278.9 0.0 0.00 30.4 -0.9 100 1.7
2020 12 08 6:00 Wet 295.9 0.0 0.00 30.1 -1.0 100 1.1
2020 12 08 7:00 278.5 0.0 0.00 29.8 -1.2 100 2.9
2020 12 08 8:00 280.4 0.0 0.00 29.5 -1.4 100 3.6
2020 12 08 9:00 281.8 0.0 0.00 29.2 -1.5 100 3.3
2020 12 08 10:00 281.5 0.0 0.00 29.8 -1.2 100 4.5
2020 12 08 11:00 Wet 304.6 0.0 0.00 30.7 -0.7 100 6.9
2020 12 08 12:00 Wet 285.7 0.0 0.00 31.7 -0.2 100 6.5
2020 12 08 13:00 275.9 0.0 0.00 32.9 0.5 100 6.3
2020 12 08 14:00 270.9 0.0 0.00 35.9 2.2 90.6 7.3
2020 12 08 15:00 270.7 0.0 0.00 38.1 3.4 78.06 7.1
2020 12 08 16:00 270.2 0.0 0.00 39.2 4.0 73.74 6.2
2020 12 08 17:00 270.5 0.0 0.00 38.5 3.6 74.07 5.5
2020 12 08 18:00 271.5 0.0 0.00 35.2 1.8 82.8 5.7
2020 12 08 19:00 272.3 0.0 0.00 34.1 1.2 89.7 6.7
2020 12 08 20:00 273.8 0.0 0.00 33.5 0.8 96.1 5.8
2020 12 08 21:00 274.0 0.0 0.00 33.9 1.1 97.5 6.4
2020 12 08 22:00 272.6 0.0 0.00 34.8 1.6 89.4 5.7
2020 12 08 23:00 271.5 0.0 0.00 36.5 2.5 81.7 5.8
2020 12 08 24:00 270.6 0.0 0.00 38.9 3.8 71.46 5.5
2020 12 09 1:00 270.3 0.0 0.00 39.0 3.9 69.05 5.5
2020 12 09 2:00 270.2 0.0 0.00 38.4 3.5 70.3 5.4
2020 12 09 3:00 270.4 0.0 0.00 38.0 3.3 69.9 5.4
2020 12 09 4:00 270.3 0.0 0.00 38.0 3.3 68.4 6.2
2020 12 09 5:00 270.2 0.0 0.00 37.5 3.1 68.53 6.1
2020 12 09 6:00 270.2 0.0 0.00 37.7 3.2 66.68 5.9
2020 12 09 7:00 270.3 0.0 0.00 37.2 2.9 67.25 6.3
2020 12 09 8:00 270.1 0.0 0.00 37.0 2.8 67.39 6.2
2020 12 09 9:00 268.9 0.0 0.00 39.3 4.1 64.6 5.0
2020 12 09 10:00 268.1 0.0 0.00 44.8 7.1 54.8 5.9
2020 12 09 11:00 267.1 0.0 0.00 50.9 10.5 44.69 5.7
2020 12 09 12:00 266.4 0.0 0.00 55.6 13.1 37.56 6.4
2020 12 09 13:00 265.9 0.0 0.00 58.6 14.8 32.05 6.2
2020 12 09 14:00 265.7 0.0 0.00 60.6 15.9 29.18 4.6
2020 12 09 15:00 265.8 0.0 0.00 60.8 16.0 28.53 4.9
2020 12 09 16:00 265.8 0.0 0.00 60.0 15.6 29.71 3.5
2020 12 09 17:00 266.0 0.0 0.00 56.8 13.8 32.6 2.1
2020 12 09 18:00 266.6 0.0 0.00 53.2 11.8 36.5 0.0
2020 12 09 19:00 267.3 0.0 0.00 49.6 9.8 42.28 1.8
2020 12 09 20:00 267.4 0.0 0.00 47.7 8.7 45.8 3.4
2020 12 09 21:00 267.9 0.0 0.00 45.6 7.5 49.49 1.6
2020 12 09 22:00 268.4 0.0 0.00 43.6 6.5 53.23 0.0
2020 12 09 23:00 268.9 0.0 0.00 41.4 5.2 57.83 0.2
2020 12 09 24:00 269.3 0.0 0.00 40.9 4.9 59.01 0.3
2020 12 10 1:00 269.6 0.0 0.00 39.8 4.3 61.89 0.5
2020 12 10 2:00 269.5 0.0 0.00 40.1 4.5 62.7 0.6
2020 12 10 3:00 269.8 0.0 0.00 40.1 4.5 64.06 0.6
2020 12 10 4:00 270.3 0.0 0.00 39.0 3.9 67.18 0.2
2020 12 10 5:00 270.3 0.0 0.00 38.3 3.5 69.28 1.8
2020 12 10 6:00 271.0 0.0 0.00 36.5 2.5 73.29 1.1
2020 12 10 7:00 271.6 0.0 0.00 36.1 2.3 74.28 1.0
2020 12 10 8:00 270.3 0.0 0.00 38.4 3.5 69.58 2.1
2020 12 10 9:00 268.5 0.0 0.00 40.6 4.8 68.53 2.2
2020 12 10 10:00 267.3 0.0 0.00 47.3 8.5 57.27 4.8
2020 12 10 11:00 266.4 0.0 0.00 54.0 12.2 45.74 5.8
2020 12 10 12:00 265.9 0.0 0.00 59.3 15.2 38.06 7.2
2020 12 10 13:00 265.3 0.0 0.00 63.1 17.3 32.67 6.9
2020 12 10 14:00 265.1 0.0 0.00 64.9 18.3 30.52 7.2
2020 12 10 15:00 265.1 0.0 0.00 64.5 18.1 31.47 6.7
2020 12 10 16:00 265.8 0.0 0.00 61.5 16.4 35.63 3.9
2020 12 10 17:00 266.3 0.0 0.00 59.1 15.1 37.61 0.0
2020 12 10 18:00 266.9 0.0 0.00 56.2 13.4 40.19 1.1
2020 12 10 19:00 267.3 0.0 0.00 52.8 11.5 45.6 2.7
2020 12 10 20:00 267.6 0.0 0.00 50.5 10.3 48.9 0.7
2020 12 10 21:00 268.0 0.0 0.00 48.4 9.1 53.28 1.8
2020 12 10 22:00 268.7 0.0 0.00 42.7 6.0 67.3 6.3
2020 12 10 23:00 268.8 0.0 0.00 42.0 5.6 68.54 7.7
2020 12 10 24:00 268.8 0.0 0.00 41.4 5.2 69.13 7.7
2020 12 11 1:00 268.8 0.0 0.00 40.4 4.7 71.15 5.8
2020 12 11 2:00 268.8 0.0 0.00 39.6 4.2 73.18 6.5
2020 12 11 3:00 268.8 0.0 0.00 39.3 4.0 74.25 7.2
2020 12 11 4:00 268.9 0.0 0.00 39.2 4.0 74.32 7.7
2020 12 11 5:00 271.7 0.0 0.00 38.9 3.8 76 4.9
2020 12 11 6:00 Wet 311.4 0.0 0.00 39.0 3.9 77.55 4.9
2020 12 11 7:00 Wet 379.5 0.0 0.00 38.3 3.5 84.1 5.4
2020 12 11 8:00 Wet 365.1 0.0 0.00 37.8 3.2 87.6 5.8
2020 12 11 9:00 Wet 309.7 0.0 0.00 37.6 3.1 87.7 4.7
2020 12 11 10:00 Wet 502.5 0.1 1.52 37.0 2.8 98.2 8.0
2020 12 11 11:00 Wet 510.9 0.1 2.29 37.0 2.8 100 7.5
2020 12 11 12:00 Wet 477.5 0.1 1.27 37.5 3.1 100 8.7
2020 12 11 13:00 Wet 487.6 0.0 1.02 37.8 3.2 100 8.7
2020 12 11 14:00 Wet 521.6 0.1 2.79 38.3 3.5 100 8.2
2020 12 11 15:00 Wet 511.0 0.1 2.29 39.2 4.0 100 8.8
2020 12 11 16:00 Wet 457.8 0.1 2.03 39.8 4.3 100 8.6
2020 12 11 17:00 Wet 353.2 0.0 0.25 39.4 4.1 100 10.0
2020 12 11 18:00 Wet 426.0 0.0 0.51 39.1 4.0 100 10.5
2020 12 11 19:00 Wet 474.4 0.0 0.76 39.1 4.0 100 11.1
2020 12 11 20:00 Wet 431.7 0.0 0.51 39.3 4.1 100 11.9
2020 12 11 21:00 Wet 420.7 0.0 0.25 39.4 4.1 100 12.0
2020 12 11 22:00 Wet 433.1 0.0 0.00 38.7 3.7 100 13.3
2020 12 11 23:00 Wet 432.7 0.0 0.00 37.0 2.8 100 11.6
2020 12 11 24:00 Wet 510.8 0.0 0.25 35.7 2.1 100 10.8
2020 12 12 1:00 Wet 503.0 0.0 0.00 34.9 1.6 100 10.7
2020 12 12 2:00 Wet 482.7 0.0 0.25 34.2 1.2 100 8.8
2020 12 12 3:00 Wet 598.6 0.1 1.52 33.4 0.8 100 5.5
2020 12 12 4:00 Wet 570.5 0.0 0.00 32.2 0.1 100 1.9
2020 12 12 5:00 Wet 580.1 0.0 0.00 32.2 0.1 100 2.0
2020 12 12 6:00 Wet 480.8 0.0 0.00 32.1 0.0 100 2.5
2020 12 12 7:00 Wet 383.5 0.0 0.00 32.0 -0.0 100 3.2
2020 12 12 8:00 Wet 368.3 0.0 0.00 31.8 -0.1 100 3.4
2020 12 12 9:00 Wet 343.7 0.0 0.00 31.5 -0.3 100 3.7
2020 12 12 10:00 Wet 332.1 0.0 0.00 31.2 -0.5 100 3.6
2020 12 12 11:00 Wet 497.7 0.0 0.00 31.3 -0.4 100 5.3
2020 12 12 12:00 Wet 322.1 0.0 0.00 31.3 -0.4 100 5.2
2020 12 12 13:00 Wet 284.7 0.0 0.00 31.0 -0.5 100 4.5
2020 12 12 14:00 282.9 0.0 0.00 31.0 -0.5 100 5.2
2020 12 12 15:00 281.7 0.0 0.00 30.7 -0.7 100 4.9
2020 12 12 16:00 280.7 0.0 0.00 30.5 -0.8 100 5.0
2020 12 12 17:00 280.5 0.0 0.00 30.2 -1.0 100 5.3
2020 12 12 18:00 280.2 0.0 0.00 30.1 -1.1 100 5.5
2020 12 12 19:00 279.9 0.0 0.00 30.0 -1.1 100 4.4
2020 12 12 20:00 279.6 0.0 0.00 29.4 -1.5 100 3.2
2020 12 12 21:00 279.2 0.0 0.00 28.2 -2.1 100 2.7
2020 12 12 22:00 279.2 0.0 0.00 29.0 -1.7 100 3.4
2020 12 12 23:00 279.2 0.0 0.00 30.1 -1.0 97.2 4.2
2020 12 12 24:00 279.1 0.0 0.00 29.7 -1.3 92.9 3.9
2020 12 13 1:00 278.5 0.0 0.00 28.7 -1.8 90.1 4.6
2020 12 13 2:00 278.5 0.0 0.00 27.6 -2.5 89.5 4.3
2020 12 13 3:00 278.3 0.0 0.00 26.8 -2.9 89.5 3.8
2020 12 13 4:00 277.9 0.0 0.00 26.4 -3.1 89.8 2.6
2020 12 13 5:00 277.9 0.0 0.00 25.3 -3.7 90.7 3.3
2020 12 13 6:00 277.9 0.0 0.00 23.6 -4.7 92.2 1.9
2020 12 13 7:00 277.8 0.0 0.00 22.5 -5.3 94.7 2.6
2020 12 13 8:00 277.6 0.0 0.00 20.8 -6.2 99.8 0.3
2020 12 13 9:00 276.9 0.0 0.00 20.2 -6.6 100 2.0
2020 12 13 10:00 276.0 0.0 0.00 22.1 -5.5 92 4.2
2020 12 13 11:00 275.3 0.0 0.00 24.0 -4.5 87.1 4.6
2020 12 13 12:00 275.4 0.0 0.00 25.3 -3.7 87 5.8
2020 12 13 13:00 275.7 0.0 0.00 26.6 -3.0 84.4 7.5
2020 12 13 14:00 275.2 0.0 0.00 26.6 -3.0 80.8 6.3
2020 12 13 15:00 275.0 0.0 0.00 26.9 -2.8 80.3 5.8
2020 12 13 16:00 275.0 0.0 0.00 26.9 -2.8 81.5 8.0
2020 12 13 17:00 275.1 0.0 0.00 25.1 -3.8 83.1 8.0
2020 12 13 18:00 275.1 0.0 0.00 24.2 -4.3 82.9 9.6
2020 12 13 19:00 274.8 0.0 0.00 23.9 -4.5 82.3 10.0
2020 12 13 20:00 274.4 0.0 0.00 24.4 -4.2 82.8 12.0
2020 12 13 21:00 274.5 0.0 0.00 24.0 -4.4 85.7 6.2
2020 12 13 22:00 274.5 0.0 0.00 22.7 -5.2 88.8 5.2
2020 12 13 23:00 274.6 0.0 0.00 22.5 -5.3 88.2 6.1
2020 12 13 24:00 275.2 0.0 0.00 20.1 -6.6 94.1 4.3
2020 12 14 1:00 276.0 0.0 0.00 19.2 -7.1 99.6 6.0
2020 12 14 2:00 276.6 0.0 0.00 19.8 -6.8 93.4 6.6
2020 12 14 3:00 277.0 0.0 0.00 19.1 -7.1 92.9 6.8
2020 12 14 4:00 277.3 0.0 0.00 19.3 -7.1 90 6.5
2020 12 14 5:00 277.3 0.0 0.00 19.3 -7.0 86.2 7.5
2020 12 14 6:00 276.9 0.0 0.00 18.3 -7.6 84.2 7.1
2020 12 14 7:00 276.6 0.0 0.00 17.3 -8.2 83.7 5.5
2020 12 14 8:00 276.5 0.0 0.00 15.8 -9.0 83.9 5.4
2020 12 14 9:00 275.2 0.0 0.00 16.4 -8.6 81.5 4.8
2020 12 14 10:00 273.2 0.0 0.00 18.6 -7.4 76.73 4.7
2020 12 14 11:00 272.3 0.0 0.00 20.6 -6.4 74.07 4.0
2020 12 14 12:00 271.9 0.0 0.00 22.3 -5.4 71.45 3.6
2020 12 14 13:00 271.6 0.0 0.00 24.0 -4.5 68.56 3.1
2020 12 14 14:00 271.6 0.0 0.25 25.0 -3.9 67.24 3.6
2020 12 14 15:00 271.7 0.0 0.25 25.7 -3.5 67.85 3.5
2020 12 14 16:00 272.3 0.0 0.00 24.8 -4.0 70.53 5.2
2020 12 14 17:00 272.6 0.0 0.00 23.2 -4.9 74.58 3.8
2020 12 14 18:00 273.2 0.0 0.00 20.9 -6.2 81.7 2.1
2020 12 14 19:00 273.9 0.0 0.00 19.9 -6.7 83.3 0.6
2020 12 14 20:00 274.5 0.0 0.00 18.3 -7.6 82 3.6
2020 12 14 21:00 274.5 0.0 0.00 17.5 -8.1 83.4 3.2
2020 12 14 22:00 274.5 0.0 0.00 17.5 -8.1 85 2.8
2020 12 14 23:00 274.5 0.0 0.00 17.2 -8.2 85.8 5.2
2020 12 14 24:00 274.5 0.0 0.00 17.0 -8.3 86.2 6.0
2020 12 15 1:00 274.8 0.0 0.00 16.3 -8.7 86.9 5.4
2020 12 15 2:00 275.5 0.0 0.00 15.2 -9.3 88.1 4.0
2020 12 15 3:00 276.2 0.0 0.00 14.3 -9.9 88.5 4.4
2020 12 15 4:00 276.7 0.0 0.00 14.4 -9.8 88.1 4.8
2020 12 15 5:00 277.1 0.0 0.00 13.6 -10.2 88.7 3.3
2020 12 15 6:00 277.9 0.0 0.00 13.8 -10.1 91.5 5.3
2020 12 15 7:00 278.4 0.0 0.00 14.3 -9.8 91.9 4.7
2020 12 15 8:00 278.8 0.0 0.00 14.4 -9.8 93.7 5.2
2020 12 15 9:00 279.0 0.0 0.00 15.2 -9.3 94.9 5.4
2020 12 15 10:00 278.0 0.0 0.00 17.2 -8.2 92.8 5.0
2020 12 15 11:00 276.6 0.0 0.00 19.8 -6.8 90.2 5.2
2020 12 15 12:00 275.1 0.0 0.00 21.8 -5.7 87.1 4.5
2020 12 15 13:00 273.2 0.0 0.00 23.2 -4.9 83.8 5.7
2020 12 15 14:00 272.0 0.0 0.00 23.8 -4.6 82.7 5.9
2020 12 15 15:00 272.1 0.0 0.00 23.9 -4.5 83.7 6.0
2020 12 15 16:00 272.4 0.0 0.00 23.9 -4.5 83.2 6.4
2020 12 15 17:00 272.4 0.0 0.00 23.5 -4.7 83.2 8.8
2020 12 15 18:00 272.4 0.0 0.00 23.2 -4.9 84.3 6.8
2020 12 15 19:00 272.4 0.0 0.00 23.0 -5.0 85.4 4.9
2020 12 15 20:00 272.5 0.0 0.00 22.9 -5.1 86.4 6.0
2020 12 15 21:00 273.0 0.0 0.00 22.7 -5.2 87.4 6.1
2020 12 15 22:00 273.1 0.0 0.00 22.7 -5.1 88.3 6.3
2020 12 15 23:00 273.2 0.0 0.00 21.7 -5.7 89.1 4.3
2020 12 15 24:00 273.7 0.0 0.00 21.0 -6.1 88.8 4.3
2020 12 16 1:00 273.2 0.0 0.00 20.7 -6.3 88.3 4.9
2020 12 16 2:00 273.6 0.0 0.00 19.6 -6.9 89.3 4.9
2020 12 16 3:00 274.3 0.0 0.00 18.2 -7.6 89 3.8
2020 12 16 4:00 275.5 0.0 0.00 17.5 -8.0 92.6 3.5
2020 12 16 5:00 275.9 0.0 0.00 18.1 -7.7 88.6 3.9
2020 12 16 6:00 275.9 0.0 0.00 17.7 -7.9 86.9 3.6
2020 12 16 7:00 275.9 0.0 0.00 17.3 -8.2 86.4 2.2
2020 12 16 8:00 276.5 0.0 0.00 16.0 -8.9 89.5 0.4
2020 12 16 9:00 275.9 0.0 0.00 17.7 -8.0 86.1 0.7
2020 12 16 10:00 273.4 0.0 0.00 20.2 -6.6 81.7 3.0
2020 12 16 11:00 271.0 0.0 0.00 22.8 -5.1 79.5 2.9
2020 12 16 12:00 270.9 0.0 0.00 24.7 -4.1 78.81 4.9
2020 12 16 13:00 270.5 0.0 0.00 27.3 -2.6 72.42 4.1
2020 12 16 14:00 270.3 0.0 0.25 28.4 -2.0 66.25 4.0
2020 12 16 15:00 270.0 0.0 0.25 29.4 -1.5 62.85 2.4
2020 12 16 16:00 269.5 0.0 0.25 29.0 -1.7 61.29 3.1
2020 12 16 17:00 270.1 0.0 0.00 28.6 -1.9 61.27 0.7
2020 12 16 18:00 272.3 0.0 0.00 25.9 -3.4 70.63 0.0
2020 12 16 19:00 273.7 0.0 0.00 24.1 -4.4 74.99 0.0
2020 12 16 20:00 274.2 0.0 0.00 23.5 -4.7 76.85 0.1
2020 12 16 21:00 275.3 0.0 0.00 21.3 -5.9 81.9 0.3
2020 12 16 22:00 276.6 0.0 0.00 20.9 -6.2 83.7 3.8
2020 12 16 23:00 277.0 0.0 0.00 20.3 -6.5 88.2 4.7
2020 12 16 24:00 277.7 0.0 0.00 19.8 -6.8 90.7 0.7
2020 12 17 1:00 279.5 0.0 0.00 17.0 -8.4 98.9 0.3
2020 12 17 2:00 280.8 0.0 0.00 16.3 -8.7 100 1.0
2020 12 17 3:00 282.0 0.0 0.00 17.0 -8.3 100 1.4
2020 12 17 4:00 282.1 0.0 0.00 20.4 -6.4 100 1.0
2020 12 17 5:00 282.1 0.0 0.00 21.4 -5.9 100 1.2
2020 12 17 6:00 282.0 0.0 0.00 22.5 -5.3 100 1.9
2020 12 17 7:00 281.8 0.0 0.00 22.9 -5.0 99.4 2.9
2020 12 17 8:00 281.3 0.0 0.00 23.4 -4.8 96.3 3.2
2020 12 17 9:00 280.9 0.0 0.00 24.7 -4.0 94.2 3.4
2020 12 17 10:00 278.9 0.0 0.00 26.8 -2.9 90 5.3
2020 12 17 11:00 273.0 0.0 0.00 29.4 -1.4 87.1 8.5
2020 12 17 12:00 270.6 0.0 0.00 31.5 -0.3 82.3 10.7
2020 12 17 13:00 270.3 0.0 0.25 33.3 0.7 78.51 9.2
2020 12 17 14:00 270.0 0.1 1.27 35.3 1.8 73.66 7.2
2020 12 17 15:00 270.1 0.0 1.02 36.5 2.5 71.15 6.2
2020 12 17 16:00 270.2 0.0 1.02 37.4 3.0 69.34 4.9
2020 12 17 17:00 271.2 0.0 0.00 36.4 2.4 70.99 1.1
2020 12 17 18:00 274.1 0.0 0.00 33.1 0.6 78.23 1.3
2020 12 17 19:00 274.5 0.0 0.00 30.2 -1.0 84.3 2.4
2020 12 17 20:00 275.8 0.0 0.00 29.3 -1.5 87.4 2.0
2020 12 17 21:00 277.6 0.0 0.00 27.5 -2.5 93.5 2.1
2020 12 17 22:00 278.9 0.0 0.00 27.0 -2.8 92.1 4.7
2020 12 17 23:00 279.9 0.0 0.00 26.6 -3.0 90.5 4.8
2020 12 17 24:00 280.9 0.0 0.00 25.8 -3.4 92 4.6
2020 12 18 1:00 281.8 0.0 0.00 25.2 -3.8 94.9 4.7
2020 12 18 2:00 282.9 0.0 0.00 24.6 -4.1 99 5.3
2020 12 18 3:00 283.7 0.0 0.00 24.4 -4.2 98.3 5.1
2020 12 18 4:00 Wet 284.4 0.0 0.00 24.0 -4.4 100 4.8
2020 12 18 5:00 Wet 285.2 0.0 0.00 24.0 -4.5 100 5.7
2020 12 18 6:00 Wet 285.4 0.0 0.00 24.8 -4.0 100 6.5
2020 12 18 7:00 Wet 285.4 0.0 0.00 25.8 -3.5 99.4 7.9
2020 12 18 8:00 Wet 285.3 0.0 0.00 26.6 -3.0 96.9 7.3
2020 12 18 9:00 Wet 284.4 0.0 0.00 28.0 -2.2 94.3 8.4
2020 12 18 10:00 283.2 0.0 0.00 30.5 -0.8 89.4 8.4
2020 12 18 11:00 Wet 287.0 0.0 0.00 34.8 1.5 80.5 9.4
2020 12 18 12:00 272.6 0.0 0.25 39.3 4.1 70.73 13.4
2020 12 18 13:00 269.5 0.0 0.00 43.4 6.3 63.1 13.6
2020 12 18 14:00 269.1 0.0 0.00 46.5 8.1 55.77 14.0
2020 12 18 15:00 268.7 0.0 0.00 46.9 8.2 53.45 14.2
2020 12 18 16:00 268.7 0.0 0.00 47.7 8.7 51.41 14.3
2020 12 18 17:00 268.9 0.0 0.00 45.1 7.3 55.81 9.1
2020 12 18 18:00 269.5 0.0 0.00 42.3 5.7 60.98 7.1
2020 12 18 19:00 269.5 0.0 0.00 42.1 5.6 62.69 8.2
2020 12 18 20:00 269.5 0.0 0.00 42.5 5.8 62.84 9.4
2020 12 18 21:00 269.2 0.0 0.00 43.1 6.2 62 9.2
2020 12 18 22:00 268.8 0.0 0.00 45.0 7.2 58.43 9.7
2020 12 18 23:00 268.8 0.0 0.00 45.3 7.4 57.75 9.1
2020 12 18 24:00 268.7 0.0 0.00 45.2 7.3 59.22 7.9
2020 12 19 1:00 269.0 0.0 0.00 44.0 6.7 63.52 5.3
2020 12 19 2:00 269.7 0.0 0.00 41.0 5.0 71.19 7.2
2020 12 19 3:00 270.8 0.0 0.00 36.3 2.4 81.1 7.8
2020 12 19 4:00 272.6 0.0 0.00 33.5 0.8 88.3 7.2
2020 12 19 5:00 272.2 0.0 0.00 33.8 1.0 94.2 8.6
2020 12 19 6:00 272.1 0.0 0.00 33.7 0.9 92.7 8.1
2020 12 19 7:00 272.3 0.0 0.00 32.2 0.1 95.2 8.9
2020 12 19 8:00 272.2 0.0 0.00 31.0 -0.6 94.7 7.7
2020 12 19 9:00 271.8 0.0 0.00 30.9 -0.6 92.3 7.9
2020 12 19 10:00 271.6 0.0 0.00 31.1 -0.5 90 6.7
2020 12 19 11:00 271.6 0.0 0.00 30.1 -1.0 94.5 8.0
2020 12 19 12:00 271.6 0.0 0.00 29.0 -1.7 99.4 7.0
2020 12 19 13:00 271.6 0.0 0.00 28.9 -1.7 97.9 6.9
2020 12 19 14:00 271.6 0.0 0.00 29.7 -1.3 91 5.9
2020 12 19 15:00 271.3 0.0 0.00 30.8 -0.6 86.4 6.5
2020 12 19 16:00 270.9 0.0 0.00 30.7 -0.7 83.8 6.2
2020 12 19 17:00 270.9 0.0 0.00 29.9 -1.2 82.2 6.2
2020 12 19 18:00 270.9 0.0 0.00 29.4 -1.4 81.9 4.4
2020 12 19 19:00 272.3 0.0 0.00 29.0 -1.7 82.8 0.9
2020 12 19 20:00 274.4 0.0 0.00 27.1 -2.7 88.3 1.0
2020 12 19 21:00 276.7 0.0 0.00 25.3 -3.7 95.5 1.1
2020 12 19 22:00 278.6 0.0 0.00 23.4 -4.8 99.9 0.5
2020 12 19 23:00 280.6 0.0 0.00 22.5 -5.3 100 1.8
2020 12 19 24:00 281.8 0.0 0.00 21.4 -5.9 100 1.2
2020 12 20 1:00 283.2 0.0 0.00 22.7 -5.2 100 1.9
2020 12 20 2:00 Wet 284.4 0.0 0.00 22.3 -5.4 100 2.4
2020 12 20 3:00 Wet 285.3 0.0 0.00 22.3 -5.4 99.3 3.7
2020 12 20 4:00 Wet 286.1 0.0 0.00 23.8 -4.6 92.3 4.2
2020 12 20 5:00 Wet 286.6 0.0 0.00 25.4 -3.7 87.7 4.6
2020 12 20 6:00 Wet 286.6 0.0 0.00 25.4 -3.7 86.7 5.1
2020 12 20 7:00 Wet 286.1 0.0 0.00 25.8 -3.4 86.1 5.3
2020 12 20 8:00 Wet 285.6 0.0 0.00 26.6 -3.0 83.5 5.1
2020 12 20 9:00 Wet 284.4 0.0 0.00 27.9 -2.3 82 6.1
2020 12 20 10:00 280.6 0.0 0.00 29.8 -1.2 80.2 6.8
2020 12 20 11:00 272.5 0.0 0.00 32.4 0.2 76.58 6.8
2020 12 20 12:00 269.6 0.0 0.00 35.6 2.0 70.57 5.8
2020 12 20 13:00 269.3 0.0 0.00 39.6 4.2 64.31 6.4
2020 12 20 14:00 268.7 0.0 0.00 42.8 6.0 56.12 7.9
2020 12 20 15:00 268.7 0.0 0.00 43.9 6.6 54.09 7.0
2020 12 20 16:00 268.7 0.0 0.00 43.4 6.3 56.54 4.5
2020 12 20 17:00 269.3 0.0 0.00 41.7 5.4 58.61 2.2
2020 12 20 18:00 269.8 0.0 0.00 38.8 3.8 64.23 1.8
2020 12 20 19:00 270.2 0.0 0.00 36.6 2.5 69.46 3.0
2020 12 20 20:00 270.2 0.0 0.00 36.7 2.6 70.22 4.0
2020 12 20 21:00 269.7 0.0 0.00 38.4 3.6 67.19 5.8
2020 12 20 22:00 269.9 0.0 0.00 37.3 2.9 70.78 4.6
2020 12 20 23:00 269.8 0.0 0.00 37.5 3.1 69.83 6.5
2020 12 20 24:00 269.5 0.0 0.00 39.2 4.0 62.06 8.8
2020 12 21 1:00 269.0 0.0 0.00 40.3 4.6 56.63 9.8
2020 12 21 2:00 269.3 0.0 0.00 39.2 4.0 58.61 7.9
2020 12 21 3:00 269.5 0.0 0.00 38.1 3.4 60.83 6.5
2020 12 21 4:00 269.5 0.0 0.00 38.1 3.4 61.69 7.0
2020 12 21 5:00 269.5 0.0 0.00 39.1 4.0 62.35 9.1
2020 12 21 6:00 269.5 0.0 0.00 40.0 4.4 61.72 9.7
2020 12 21 7:00 269.5 0.0 0.00 39.8 4.3 62.37 8.0
2020 12 21 8:00 269.5 0.0 0.00 38.2 3.5 65.87 7.8
2020 12 21 9:00 269.0 0.0 0.00 40.0 4.4 63.02 9.7
2020 12 21 10:00 268.5 0.0 0.00 43.7 6.5 54.42 12.4
2020 12 21 11:00 267.5 0.0 0.00 47.8 8.8 39.47 16.1
2020 12 21 12:00 266.6 0.0 0.00 50.6 10.3 31.42 16.7
2020 12 21 13:00 266.1 0.0 0.00 51.2 10.6 27.33 20.6
2020 12 21 14:00 265.9 0.0 0.00 51.8 11.0 25.04 18.9
2020 12 21 15:00 265.9 0.0 0.00 51.7 11.0 24.69 19.4
2020 12 21 16:00 265.9 0.0 0.00 51.5 10.8 25.39 18.1
2020 12 21 17:00 266.0 0.0 0.00 50.1 10.0 28.63 17.2
2020 12 21 18:00 266.2 0.0 0.00 48.0 8.9 35.06 14.0
2020 12 21 19:00 266.7 0.0 0.00 45.6 7.6 39.73 10.5
2020 12 21 20:00 266.9 0.0 0.00 43.2 6.2 43.34 9.2
2020 12 21 21:00 267.3 0.0 0.00 41.8 5.5 45.34 9.2
2020 12 21 22:00 267.4 0.0 0.00 39.5 4.2 49.7 8.2
2020 12 21 23:00 268.0 0.0 0.00 36.7 2.6 55.53 5.8
2020 12 21 24:00 268.4 0.0 0.00 34.6 1.4 61.01 5.4
2020 12 22 1:00 268.9 0.0 0.00 32.5 0.3 65.62 4.8
2020 12 22 2:00 269.5 0.0 0.00 32.0 -0.0 66.38 3.6
2020 12 22 3:00 271.0 0.0 0.00 28.8 -1.8 73.9 1.3
2020 12 22 4:00 271.7 0.0 0.00 27.9 -2.3 76.33 1.0
2020 12 22 5:00 272.6 0.0 0.00 25.7 -3.5 80.9 0.6
2020 12 22 6:00 273.6 0.0 0.00 24.7 -4.1 84.9 1.3
2020 12 22 7:00 271.6 0.0 0.00 28.2 -2.1 82.9 2.4
2020 12 22 8:00 271.6 0.0 0.00 27.4 -2.6 81.6 3.7
2020 12 22 9:00 269.8 0.0 0.00 30.5 -0.9 76.41 5.1
2020 12 22 10:00 268.6 0.0 0.00 35.8 2.1 65.16 8.8
2020 12 22 11:00 267.9 0.0 0.00 40.7 4.8 54.51 11.0
2020 12 22 12:00 267.1 0.0 0.00 45.4 7.5 43.22 12.1
2020 12 22 13:00 266.3 0.0 0.00 49.5 9.7 35.01 12.6
2020 12 22 14:00 266.0 0.0 0.00 52.2 11.2 29.06 14.1
2020 12 22 15:00 265.9 0.0 0.00 53.6 12.0 27.1 14.1
2020 12 22 16:00 265.7 0.0 0.00 53.6 12.0 27.31 13.0
2020 12 22 17:00 265.9 0.0 0.00 51.9 11.0 28.45 10.9
2020 12 22 18:00 266.0 0.0 0.00 49.7 9.8 30.97 11.5
2020 12 22 19:00 266.0 0.0 0.00 49.4 9.7 32.09 14.3
2020 12 22 20:00 266.0 0.0 0.00 49.9 9.9 32.45 14.8
2020 12 22 21:00 266.0 0.0 0.00 50.7 10.4 34.85 16.8
2020 12 22 22:00 266.2 0.0 0.00 51.1 10.6 38.12 17.9
2020 12 22 23:00 266.7 0.0 0.00 50.3 10.2 41.95 18.2
2020 12 22 24:00 266.7 0.0 0.00 50.3 10.2 44.58 19.3
2020 12 23 1:00 267.1 0.0 0.00 49.7 9.8 48 18.9
2020 12 23 2:00 267.3 0.0 0.00 48.8 9.3 52.64 16.6
2020 12 23 3:00 267.5 0.0 0.00 49.0 9.5 56.36 16.8
2020 12 23 4:00 267.7 0.0 0.00 49.9 10.0 58.28 17.3
2020 12 23 5:00 268.0 0.0 0.00 50.7 10.4 60.65 18.4
2020 12 23 6:00 268.1 0.0 0.00 52.2 11.2 62.56 19.8
2020 12 23 7:00 268.3 0.0 0.00 53.2 11.8 64.79 20.0
2020 12 23 8:00 268.7 0.0 0.00 53.9 12.1 67 20.7
2020 12 23 9:00 268.7 0.0 0.00 54.3 12.4 68.77 19.2
2020 12 23 10:00 267.8 0.0 0.00 52.6 11.4 56.34 22.1
2020 12 23 11:00 267.9 0.0 0.00 46.5 8.0 57.42 21.5
2020 12 23 12:00 268.0 0.0 0.00 44.9 7.2 59.97 18.6
2020 12 23 13:00 268.1 0.0 0.00 42.3 5.7 64.72 19.2
2020 12 23 14:00 268.7 0.0 0.00 37.1 2.8 66.57 19.4
2020 12 23 15:00 268.3 0.0 0.00 33.3 0.7 58.9 19.1
2020 12 23 16:00 268.6 0.0 0.00 29.2 -1.6 59.59 18.9
2020 12 23 17:00 268.7 0.0 0.00 25.6 -3.6 58.05 19.6
2020 12 23 18:00 268.8 0.0 0.00 23.2 -4.9 59.67 18.8
2020 12 23 19:00 269.0 0.0 0.00 20.3 -6.5 61.72 17.8
2020 12 23 20:00 269.4 0.0 0.00 18.7 -7.4 69.97 17.6
2020 12 23 21:00 269.7 0.0 0.00 18.5 -7.5 71.99 18.9
2020 12 23 22:00 269.8 0.0 0.00 16.7 -8.5 77.76 17.8
2020 12 23 23:00 269.7 0.0 0.00 15.9 -8.9 71.51 17.4
2020 12 23 24:00 269.2 0.0 0.00 15.5 -9.2 64.57 17.4
2020 12 24 1:00 269.1 0.0 0.00 15.0 -9.4 64.84 15.8
2020 12 24 2:00 269.2 0.0 0.00 13.1 -10.5 62.49 17.5
2020 12 24 3:00 269.2 0.0 0.00 11.5 -11.4 66.56 15.5
2020 12 24 4:00 269.2 0.0 0.00 9.9 -12.3 66.26 15.3
2020 12 24 5:00 269.2 0.0 0.00 8.5 -13.0 67.99 13.3
2020 12 24 6:00 269.4 0.0 0.00 7.7 -13.5 69.69 12.4
2020 12 24 7:00 269.3 0.0 0.00 8.1 -13.3 68.14 13.5
2020 12 24 8:00 269.3 0.0 0.00 6.6 -14.1 67.59 12.8
2020 12 24 9:00 269.2 0.0 0.00 7.0 -13.9 62.55 12.9
2020 12 24 10:00 268.8 0.0 0.00 8.6 -13.0 53.18 15.6
2020 12 24 11:00 268.5 0.0 0.00 10.7 -11.8 47.04 15.0
2020 12 24 12:00 268.0 0.0 0.00 13.0 -10.5 41.64 15.2
2020 12 24 13:00 267.7 0.0 0.00 15.5 -9.2 36.32 14.1
2020 12 24 14:00 267.5 0.0 0.00 17.0 -8.3 31.15 14.4
2020 12 24 15:00 267.0 0.0 0.00 17.7 -8.0 28.88 15.1
2020 12 24 16:00 267.1 0.0 0.00 17.1 -8.3 30.43 14.6
2020 12 24 17:00 267.7 0.0 0.00 15.3 -9.3 37 12.9
2020 12 24 18:00 267.8 0.0 0.00 13.1 -10.5 44.58 10.3
2020 12 24 19:00 268.5 0.0 0.00 11.4 -11.4 52.27 10.2
2020 12 24 20:00 268.5 0.0 0.00 9.7 -12.4 56.02 11.7
2020 12 24 21:00 268.6 0.0 0.00 8.2 -13.2 59.23 12.3
2020 12 24 22:00 268.9 0.0 0.00 7.0 -13.9 60.81 11.0
2020 12 24 23:00 269.2 0.0 0.00 6.2 -14.3 62.75 8.6
2020 12 24 24:00 269.3 0.0 0.00 5.8 -14.6 63.61 8.9
2020 12 25 1:00 269.3 0.0 0.00 5.3 -14.8 65.24 8.4
2020 12 25 2:00 269.3 0.0 0.00 4.6 -15.2 68.67 6.7
2020 12 25 3:00 269.3 0.0 0.00 4.1 -15.5 68.81 6.5
2020 12 25 4:00 269.3 0.0 0.00 4.1 -15.5 67.02 6.0
2020 12 25 5:00 269.3 0.0 0.00 3.5 -15.8 69.3 5.5
2020 12 25 6:00 269.4 0.0 0.00 3.0 -16.1 72.12 5.7
2020 12 25 7:00 269.6 0.0 0.00 2.9 -16.2 73.03 6.7
2020 12 25 8:00 269.4 0.0 0.00 3.4 -15.9 71.63 7.3
2020 12 25 9:00 269.2 0.0 0.00 5.2 -14.9 68.53 8.0
2020 12 25 10:00 268.5 0.0 0.00 9.1 -12.7 62.19 7.0
2020 12 25 11:00 267.8 0.0 0.00 13.8 -10.1 50.38 8.1
2020 12 25 12:00 267.2 0.0 0.00 18.4 -7.5 39.16 9.1
2020 12 25 13:00 266.4 0.0 0.00 22.5 -5.3 31.65 7.4
2020 12 25 14:00 266.2 0.0 0.00 25.2 -3.8 29.79 7.9
2020 12 25 15:00 266.2 0.0 0.00 27.3 -2.6 28.53 8.8
2020 12 25 16:00 266.2 0.0 0.00 28.8 -1.8 29.67 7.0
2020 12 25 17:00 266.8 0.0 0.00 27.7 -2.4 34.34 7.2
2020 12 25 18:00 267.4 0.0 0.00 25.0 -3.9 40.62 5.1
2020 12 25 19:00 267.6 0.0 0.00 24.3 -4.3 43.29 6.2
2020 12 25 20:00 267.7 0.0 0.00 25.0 -3.9 44.95 8.4
2020 12 25 21:00 267.6 0.0 0.00 25.1 -3.8 48.06 7.1
2020 12 25 22:00 267.7 0.0 0.00 25.2 -3.8 50.52 6.6
2020 12 25 23:00 268.2 0.0 0.00 25.1 -3.9 52.52 6.8
2020 12 25 24:00 268.3 0.0 0.00 23.4 -4.8 56.47 4.2
2020 12 26 1:00 268.5 0.0 0.00 22.4 -5.4 60.8 4.5
2020 12 26 2:00 269.0 0.0 0.00 21.7 -5.7 64.64 4.6
2020 12 26 3:00 269.1 0.0 0.00 21.3 -6.0 66.69 4.6
2020 12 26 4:00 269.6 0.0 0.00 21.0 -6.1 69.76 4.7
2020 12 26 5:00 270.1 0.0 0.00 19.3 -7.1 74.28 2.2
2020 12 26 6:00 270.6 0.0 0.00 18.6 -7.4 76.9 1.9
2020 12 26 7:00 270.7 0.0 0.00 19.0 -7.2 78.13 0.7
2020 12 26 8:00 271.8 0.0 0.00 17.7 -7.9 82 0.0
2020 12 26 9:00 270.5 0.0 0.00 21.4 -5.9 80.7 0.1
2020 12 26 10:00 268.3 0.0 0.00 27.4 -2.5 73.61 4.4
2020 12 26 11:00 267.7 0.0 0.00 31.8 -0.1 64.05 5.0
2020 12 26 12:00 267.2 0.0 0.00 34.7 1.5 56.62 4.7
2020 12 26 13:00 266.7 0.0 0.00 38.1 3.4 50.01 4.9
2020 12 26 14:00 266.7 0.0 0.00 41.1 5.1 44.12 6.3
2020 12 26 15:00 266.7 0.0 0.00 42.6 5.9 41.49 5.1
2020 12 26 16:00 266.7 0.0 0.00 42.9 6.0 42.83 5.4
2020 12 26 17:00 267.4 0.0 0.00 39.5 4.2 48.59 4.6
2020 12 26 18:00 268.1 0.0 0.00 36.0 2.2 55.02 2.9
2020 12 26 19:00 268.6 0.0 0.00 33.5 0.8 59.94 3.8
2020 12 26 20:00 268.9 0.0 0.00 32.0 -0.0 63.67 3.7
2020 12 26 21:00 268.9 0.0 0.00 31.7 -0.1 64.45 6.0
2020 12 26 22:00 268.9 0.0 0.00 31.2 -0.5 65.92 6.4
2020 12 26 23:00 268.9 0.0 0.00 31.6 -0.2 66.32 7.3
2020 12 26 24:00 268.9 0.0 0.00 31.6 -0.2 67.41 6.7
2020 12 27 1:00 269.6 0.0 0.00 30.2 -1.0 70.9 4.9
2020 12 27 2:00 269.6 0.0 0.00 30.6 -0.8 70.51 4.0
2020 12 27 3:00 269.1 0.0 0.00 33.9 1.1 63.99 5.4
2020 12 27 4:00 268.9 0.0 0.00 34.8 1.5 63.45 5.8
2020 12 27 5:00 268.9 0.0 0.00 36.0 2.2 62.49 5.3
2020 12 27 6:00 268.7 0.0 0.00 38.1 3.4 58.68 7.1
2020 12 27 7:00 268.5 0.0 0.00 38.5 3.6 58.36 5.9
2020 12 27 8:00 268.8 0.0 0.00 37.0 2.8 61.81 4.8
2020 12 27 9:00 268.3 0.0 0.00 38.1 3.4 60.53 5.3
2020 12 27 10:00 267.8 0.0 0.00 40.8 4.9 55.46 7.1
2020 12 27 11:00 267.4 0.0 0.00 42.5 5.8 51.18 7.5
2020 12 27 12:00 267.2 0.0 0.00 43.3 6.3 49.01 8.3
2020 12 27 13:00 267.4 0.0 0.00 38.8 3.8 56.68 10.4
2020 12 27 14:00 268.0 0.0 0.00 35.8 2.1 60.8 9.7
2020 12 27 15:00 268.1 0.0 0.00 35.5 1.9 63.67 11.6
2020 12 27 16:00 268.2 0.0 0.00 35.6 2.0 64.64 12.4
2020 12 27 17:00 268.7 0.0 0.00 34.4 1.3 67.2 10.5
2020 12 27 18:00 268.9 0.0 0.00 33.0 0.6 71.54 10.3
2020 12 27 19:00 269.2 0.0 0.00 33.2 0.7 74.26 10.4
2020 12 27 20:00 269.6 0.0 0.00 33.0 0.6 78.9 10.5
2020 12 27 21:00 269.6 0.0 0.00 32.7 0.4 79.93 11.7
2020 12 27 22:00 269.6 0.0 0.00 32.3 0.2 78.65 10.6
2020 12 27 23:00 269.6 0.0 0.00 31.9 -0.1 76.81 10.9
2020 12 27 24:00 269.6 0.0 0.00 31.1 -0.5 76.83 11.9
2020 12 28 1:00 269.7 0.0 0.00 29.8 -1.2 79.29 12.0
2020 12 28 2:00 269.6 0.0 0.00 29.1 -1.6 75.9 11.6
2020 12 28 3:00 269.6 0.0 0.00 28.5 -1.9 76.24 9.0
2020 12 28 4:00 269.6 0.0 0.00 27.8 -2.3 75.2 6.5
2020 12 28 5:00 269.6 0.0 0.00 27.8 -2.3 77.12 6.4
2020 12 28 6:00 269.6 0.0 0.00 27.8 -2.4 75.93 7.2
2020 12 28 7:00 269.6 0.0 0.00 27.4 -2.5 74.98 8.2
2020 12 28 8:00 269.7 0.0 0.00 26.6 -3.0 78.77 6.3
2020 12 28 9:00 269.7 0.0 0.00 25.6 -3.5 75.29 8.3
2020 12 28 10:00 269.7 0.0 0.00 25.2 -3.8 74.41 7.9
2020 12 28 11:00 269.4 0.0 0.00 24.5 -4.1 73.86 9.5
2020 12 28 12:00 269.1 0.0 0.00 24.2 -4.4 73.18 9.1
2020 12 28 13:00 269.0 0.0 0.00 25.4 -3.7 70.82 7.1
2020 12 28 14:00 268.8 0.0 0.00 26.5 -3.1 67.69 6.8
2020 12 28 15:00 268.8 0.0 0.00 27.6 -2.4 64.2 5.9
2020 12 28 16:00 268.9 0.0 0.00 27.8 -2.3 62.29 5.8
2020 12 28 17:00 269.1 0.0 0.00 26.5 -3.1 64.02 3.7
2020 12 28 18:00 269.7 0.0 0.00 24.6 -4.1 68.05 1.5
2020 12 28 19:00 270.1 0.0 0.00 23.1 -5.0 71.18 3.1
2020 12 28 20:00 270.3 0.0 0.00 22.3 -5.4 74.98 2.0
2020 12 28 21:00 270.7 0.0 0.00 21.5 -5.8 75.25 1.6
2020 12 28 22:00 271.8 0.0 0.00 20.0 -6.7 78.29 0.1
2020 12 28 23:00 272.4 0.0 0.00 18.1 -7.7 82.9 0.1
2020 12 28 24:00 273.2 0.0 0.00 18.5 -7.5 83.2 0.0
2020 12 29 1:00 273.2 0.0 0.00 19.2 -7.1 85.4 0.9
2020 12 29 2:00 273.1 0.0 0.00 20.2 -6.5 84.3 1.3
2020 12 29 3:00 271.8 0.0 0.00 20.7 -6.3 83 2.4
2020 12 29 4:00 270.4 0.0 0.00 21.4 -5.9 80.2 5.7
2020 12 29 5:00 270.4 0.0 0.00 21.9 -5.6 78.9 6.8
2020 12 29 6:00 270.4 0.0 0.00 22.5 -5.3 76.45 7.2
2020 12 29 7:00 270.4 0.0 0.00 22.8 -5.1 76.37 9.8
2020 12 29 8:00 269.9 0.0 0.00 23.4 -4.8 73.18 10.6
2020 12 29 9:00 269.7 0.0 0.00 23.7 -4.6 68.95 10.4
2020 12 29 10:00 269.7 0.0 0.00 23.8 -4.6 70.75 11.6
2020 12 29 11:00 270.0 0.0 0.00 23.2 -4.9 81.2 12.3
2020 12 29 12:00 271.0 0.0 0.00 22.6 -5.2 97.8 12.8
2020 12 29 13:00 271.4 0.0 0.00 22.8 -5.1 100 13.4
2020 12 29 14:00 275.9 0.0 0.00 24.1 -4.4 100 16.7
2020 12 29 15:00 Wet 321.5 0.0 0.00 28.0 -2.2 100 15.0
2020 12 29 16:00 Wet 323.7 0.0 0.00 27.3 -2.6 100 12.7
2020 12 29 17:00 Wet 326.8 0.0 0.00 26.9 -2.8 100 4.8
2020 12 29 18:00 Wet 329.2 0.0 0.00 26.8 -2.9 100 7.5
2020 12 29 19:00 Wet 328.8 0.0 0.00 28.5 -2.0 100 7.5
2020 12 29 20:00 Wet 327.8 0.0 0.00 29.0 -1.7 100 5.5
2020 12 29 21:00 Wet 327.8 0.0 0.00 29.5 -1.4 100 4.4
2020 12 29 22:00 Wet 327.9 0.1 1.27 30.6 -0.8 100 0.0
2020 12 29 23:00 Wet 324.8 0.0 0.25 31.2 -0.5 100 0.0
2020 12 29 24:00 Wet 347.4 0.0 0.00 31.6 -0.2 100 0.0
2020 12 30 1:00 Wet 370.3 0.0 0.00 31.7 -0.2 100 0.0
2020 12 30 2:00 Wet 345.8 0.0 0.00 31.7 -0.2 100 0.0
2020 12 30 3:00 Wet 332.6 0.0 0.00 31.7 -0.2 100 0.0
2020 12 30 4:00 Wet 330.4 0.0 0.00 31.5 -0.3 100 0.0
2020 12 30 5:00 Wet 332.4 0.0 0.00 30.8 -0.7 100 0.0
2020 12 30 6:00 Wet 333.6 0.0 0.00 29.9 -1.2 97.6 0.0
2020 12 30 7:00 Wet 333.1 0.0 0.00 29.3 -1.5 90.5 0.0
2020 12 30 8:00 Wet 333.1 0.0 0.00 28.9 -1.7 88.1 0.0
2020 12 30 9:00 Wet 333.1 0.0 0.00 28.2 -2.1 87 0.0
2020 12 30 10:00 Wet 332.7 0.0 0.00 28.4 -2.0 81.3 0.0
2020 12 30 11:00 Wet 332.4 0.0 0.76 28.4 -2.0 77.07 0.0
2020 12 30 12:00 Wet 332.4 0.0 0.25 27.9 -2.3 73.47 0.0
2020 12 30 13:00 Wet 332.3 0.0 0.00 28.1 -2.2 74.6 0.0
2020 12 30 14:00 Wet 331.7 0.0 0.00 27.4 -2.5 71.58 0.0
2020 12 30 15:00 Wet 331.7 0.0 0.00 26.8 -2.9 71.22 0.0
2020 12 30 16:00 Wet 331.0 0.0 0.00 26.0 -3.3 71.32 0.0
2020 12 30 17:00 Wet 330.9 0.0 0.00 24.9 -3.9 73.7 0.0
2020 12 30 18:00 Wet 330.4 0.0 0.00 23.2 -4.9 75.51 0.0
2020 12 30 19:00 Wet 330.5 0.0 0.00 21.6 -5.8 77.16 0.0
2020 12 30 20:00 Wet 330.5 0.0 0.00 20.8 -6.2 77.89 0.0
2020 12 30 21:00 Wet 330.4 0.0 0.00 19.8 -6.8 81.3 0.0
2020 12 30 22:00 Wet 330.3 0.0 0.00 19.6 -6.9 82.2 0.0
2020 12 30 23:00 Wet 329.9 0.0 0.00 19.2 -7.1 84 0.0
2020 12 30 24:00 Wet 329.9 0.0 0.00 18.6 -7.5 85.7 0.0
2020 12 31 1:00 Wet 329.9 0.0 0.00 18.1 -7.7 87.5 0.0
2020 12 31 2:00 Wet 329.9 0.0 0.00 17.9 -7.9 87.4 0.0
2020 12 31 3:00 Wet 329.9 0.0 0.00 13.6 -10.2 89.9 0.0
2020 12 31 4:00 Wet 330.0 0.0 0.00 12.5 -10.8 94.2 0.0
2020 12 31 5:00 Wet 329.9 0.0 0.00 11.9 -11.1 91.1 0.0
2020 12 31 6:00 Wet 329.9 0.0 0.00 11.5 -11.4 92.7 0.0
2020 12 31 7:00 Wet 329.6 0.0 0.00 10.1 -12.2 86.6 0.0
2020 12 31 8:00 Wet 330.0 0.0 0.00 9.4 -12.6 89.1 0.0
2020 12 31 9:00 Wet 330.2 0.0 0.00 14.1 -10.0 100 0.0
2020 12 31 10:00 Wet 330.6 0.0 0.00 18.1 -7.7 99.6 0.0
2020 12 31 11:00 Wet 330.5 0.0 0.00 20.4 -6.4 95.8 0.0
2020 12 31 12:00 Wet 330.4 0.0 0.00 23.2 -4.9 85.5 0.0
2020 12 31 13:00 Wet 331.0 0.0 0.00 24.2 -4.3 84.1 0.0
2020 12 31 14:00 Wet 330.8 0.0 0.00 23.2 -4.9 86.8 0.0
2020 12 31 15:00 Wet 330.5 0.0 0.00 23.4 -4.8 88.2 0.0
2020 12 31 16:00 Wet 330.4 0.0 0.00 23.6 -4.7 88.2 0.0
2020 12 31 17:00 Wet 330.4 0.0 0.00 23.0 -5.0 93.8 0.0
2020 12 31 18:00 Wet 330.4 0.0 0.00 22.6 -5.2 100 0.0
2020 12 31 19:00 Wet 330.5 0.0 0.00 22.2 -5.4 100 0.0
2020 12 31 20:00 Wet 330.5 0.0 0.00 22.1 -5.5 100 0.0
2020 12 31 21:00 Wet 330.5 0.0 0.00 22.4 -5.4 100 0.0
2020 12 31 22:00 Wet 330.5 0.0 0.00 22.6 -5.2 100 0.0
2020 12 31 23:00 Wet 330.5 0.0 0.00 22.3 -5.4 100 0.0
2020 12 31 24:00 Wet 330.5 0.0 0.00 21.8 -5.6 100 0.0
2021 01 01 1:00 Wet 330.5 0.0 0.00 21.7 -5.7 100 0.0
2021 01 01 2:00 Wet 330.5 0.0 0.00 21.7 -5.7 100 0.0
2021 01 01 3:00 Wet 330.5 0.0 0.00 21.6 -5.8 100 0.0
2021 01 01 4:00 Wet 330.5 0.0 0.00 21.1 -6.1 100 0.0
2021 01 01 5:00 Wet 330.5 0.0 0.00 20.8 -6.2 100 0.0
2021 01 01 6:00 Wet 330.5 0.0 0.00 20.5 -6.4 100 0.0
2021 01 01 7:00 Wet 330.5 0.0 0.00 20.7 -6.3 100 0.0
2021 01 01 8:00 Wet 330.5 0.0 0.00 21.1 -6.1 100 0.0
2021 01 01 9:00 Wet 330.7 0.0 0.00 21.8 -5.6 100 0.0
2021 01 01 10:00 Wet 331.2 0.0 0.00 23.1 -4.9 100 0.0
2021 01 01 11:00 Wet 331.1 0.0 0.00 23.0 -5.0 100 0.0
2021 01 01 12:00 Wet 331.1 0.0 0.00 22.4 -5.4 100 0.0
2021 01 01 13:00 Wet 331.1 0.0 0.00 22.9 -5.1 100 0.0
2021 01 01 14:00 Wet 331.1 0.0 0.00 23.7 -4.6 100 0.0
2021 01 01 15:00 Wet 331.1 0.0 0.00 23.7 -4.6 100 0.0
2021 01 01 16:00 Wet 331.1 0.0 0.00 23.5 -4.7 100 0.0
2021 01 01 17:00 Wet 331.1 0.0 0.00 23.8 -4.5 100 0.0
2021 01 01 18:00 Wet 331.1 0.0 0.00 23.6 -4.7 100 0.0
2021 01 01 19:00 Wet 331.1 0.0 0.00 23.1 -4.9 100 0.0
2021 01 01 20:00 Wet 331.0 0.0 0.00 23.2 -4.9 98.2 0.0
2021 01 01 21:00 Wet 330.6 0.0 0.00 22.6 -5.2 91.3 0.0
2021 01 01 22:00 Wet 330.5 0.0 0.00 21.0 -6.1 88.6 0.0
2021 01 01 23:00 Wet 330.5 0.0 0.00 19.6 -6.9 87.6 0.0
2021 01 01 24:00 Wet 330.5 0.0 0.00 18.7 -7.4 88.5 0.0
2021 01 02 1:00 Wet 330.1 0.0 0.00 16.9 -8.4 88.1 0.0
2021 01 02 2:00 Wet 330.2 0.0 0.00 16.6 -8.6 89.2 0.0
2021 01 02 3:00 Wet 330.5 0.0 0.00 17.2 -8.2 88.8 0.0
2021 01 02 4:00 Wet 330.5 0.0 0.00 17.5 -8.0 88.2 0.0
2021 01 02 5:00 Wet 330.5 0.0 0.00 17.3 -8.2 88.9 0.0
2021 01 02 6:00 Wet 330.5 0.0 0.00 17.2 -8.2 88.7 0.0
2021 01 02 7:00 Wet 330.5 0.0 0.00 17.3 -8.2 88.4 0.0
2021 01 02 8:00 Wet 330.5 0.0 0.00 17.3 -8.2 88.7 0.0
2021 01 02 9:00 Wet 330.5 0.0 0.00 17.7 -7.9 86.4 0.0
2021 01 02 10:00 Wet 330.5 0.0 0.00 19.6 -6.9 85.7 0.0
2021 01 02 11:00 Wet 330.6 0.0 0.00 20.5 -6.4 84.9 0.0
2021 01 02 12:00 Wet 340.6 0.0 0.00 24.7 -4.1 83.5 0.9
2021 01 02 13:00 Wet 412.1 0.0 0.00 26.3 -3.2 84.7 0.4
2021 01 02 14:00 Wet 682.1 0.0 0.25 30.2 -1.0 84.1 0.0
2021 01 02 15:00 Wet 476.2 0.0 0.00 28.4 -2.0 82.7 0.0
2021 01 02 16:00 Wet 321.9 0.0 0.00 28.0 -2.2 85.4 0.0
2021 01 02 17:00 Wet 321.4 0.0 0.00 26.5 -3.1 90.2 0.0
2021 01 02 18:00 Wet 321.5 0.0 0.00 25.7 -3.5 97.8 0.0
2021 01 02 19:00 Wet 321.6 0.0 0.00 25.3 -3.7 100 0.0
2021 01 02 20:00 Wet 321.6 0.0 0.00 25.1 -3.8 100 0.0
2021 01 02 21:00 Wet 321.0 0.0 0.00 24.3 -4.3 100 0.0
2021 01 02 22:00 Wet 320.9 0.0 0.00 23.2 -4.9 100 0.0
2021 01 02 23:00 Wet 320.9 0.0 0.00 23.2 -4.9 100 0.0
2021 01 02 24:00 Wet 320.9 0.0 0.00 23.3 -4.8 100 0.0
2021 01 03 1:00 Wet 320.9 0.0 0.00 22.8 -5.1 100 0.0
2021 01 03 2:00 Wet 320.9 0.0 0.00 21.9 -5.6 100 0.0
2021 01 03 3:00 Wet 320.3 0.0 0.00 20.7 -6.3 100 0.0
2021 01 03 4:00 Wet 320.3 0.0 0.00 18.2 -7.7 100 0.0
2021 01 03 5:00 Wet 320.0 0.0 0.00 15.5 -9.2 95.9 0.0
2021 01 03 6:00 Wet 319.8 0.0 0.00 13.6 -10.2 96 0.0
2021 01 03 7:00 Wet 320.3 0.0 0.00 13.2 -10.5 98.8 0.0
2021 01 03 8:00 Wet 320.4 0.0 0.00 13.0 -10.5 94 0.0
2021 01 03 9:00 Wet 320.4 0.0 0.00 13.8 -10.1 92.6 0.0
2021 01 03 10:00 Wet 320.3 0.0 0.00 16.7 -8.5 99.8 0.0
2021 01 03 11:00 Wet 320.2 0.0 0.00 19.4 -7.0 100 0.0
2021 01 03 12:00 Wet 320.5 0.0 0.00 21.5 -5.8 100 0.0
2021 01 03 13:00 Wet 320.8 0.0 0.00 23.6 -4.7 100 0.0
2021 01 03 14:00 Wet 321.3 0.0 0.00 26.2 -3.2 100 0.0
2021 01 03 15:00 Wet 321.4 0.0 0.00 27.3 -2.6 100 0.0
2021 01 03 16:00 Wet 321.4 0.0 0.00 28.2 -2.1 100 0.0
2021 01 03 17:00 Wet 321.4 0.0 0.00 28.2 -2.1 100 0.0
2021 01 03 18:00 Wet 321.8 0.0 0.00 28.1 -2.2 100 0.0
2021 01 03 19:00 Wet 322.1 0.0 0.00 28.2 -2.1 100 0.0
2021 01 03 20:00 Wet 322.1 0.0 0.00 27.8 -2.4 100 0.0
2021 01 03 21:00 Wet 322.2 0.0 0.00 27.4 -2.5 100 0.0
2021 01 03 22:00 Wet 322.2 0.0 0.00 27.5 -2.5 100 0.0
2021 01 03 23:00 Wet 322.2 0.0 0.00 27.8 -2.3 100 0.0
2021 01 03 24:00 Wet 322.2 0.0 0.00 27.5 -2.5 100 0.0
2021 01 04 1:00 Wet 322.2 0.0 0.00 27.3 -2.6 100 0.0
2021 01 04 2:00 Wet 322.2 0.0 0.00 27.2 -2.7 100 0.0
2021 01 04 3:00 Wet 322.2 0.0 0.00 27.1 -2.7 100 0.0
2021 01 04 4:00 Wet 322.2 0.0 0.00 27.2 -2.7 100 0.0
2021 01 04 5:00 Wet 322.2 0.0 0.00 27.6 -2.4 100 0.0
2021 01 04 6:00 Wet 322.2 0.0 0.00 27.9 -2.3 100 0.0
2021 01 04 7:00 Wet 322.2 0.0 0.00 28.3 -2.1 100 0.0
2021 01 04 8:00 Wet 322.7 0.0 0.00 28.5 -2.0 100 0.0
2021 01 04 9:00 Wet 322.3 0.0 0.00 29.0 -1.7 100 0.0
2021 01 04 10:00 Wet 322.0 0.0 0.00 29.3 -1.5 100 0.0
2021 01 04 11:00 Wet 479.5 0.0 0.00 30.2 -1.0 100 0.0
2021 01 04 12:00 Wet 737.0 0.0 0.00 30.7 -0.7 100 1.2
2021 01 04 13:00 Wet 819.0 0.0 0.00 31.2 -0.4 100 7.1
2021 01 04 14:00 Wet 936.0 0.0 0.00 31.5 -0.3 100 7.6
2021 01 04 15:00 Wet 858.0 0.0 0.00 32.2 0.1 100 7.2
2021 01 04 16:00 Wet 320.6 0.0 0.00 32.7 0.4 100 6.7
2021 01 04 17:00 Wet 285.6 0.0 0.00 32.8 0.4 100 5.4
2021 01 04 18:00 280.0 0.0 0.00 32.3 0.1 100 5.4
2021 01 04 19:00 281.2 0.0 0.00 32.0 -0.0 96.8 6.3
2021 01 04 20:00 281.0 0.0 0.00 31.5 -0.3 95.5 7.2
2021 01 04 21:00 281.9 0.0 0.00 30.4 -0.9 100 6.2
2021 01 04 22:00 283.3 0.0 0.00 29.5 -1.4 99.7 7.5
2021 01 04 23:00 Wet 285.1 0.0 0.00 28.6 -1.9 100 8.3
2021 01 04 24:00 Wet 286.8 0.0 0.00 27.6 -2.4 100 7.2
2021 01 05 1:00 Wet 288.4 0.0 0.00 27.0 -2.8 100 6.8
2021 01 05 2:00 Wet 289.6 0.0 0.00 25.6 -3.6 100 7.4
2021 01 05 3:00 Wet 290.6 0.0 0.00 26.0 -3.4 100 7.0
2021 01 05 4:00 Wet 291.3 0.0 0.00 24.5 -4.2 100 7.0
2021 01 05 5:00 Wet 292.1 0.0 0.00 24.7 -4.1 100 6.2
2021 01 05 6:00 Wet 292.3 0.0 0.00 24.6 -4.1 100 4.6
2021 01 05 7:00 Wet 292.5 0.0 0.00 22.3 -5.4 100 3.9
2021 01 05 8:00 Wet 292.4 0.0 0.00 21.1 -6.1 100 1.7
2021 01 05 9:00 Wet 313.3 0.0 0.00 24.1 -4.4 100 0.3
2021 01 05 10:00 Wet 339.7 0.0 0.00 26.6 -3.0 100 1.0
2021 01 05 11:00 Wet 548.0 0.0 0.00 30.6 -0.8 92 1.5
2021 01 05 12:00 Wet 491.5 0.0 0.25 33.1 0.6 85.9 1.0
2021 01 05 13:00 273.2 0.1 3.30 37.0 2.8 72.92 2.6
2021 01 05 14:00 270.3 0.1 2.79 38.9 3.9 67.29 4.0
2021 01 05 15:00 268.9 0.1 2.54 39.2 4.0 65.57 4.0
2021 01 05 16:00 268.8 0.1 2.03 40.2 4.6 62.82 3.3
2021 01 05 17:00 269.7 0.0 0.51 39.1 4.0 65.02 3.1
2021 01 05 18:00 270.2 0.0 0.25 37.6 3.1 67.44 1.3
2021 01 05 19:00 270.5 0.0 0.25 35.8 2.1 74.69 2.6
2021 01 05 20:00 271.0 0.0 0.00 34.3 1.3 79.29 4.2
2021 01 05 21:00 270.9 0.0 0.00 34.1 1.2 80.7 3.4
2021 01 05 22:00 271.0 0.0 0.00 33.5 0.8 83.5 3.4
2021 01 05 23:00 271.6 0.0 0.00 33.5 0.8 86.9 3.3
2021 01 05 24:00 272.3 0.0 0.00 33.5 0.8 94.2 3.9
2021 01 06 1:00 272.4 0.0 0.00 34.0 1.1 97.5 4.8
2021 01 06 2:00 272.1 0.0 0.25 34.7 1.5 90 6.5
2021 01 06 3:00 271.6 0.0 0.25 34.8 1.6 87.1 6.8
2021 01 06 4:00 271.6 0.0 0.25 35.4 1.9 82.4 6.1
2021 01 06 5:00 271.6 0.0 0.00 34.7 1.5 82.4 5.2
2021 01 06 6:00 271.6 0.0 0.00 34.1 1.2 83.8 5.1
2021 01 06 7:00 271.6 0.0 0.25 34.1 1.1 82.9 6.6
2021 01 06 8:00 271.4 0.0 0.00 34.2 1.2 82.2 6.3
2021 01 06 9:00 270.9 0.0 0.25 34.7 1.5 80.7 7.7
2021 01 06 10:00 270.7 0.0 0.76 35.5 2.0 78.53 8.6
2021 01 06 11:00 270.2 0.1 1.27 36.1 2.3 77.02 7.8
2021 01 06 12:00 269.7 0.0 0.25 37.0 2.8 73.17 8.6
2021 01 06 13:00 269.5 0.0 0.00 37.5 3.1 71.61 8.1
2021 01 06 14:00 269.5 0.0 0.00 37.5 3.1 72.31 7.7
2021 01 06 15:00 269.6 0.0 0.00 37.1 2.8 75.27 8.1
2021 01 06 16:00 270.2 0.0 0.00 35.6 2.0 81.3 8.9
2021 01 06 17:00 271.0 0.0 0.00 34.3 1.3 86.4 8.9
2021 01 06 18:00 271.6 0.0 0.00 33.2 0.7 96.7 9.7
2021 01 06 19:00 272.2 0.0 0.00 32.5 0.3 100 10.3
2021 01 06 20:00 272.3 0.0 0.00 32.0 -0.0 100 10.4
2021 01 06 21:00 272.3 0.0 0.00 32.0 -0.0 100 8.6
2021 01 06 22:00 272.3 0.0 0.00 31.5 -0.3 100 9.3
2021 01 06 23:00 272.3 0.0 0.00 31.1 -0.5 100 9.2
2021 01 06 24:00 272.3 0.0 0.00 31.0 -0.6 100 9.4
2021 01 07 1:00 272.3 0.0 0.00 30.8 -0.7 100 9.1
2021 01 07 2:00 273.5 0.0 0.00 30.3 -1.0 100 11.0
2021 01 07 3:00 274.1 0.0 0.00 30.2 -1.0 100 10.0
2021 01 07 4:00 272.9 0.0 0.00 30.6 -0.8 100 9.2
2021 01 07 5:00 272.1 0.0 0.00 30.3 -1.0 96.3 9.3
2021 01 07 6:00 272.3 0.0 0.00 29.3 -1.5 92.5 7.2
2021 01 07 7:00 272.3 0.0 0.00 28.2 -2.1 92.3 6.5
2021 01 07 8:00 272.4 0.0 0.00 27.5 -2.5 93 6.5
2021 01 07 9:00 272.0 0.0 0.00 27.3 -2.6 89.6 6.8
2021 01 07 10:00 270.9 0.0 0.00 28.5 -1.9 83.1 6.0
2021 01 07 11:00 270.3 0.0 0.00 29.5 -1.4 79.6 7.3
2021 01 07 12:00 270.0 0.0 0.00 30.2 -1.0 76.62 8.3
2021 01 07 13:00 269.6 0.0 0.00 30.9 -0.6 74.13 9.3
2021 01 07 14:00 269.5 0.0 0.00 31.5 -0.3 71.73 9.4
2021 01 07 15:00 269.5 0.0 0.00 31.8 -0.1 70.06 9.6
2021 01 07 16:00 269.8 0.0 0.00 31.5 -0.3 71.51 8.5
2021 01 07 17:00 270.3 0.0 0.00 30.5 -0.8 74.61 6.6
2021 01 07 18:00 270.9 0.0 0.00 29.0 -1.7 77.86 4.5
2021 01 07 19:00 271.0 0.0 0.00 28.5 -1.9 79.06 5.1
2021 01 07 20:00 271.0 0.0 0.00 28.5 -1.9 81.2 6.7
2021 01 07 21:00 271.6 0.0 0.00 28.2 -2.1 86.6 6.5
2021 01 07 22:00 276.2 0.0 0.00 27.3 -2.6 97.5 5.3
2021 01 07 23:00 275.7 0.0 0.00 26.9 -2.8 100 3.2
2021 01 07 24:00 274.4 0.0 0.00 27.0 -2.8 100 3.9
2021 01 08 1:00 274.4 0.0 0.00 27.1 -2.7 100 4.8
2021 01 08 2:00 273.3 0.0 0.00 27.4 -2.6 100 4.8
2021 01 08 3:00 273.1 0.0 0.00 27.3 -2.6 100 4.6
2021 01 08 4:00 273.0 0.0 0.00 27.4 -2.5 100 4.7
2021 01 08 5:00 272.8 0.0 0.00 27.4 -2.6 99.1 3.4
2021 01 08 6:00 272.6 0.0 0.00 27.2 -2.7 97.4 3.2
2021 01 08 7:00 272.4 0.0 0.00 26.9 -2.8 95.4 3.5
2021 01 08 8:00 272.4 0.0 0.00 26.6 -3.0 92.9 3.6
2021 01 08 9:00 272.0 0.0 0.00 26.8 -2.9 91.9 3.7
2021 01 08 10:00 271.3 0.0 0.00 27.7 -2.4 87.6 3.7
2021 01 08 11:00 270.4 0.0 0.00 29.0 -1.6 82.9 3.7
2021 01 08 12:00 269.9 0.0 0.00 30.3 -0.9 78.24 4.3
2021 01 08 13:00 269.5 0.0 0.00 31.1 -0.5 74.88 3.9
2021 01 08 14:00 269.5 0.0 0.00 30.9 -0.6 74.12 4.4
2021 01 08 15:00 269.9 0.0 0.00 30.4 -0.9 74.04 5.5
2021 01 08 16:00 270.2 0.0 0.00 30.2 -1.0 73.85 4.3
2021 01 08 17:00 270.3 0.0 0.00 29.8 -1.2 73.9 3.2
2021 01 08 18:00 270.6 0.0 0.00 29.3 -1.5 76.01 1.1
2021 01 08 19:00 270.6 0.0 0.00 29.2 -1.6 75.52 1.4
2021 01 08 20:00 270.4 0.0 0.00 29.0 -1.7 74.76 1.5
2021 01 08 21:00 270.3 0.0 0.00 28.8 -1.8 74.47 1.4
2021 01 08 22:00 270.6 0.0 0.00 28.6 -1.9 76.25 1.5
2021 01 08 23:00 270.4 0.0 0.00 28.2 -2.1 75.19 2.7
2021 01 08 24:00 270.7 0.0 0.00 27.4 -2.6 77.51 3.0
2021 01 09 1:00 270.5 0.0 0.00 26.9 -2.9 75.74 2.2
2021 01 09 2:00 270.7 0.0 0.00 26.2 -3.2 77.6 3.0
2021 01 09 3:00 270.9 0.0 0.00 26.0 -3.4 79.29 2.8
2021 01 09 4:00 271.0 0.0 0.00 25.5 -3.6 80.9 2.9
2021 01 09 5:00 271.0 0.0 0.00 25.1 -3.8 81.5 3.5
2021 01 09 6:00 271.0 0.0 0.00 24.5 -4.2 81.7 2.8
2021 01 09 7:00 271.0 0.0 0.00 24.1 -4.4 82.7 2.5
2021 01 09 8:00 271.0 0.0 0.00 23.4 -4.8 83.9 3.0
2021 01 09 9:00 271.0 0.0 0.00 23.0 -5.0 83.4 3.7
2021 01 09 10:00 270.5 0.0 0.00 23.4 -4.8 82.2 2.3
2021 01 09 11:00 270.4 0.0 0.00 23.4 -4.8 81.1 3.2
2021 01 09 12:00 270.3 0.0 0.00 23.6 -4.7 80.7 3.2
2021 01 09 13:00 270.2 0.0 0.00 23.8 -4.6 80.1 3.2
2021 01 09 14:00 270.3 0.0 0.00 23.8 -4.6 79.53 3.6
2021 01 09 15:00 270.3 0.0 0.00 24.2 -4.3 79.07 3.0
2021 01 09 16:00 270.4 0.0 0.00 24.2 -4.3 80.4 3.1
2021 01 09 17:00 271.0 0.0 0.00 23.8 -4.6 82 4.1
2021 01 09 18:00 271.0 0.0 0.00 23.2 -4.9 82.5 2.5
2021 01 09 19:00 271.0 0.0 0.00 22.9 -5.0 82.1 2.1
2021 01 09 20:00 271.1 0.0 0.00 22.6 -5.2 82.2 2.9
2021 01 09 21:00 271.1 0.0 0.00 22.4 -5.4 82.8 1.2
2021 01 09 22:00 271.1 0.0 0.00 21.8 -5.6 83.3 3.2
2021 01 09 23:00 271.1 0.0 0.00 21.1 -6.0 83.1 3.4
2021 01 09 24:00 271.1 0.0 0.00 20.9 -6.2 82.6 2.6
2021 01 10 1:00 271.1 0.0 0.00 21.0 -6.1 82.5 3.4
2021 01 10 2:00 271.1 0.0 0.00 21.2 -6.0 82.1 3.2
2021 01 10 3:00 271.1 0.0 0.00 21.5 -5.8 83 3.8
2021 01 10 4:00 271.1 0.0 0.00 21.6 -5.8 83.6 4.7
2021 01 10 5:00 271.1 0.0 0.00 21.6 -5.8 83.5 4.2
2021 01 10 6:00 271.1 0.0 0.00 21.5 -5.9 84.2 4.7
2021 01 10 7:00 271.1 0.0 0.00 21.0 -6.1 85.9 6.1
2021 01 10 8:00 271.2 0.0 0.00 20.5 -6.4 87 6.4
2021 01 10 9:00 271.1 0.0 0.00 20.1 -6.6 86.6 7.7
2021 01 10 10:00 270.9 0.0 0.00 20.6 -6.3 86 5.7
2021 01 10 11:00 270.5 0.0 0.00 21.5 -5.9 86.4 5.4
2021 01 10 12:00 271.0 0.0 0.00 22.8 -5.1 91.1 6.2
2021 01 10 13:00 270.6 0.0 0.00 24.1 -4.4 96.5 2.2
2021 01 10 14:00 270.2 0.0 0.00 25.1 -3.9 94.8 3.0
2021 01 10 15:00 270.5 0.0 0.00 26.1 -3.3 92.4 3.0
2021 01 10 16:00 271.0 0.0 0.00 27.0 -2.8 89.3 4.1
2021 01 10 17:00 271.6 0.0 0.00 27.6 -2.4 88.9 2.7
2021 01 10 18:00 271.6 0.0 0.00 28.1 -2.2 87.2 1.9
2021 01 10 19:00 271.7 0.0 0.00 28.4 -2.0 86.3 2.4
2021 01 10 20:00 271.6 0.0 0.00 29.1 -1.6 84.4 2.3
2021 01 10 21:00 271.0 0.0 0.00 29.9 -1.2 81.3 4.4
2021 01 10 22:00 270.9 0.0 0.00 30.4 -0.9 79.22 4.2
2021 01 10 23:00 270.9 0.0 0.00 30.5 -0.8 77.86 4.8
2021 01 10 24:00 270.9 0.0 0.00 30.4 -0.9 77.49 4.4
2021 01 11 1:00 270.9 0.0 0.00 30.2 -1.0 77.64 4.8
2021 01 11 2:00 270.9 0.0 0.00 29.8 -1.2 79.22 6.3
2021 01 11 3:00 270.9 0.0 0.00 29.9 -1.2 78.71 5.1
2021 01 11 4:00 270.9 0.0 0.00 30.2 -1.0 78.8 5.5
2021 01 11 5:00 270.9 0.0 0.00 30.6 -0.8 79.58 4.1
2021 01 11 6:00 270.9 0.0 0.00 30.8 -0.7 78.09 5.0
2021 01 11 7:00 271.8 0.0 0.00 29.4 -1.4 80.5 3.1
2021 01 11 8:00 272.8 0.0 0.00 27.2 -2.7 85.6 4.2
2021 01 11 9:00 271.3 0.0 0.00 27.4 -2.6 86.5 5.4
2021 01 11 10:00 270.2 0.0 0.00 29.8 -1.2 80.4 7.1
2021 01 11 11:00 269.8 0.0 0.00 32.2 0.1 75.11 8.3
2021 01 11 12:00 269.5 0.0 0.00 34.5 1.4 70.1 8.2
2021 01 11 13:00 269.4 0.0 0.00 36.0 2.2 67.08 8.5
2021 01 11 14:00 269.4 0.0 0.00 36.9 2.7 65.1 10.6
2021 01 11 15:00 269.4 0.0 0.00 37.6 3.1 64.52 10.2
2021 01 11 16:00 269.5 0.0 0.00 38.2 3.4 63.98 9.2
2021 01 11 17:00 269.7 0.0 0.00 37.6 3.1 65.56 7.8
2021 01 11 18:00 270.2 0.0 0.00 34.7 1.5 71.88 5.7
2021 01 11 19:00 270.3 0.0 0.00 34.0 1.1 72.91 6.9
2021 01 11 20:00 270.3 0.0 0.00 34.6 1.4 71.64 8.1
2021 01 11 21:00 270.3 0.0 0.00 35.1 1.7 70.81 10.2
2021 01 11 22:00 270.3 0.0 0.00 34.2 1.2 73.13 10.3
2021 01 11 23:00 270.5 0.0 0.00 33.6 0.9 75.35 9.9
2021 01 11 24:00 270.9 0.0 0.00 33.3 0.7 76.45 10.1
2021 01 12 1:00 270.7 0.0 0.00 33.4 0.8 75.47 7.6
2021 01 12 2:00 270.9 0.0 0.00 32.6 0.3 76.96 6.6
2021 01 12 3:00 270.9 0.0 0.00 31.6 -0.2 78.63 6.2
2021 01 12 4:00 271.1 0.0 0.00 30.3 -0.9 81.1 5.9
2021 01 12 5:00 271.3 0.0 0.00 30.1 -1.1 81 5.5
2021 01 12 6:00 271.6 0.0 0.00 29.6 -1.3 81.7 5.7
2021 01 12 7:00 271.8 0.0 0.00 28.9 -1.7 83.3 5.6
2021 01 12 8:00 272.6 0.0 0.00 27.6 -2.5 85.6 4.7
2021 01 12 9:00 270.7 0.0 0.00 28.6 -1.9 83.8 5.2
2021 01 12 10:00 269.9 0.0 0.00 30.8 -0.7 77.88 6.8
2021 01 12 11:00 269.1 0.0 0.00 34.1 1.2 70.81 6.1
2021 01 12 12:00 268.5 0.0 0.00 37.2 2.9 65.48 5.3
2021 01 12 13:00 268.6 0.0 0.00 39.7 4.3 61.39 5.4
2021 01 12 14:00 268.5 0.0 0.00 41.7 5.4 57.93 4.7
2021 01 12 15:00 268.6 0.0 0.00 43.0 6.1 54.81 5.1
2021 01 12 16:00 268.7 0.0 0.00 42.5 5.9 56.68 5.6
2021 01 12 17:00 269.0 0.0 0.00 41.9 5.5 58.46 4.3
2021 01 12 18:00 270.0 0.0 0.00 38.0 3.3 68.5 4.4
2021 01 12 19:00 270.2 0.0 0.00 37.0 2.8 70.3 3.6
2021 01 12 20:00 270.6 0.0 0.00 36.9 2.7 72.87 3.2
2021 01 12 21:00 270.7 0.0 0.00 36.7 2.6 74.19 4.5
2021 01 12 22:00 270.3 0.0 0.00 37.5 3.0 69.66 5.0
2021 01 12 23:00 270.3 0.0 0.00 36.7 2.6 69.66 5.0
2021 01 12 24:00 270.3 0.0 0.00 36.1 2.3 70.77 5.2
2021 01 13 1:00 270.3 0.0 0.00 36.3 2.4 70.22 6.9
2021 01 13 2:00 270.3 0.0 0.00 36.7 2.6 68.83 6.9
2021 01 13 3:00 270.3 0.0 0.00 36.3 2.4 69.43 7.8
2021 01 13 4:00 270.3 0.0 0.00 35.7 2.1 70.15 8.5
2021 01 13 5:00 270.3 0.0 0.00 35.4 1.9 69.59 9.3
2021 01 13 6:00 270.3 0.0 0.00 34.4 1.3 70.88 8.5
2021 01 13 7:00 270.3 0.0 0.00 33.1 0.6 74.31 7.1
2021 01 13 8:00 270.3 0.0 0.00 33.0 0.5 75.32 7.0
2021 01 13 9:00 270.2 0.0 0.00 33.5 0.8 75.98 7.1
2021 01 13 10:00 269.9 0.0 0.00 34.5 1.4 75.64 6.0
2021 01 13 11:00 269.3 0.0 0.00 36.6 2.5 68.97 7.2
2021 01 13 12:00 269.5 0.0 0.00 36.6 2.6 69.85 8.0
2021 01 13 13:00 268.8 0.0 0.00 38.0 3.4 66.3 7.1
2021 01 13 14:00 268.7 0.0 0.00 39.2 4.0 64.56 7.0
2021 01 13 15:00 268.6 0.0 0.00 39.9 4.4 63.68 7.5
2021 01 13 16:00 268.9 0.0 0.00 40.5 4.7 64.03 7.0
2021 01 13 17:00 269.7 0.0 0.00 40.1 4.5 67.99 6.4
2021 01 13 18:00 270.6 0.0 0.00 37.7 3.2 76.55 4.8
2021 01 13 19:00 270.8 0.0 0.00 37.4 3.0 74.75 4.1
2021 01 13 20:00 270.7 0.0 0.00 37.3 2.9 74.55 4.3
2021 01 13 21:00 270.9 0.0 0.00 36.9 2.7 77.17 4.9
2021 01 13 22:00 270.9 0.0 0.00 37.6 3.1 76.68 4.5
2021 01 13 23:00 270.9 0.0 0.00 37.5 3.1 76.22 4.5
2021 01 13 24:00 270.9 0.0 0.00 36.5 2.5 78.33 2.6
2021 01 14 1:00 270.9 0.0 0.00 35.9 2.1 80.6 3.0
2021 01 14 2:00 270.9 0.0 0.00 36.2 2.3 79.83 2.6
2021 01 14 3:00 271.3 0.0 0.00 35.1 1.7 80.8 3.4
2021 01 14 4:00 281.9 0.0 0.00 35.0 1.7 82.8 3.4
2021 01 14 5:00 Wet 336.1 0.0 0.00 35.9 2.2 82.4 4.9
2021 01 14 6:00 Wet 310.5 0.0 0.00 36.5 2.5 81.4 5.6
2021 01 14 7:00 281.0 0.0 0.00 36.3 2.4 82.2 3.7
2021 01 14 8:00 271.7 0.0 0.00 35.7 2.0 83.7 6.0
2021 01 14 9:00 271.6 0.0 0.00 37.4 3.0 83.1 10.4
2021 01 14 10:00 271.3 0.0 0.00 38.1 3.4 81.9 14.6
2021 01 14 11:00 Wet 340.6 0.0 0.00 36.8 2.7 91.9 16.1
2021 01 14 12:00 Wet 322.1 0.0 0.00 36.0 2.2 89 16.7
2021 01 14 13:00 275.4 0.0 0.00 36.2 2.3 83.6 14.6
2021 01 14 14:00 Wet 293.1 0.0 0.00 35.3 1.9 87.9 14.4
2021 01 14 15:00 274.9 0.0 0.00 35.9 2.2 82.9 14.2
2021 01 14 16:00 274.5 0.0 0.00 35.7 2.1 81.4 15.3
2021 01 14 17:00 272.1 0.0 0.00 34.3 1.3 86.5 15.7
2021 01 14 18:00 272.3 0.0 0.00 33.1 0.6 89.3 16.3
2021 01 14 19:00 272.3 0.0 0.00 32.5 0.3 92.1 15.1
2021 01 14 20:00 271.8 0.0 0.00 32.6 0.3 87.1 15.4
2021 01 14 21:00 272.8 0.0 0.00 31.4 -0.3 100 14.4
2021 01 14 22:00 272.8 0.0 0.00 31.2 -0.4 100 14.2
2021 01 14 23:00 273.0 0.0 0.00 31.0 -0.5 100 13.4
2021 01 14 24:00 272.8 0.0 0.00 30.8 -0.7 100 13.4
2021 01 15 1:00 272.4 0.0 0.00 30.6 -0.8 100 14.2
2021 01 15 2:00 272.3 0.0 0.00 30.6 -0.8 94 14.1
2021 01 15 3:00 272.3 0.0 0.00 30.0 -1.1 99.8 15.8
2021 01 15 4:00 272.8 0.0 0.00 28.9 -1.7 100 15.4
2021 01 15 5:00 272.8 0.0 0.00 28.7 -1.9 100 15.9
2021 01 15 6:00 272.9 0.0 0.00 28.4 -2.0 100 15.2
2021 01 15 7:00 273.0 0.0 0.00 28.2 -2.1 100 14.9
2021 01 15 8:00 272.9 0.0 0.00 28.0 -2.2 100 14.3
2021 01 15 9:00 272.4 0.0 0.00 28.3 -2.1 100 13.3
2021 01 15 10:00 Wet 285.9 0.0 0.00 29.4 -1.4 100 13.2
2021 01 15 11:00 Wet 320.7 0.0 0.00 31.0 -0.6 100 11.4
2021 01 15 12:00 Wet 484.5 0.0 0.00 31.9 -0.0 100 9.2
2021 01 15 13:00 Wet 503.1 0.0 0.51 32.0 -0.0 99.2 7.7
2021 01 15 14:00 Wet 375.9 0.1 1.27 32.1 0.1 88 9.3
2021 01 15 15:00 Wet 298.3 0.0 0.00 32.0 -0.0 87.3 8.0
2021 01 15 16:00 280.0 0.0 0.00 32.3 0.1 81.8 7.4
2021 01 15 17:00 277.2 0.0 0.00 32.4 0.2 81.5 7.3
2021 01 15 18:00 275.2 0.0 0.00 32.0 -0.0 81.9 5.9
2021 01 15 19:00 276.1 0.0 0.00 31.7 -0.2 91.1 6.1
2021 01 15 20:00 279.1 0.0 0.00 32.4 0.2 97.4 6.4
2021 01 15 21:00 276.5 0.0 0.00 33.3 0.7 89.7 7.2
2021 01 15 22:00 273.0 0.0 0.00 33.5 0.8 87.7 7.8
2021 01 15 23:00 Wet 331.3 0.0 0.00 33.7 0.9 91.8 7.7
2021 01 15 24:00 Wet 627.2 0.0 0.00 32.2 0.1 100 11.0
2021 01 16 1:00 Wet 397.6 0.0 0.00 32.0 -0.0 100 11.8
2021 01 16 2:00 Wet 321.2 0.0 0.00 31.5 -0.3 100 12.2
2021 01 16 3:00 Wet 317.2 0.0 0.00 30.3 -1.0 100 12.8
2021 01 16 4:00 Wet 314.6 0.0 0.00 29.2 -1.6 100 12.2
2021 01 16 5:00 Wet 311.9 0.0 0.00 28.4 -2.0 98.3 13.1
2021 01 16 6:00 Wet 309.3 0.0 0.00 28.4 -2.0 93.6 12.1
2021 01 16 7:00 Wet 305.2 0.0 0.00 28.0 -2.2 87.8 11.2
2021 01 16 8:00 Wet 301.8 0.0 0.00 27.4 -2.6 88.7 7.9
2021 01 16 9:00 Wet 298.0 0.0 0.00 27.4 -2.5 88.5 10.1
2021 01 16 10:00 Wet 292.7 0.0 0.00 28.1 -2.2 87.5 9.8
2021 01 16 11:00 Wet 286.6 0.0 0.00 28.5 -1.9 86.5 10.9
2021 01 16 12:00 280.5 0.0 0.00 29.2 -1.5 86.3 9.7
2021 01 16 13:00 276.5 0.0 0.25 30.0 -1.1 82.5 11.7
2021 01 16 14:00 274.8 0.0 0.00 29.9 -1.1 81.9 10.5
2021 01 16 15:00 274.4 0.0 0.00 29.5 -1.4 82.4 11.2
2021 01 16 16:00 274.1 0.0 0.00 29.1 -1.6 82.4 9.2
2021 01 16 17:00 274.0 0.0 0.00 28.8 -1.8 82.6 9.3
2021 01 16 18:00 273.7 0.0 0.00 28.4 -2.0 82.6 9.2
2021 01 16 19:00 273.6 0.0 0.00 28.3 -2.0 82.5 8.1
2021 01 16 20:00 273.1 0.0 0.00 28.0 -2.2 82.5 10.5
2021 01 16 21:00 273.0 0.0 0.00 26.4 -3.1 83.4 11.8
2021 01 16 22:00 273.2 0.0 0.00 25.7 -3.5 81.6 10.7
2021 01 16 23:00 272.8 0.0 0.00 25.6 -3.6 83.1 9.0
2021 01 16 24:00 273.6 0.0 0.00 25.4 -3.7 88.4 8.3
2021 01 17 1:00 273.1 0.0 0.00 25.6 -3.6 89.5 8.1
2021 01 17 2:00 273.1 0.0 0.00 25.8 -3.4 88.2 8.2
2021 01 17 3:00 272.8 0.0 0.00 25.9 -3.4 85.8 8.6
2021 01 17 4:00 272.4 0.0 0.00 25.9 -3.4 83.5 8.6
2021 01 17 5:00 272.7 0.0 0.00 24.9 -3.9 85.2 6.9
2021 01 17 6:00 273.1 0.0 0.00 23.7 -4.6 87.3 8.7
2021 01 17 7:00 272.6 0.0 0.00 23.2 -4.9 86.9 7.6
2021 01 17 8:00 272.4 0.0 0.00 23.1 -5.0 86.3 6.2
2021 01 17 9:00 272.3 0.0 0.00 23.6 -4.7 85.2 5.8
2021 01 17 10:00 271.9 0.0 0.00 24.8 -4.0 93.5 7.1
2021 01 17 11:00 271.6 0.0 0.00 25.7 -3.5 99.9 7.3
2021 01 17 12:00 271.1 0.0 0.00 27.0 -2.8 94.6 8.0
2021 01 17 13:00 270.9 0.0 0.00 28.7 -1.8 84.1 9.1
2021 01 17 14:00 270.6 0.0 0.00 29.8 -1.2 81 8.6
2021 01 17 15:00 270.2 0.0 0.00 31.2 -0.5 74.68 8.5
2021 01 17 16:00 270.2 0.0 0.00 31.6 -0.2 71.84 10.2
2021 01 17 17:00 270.4 0.0 0.00 31.5 -0.3 73.29 9.3
2021 01 17 18:00 270.8 0.0 0.00 31.4 -0.4 74.58 8.1
2021 01 17 19:00 270.9 0.0 0.00 30.6 -0.8 76.52 9.5
2021 01 17 20:00 270.9 0.0 0.00 29.9 -1.2 79.35 8.0
2021 01 17 21:00 270.9 0.0 0.00 29.5 -1.4 79.29 7.7
2021 01 17 22:00 270.9 0.0 0.00 29.3 -1.5 80.9 5.4
2021 01 17 23:00 271.0 0.0 0.00 29.0 -1.7 82.8 4.4
2021 01 17 24:00 272.9 0.0 0.00 27.8 -2.3 85.1 3.1
2021 01 18 1:00 274.4 0.0 0.00 26.1 -3.3 88.4 3.6
2021 01 18 2:00 276.2 0.0 0.00 24.9 -4.0 96.9 3.8
2021 01 18 3:00 278.5 0.0 0.00 23.7 -4.6 100 3.7
2021 01 18 4:00 280.6 0.0 0.00 23.4 -4.8 100 4.0
2021 01 18 5:00 282.3 0.0 0.00 23.2 -4.9 100 4.2
2021 01 18 6:00 283.4 0.0 0.00 24.1 -4.4 92 4.9
2021 01 18 7:00 283.9 0.0 0.00 23.6 -4.7 90.6 4.2
2021 01 18 8:00 Wet 284.7 0.0 0.00 23.4 -4.8 93.1 3.3
2021 01 18 9:00 283.8 0.0 0.00 25.2 -3.8 86.2 3.2
2021 01 18 10:00 281.0 0.0 0.00 26.6 -3.0 83 2.0
2021 01 18 11:00 277.5 0.0 0.00 29.5 -1.4 77.23 1.8
2021 01 18 12:00 270.8 0.0 0.00 31.5 -0.3 73.37 1.9
2021 01 18 13:00 268.3 0.0 0.00 32.1 0.1 72.31 2.2
2021 01 18 14:00 268.3 0.0 0.00 33.4 0.8 67.68 2.2
2021 01 18 15:00 268.5 0.0 0.00 34.6 1.4 61.86 1.9
2021 01 18 16:00 268.9 0.0 0.00 34.4 1.4 59.59 2.5
2021 01 18 17:00 269.1 0.0 0.00 34.0 1.1 59.29 3.7
2021 01 18 18:00 269.7 0.0 0.00 31.9 -0.1 65.17 2.2
2021 01 18 19:00 270.3 0.0 0.00 30.1 -1.0 68.27 1.3
2021 01 18 20:00 270.5 0.0 0.00 28.8 -1.8 69.64 1.6
2021 01 18 21:00 271.7 0.0 0.00 26.6 -3.0 74.49 0.9
2021 01 18 22:00 273.0 0.0 0.00 24.6 -4.1 79.37 0.1
2021 01 18 23:00 273.8 0.0 0.00 23.9 -4.5 79.04 0.2
2021 01 18 24:00 275.6 0.0 0.00 22.1 -5.5 85.5 2.1
2021 01 19 1:00 277.2 0.0 0.00 21.3 -6.0 85.4 1.1
2021 01 19 2:00 278.5 0.0 0.00 21.2 -6.0 88.5 1.1
2021 01 19 3:00 279.9 0.0 0.00 18.9 -7.3 94.9 1.7
2021 01 19 4:00 281.5 0.0 0.00 19.3 -7.0 100 2.3
2021 01 19 5:00 282.1 0.0 0.00 20.2 -6.5 93.6 3.2
2021 01 19 6:00 281.0 0.0 0.00 24.3 -4.3 85.2 4.6
2021 01 19 7:00 278.3 0.0 0.00 26.5 -3.1 85.6 5.1
2021 01 19 8:00 277.3 0.0 0.00 25.5 -3.6 90.1 3.8
2021 01 19 9:00 277.9 0.0 0.00 25.4 -3.7 100 4.2
2021 01 19 10:00 275.0 0.0 0.00 28.4 -2.0 89 8.7
2021 01 19 11:00 270.7 0.0 0.00 30.8 -0.7 79.98 10.6
2021 01 19 12:00 269.9 0.0 0.00 32.2 0.1 71.97 11.0
2021 01 19 13:00 269.5 0.0 0.00 33.7 0.9 64.5 11.9
2021 01 19 14:00 269.5 0.0 0.00 35.5 1.9 61.88 13.9
2021 01 19 15:00 269.5 0.0 0.00 36.4 2.5 62.35 13.7
2021 01 19 16:00 269.5 0.0 0.00 36.9 2.7 59.88 14.3
2021 01 19 17:00 269.5 0.0 0.00 37.0 2.8 59.79 12.0
2021 01 19 18:00 269.6 0.0 0.00 34.0 1.1 59.94 17.3
2021 01 19 19:00 269.6 0.0 0.00 30.6 -0.8 58.74 14.3
2021 01 19 20:00 269.6 0.0 0.00 28.1 -2.2 61.94 12.0
2021 01 19 21:00 269.7 0.0 0.00 26.6 -3.0 62.64 9.7
2021 01 19 22:00 269.9 0.0 0.00 24.8 -4.0 65.13 5.3
2021 01 19 23:00 270.4 0.0 0.00 22.8 -5.1 71.16 3.6
2021 01 19 24:00 271.4 0.0 0.00 21.1 -6.0 76.24 2.0
2021 01 20 1:00 272.6 0.0 0.00 19.4 -7.0 78.81 1.4
2021 01 20 2:00 273.5 0.0 0.00 16.8 -8.4 81.8 1.0
2021 01 20 3:00 275.3 0.0 0.00 14.5 -9.7 88.5 1.8
2021 01 20 4:00 276.8 0.0 0.00 13.7 -10.1 85.9 2.8
2021 01 20 5:00 277.9 0.0 0.00 13.5 -10.3 84.6 3.3
2021 01 20 6:00 278.7 0.0 0.00 13.9 -10.1 84 4.4
2021 01 20 7:00 278.7 0.0 0.00 15.8 -9.0 81.8 6.1
2021 01 20 8:00 278.2 0.0 0.00 18.0 -7.8 80.1 6.4
2021 01 20 9:00 274.1 0.0 0.00 21.3 -6.0 77.57 8.3
2021 01 20 10:00 270.1 0.0 0.00 25.7 -3.5 73.79 10.8
2021 01 20 11:00 269.4 0.0 0.00 31.6 -0.2 65.94 11.3
2021 01 20 12:00 268.8 0.0 0.00 37.1 2.8 57.29 11.7
2021 01 20 13:00 268.6 0.0 0.00 39.8 4.3 52.85 12.3
2021 01 20 14:00 268.1 0.0 0.00 42.0 5.6 48.74 13.5
2021 01 20 15:00 268.2 0.0 0.00 43.1 6.2 49.64 12.4
2021 01 20 16:00 268.0 0.0 0.00 45.0 7.2 45.76 11.6
2021 01 20 17:00 268.0 0.0 0.00 45.2 7.3 45.07 10.4
2021 01 20 18:00 268.5 0.0 0.00 42.7 5.9 50.09 7.4
2021 01 20 19:00 268.8 0.0 0.00 40.3 4.6 55.4 7.4
2021 01 20 20:00 268.8 0.0 0.00 39.4 4.1 56.25 6.3
2021 01 20 21:00 268.8 0.0 0.00 38.9 3.8 55.45 6.1
2021 01 20 22:00 268.8 0.0 0.00 37.3 2.9 57.51 6.1
2021 01 20 23:00 268.9 0.0 0.00 36.9 2.7 57.19 6.2
2021 01 20 24:00 269.1 0.0 0.00 36.0 2.2 58.94 5.2
2021 01 21 1:00 269.6 0.0 0.00 34.3 1.3 62.32 4.3
2021 01 21 2:00 269.9 0.0 0.00 33.0 0.5 65.56 3.4
2021 01 21 3:00 270.2 0.0 0.00 31.9 -0.0 67.67 4.5
2021 01 21 4:00 270.3 0.0 0.00 30.8 -0.7 69.27 5.2
2021 01 21 5:00 270.3 0.0 0.00 30.0 -1.1 68.7 4.6
2021 01 21 6:00 270.3 0.0 0.00 28.8 -1.8 71.34 4.5
2021 01 21 7:00 270.6 0.0 0.00 27.4 -2.5 74.48 5.8
2021 01 21 8:00 270.6 0.0 0.00 27.3 -2.6 75.8 6.0
2021 01 21 9:00 269.5 0.0 0.00 28.6 -1.9 72.6 5.7
2021 01 21 10:00 268.6 0.0 0.00 33.6 0.9 59.5 6.2
2021 01 21 11:00 267.8 0.0 0.00 38.3 3.5 50.35 5.6
2021 01 21 12:00 267.2 0.0 0.00 42.5 5.8 39.59 6.2
2021 01 21 13:00 266.7 0.0 0.00 44.5 7.0 36.48 7.4
2021 01 21 14:00 267.1 0.0 0.00 45.1 7.3 38.61 6.6
2021 01 21 15:00 267.3 0.0 0.00 45.8 7.7 36.93 7.7
2021 01 21 16:00 267.3 0.0 0.00 44.7 7.1 39.01 9.2
2021 01 21 17:00 267.8 0.0 0.00 42.8 6.0 44.89 7.3
2021 01 21 18:00 268.1 0.0 0.00 39.7 4.3 48.43 9.5
2021 01 21 19:00 268.5 0.0 0.00 37.2 2.9 55.24 9.1
2021 01 21 20:00 268.9 0.0 0.00 34.9 1.6 61.29 6.5
2021 01 21 21:00 269.0 0.0 0.00 33.5 0.8 62.89 7.4
2021 01 21 22:00 269.6 0.0 0.00 31.7 -0.2 67.11 5.6
2021 01 21 23:00 269.6 0.0 0.00 30.0 -1.1 69.57 5.1
2021 01 21 24:00 269.8 0.0 0.00 28.7 -1.8 71.17 4.7
2021 01 22 1:00 270.3 0.0 0.00 27.9 -2.3 72.43 4.6
2021 01 22 2:00 270.4 0.0 0.00 26.3 -3.2 75.1 5.3
2021 01 22 3:00 271.0 0.0 0.00 24.4 -4.2 78.39 3.4
2021 01 22 4:00 270.4 0.0 0.00 22.4 -5.3 73.93 4.9
2021 01 22 5:00 269.9 0.0 0.00 19.9 -6.7 64.85 5.1
2021 01 22 6:00 269.8 0.0 0.00 17.7 -7.9 60.23 4.5
2021 01 22 7:00 269.8 0.0 0.00 15.8 -9.0 65.69 4.4
2021 01 22 8:00 269.8 0.0 0.00 14.8 -9.5 68.24 4.7
2021 01 22 9:00 269.6 0.0 0.00 14.5 -9.7 67.61 4.7
2021 01 22 10:00 268.9 0.0 0.00 15.5 -9.2 60.7 5.3
2021 01 22 11:00 268.3 0.0 0.00 17.0 -8.3 54.75 4.7
2021 01 22 12:00 267.9 0.0 0.00 18.7 -7.4 48.89 4.5
2021 01 22 13:00 267.6 0.0 0.00 20.0 -6.6 46.06 4.4
2021 01 22 14:00 267.7 0.0 0.00 20.9 -6.1 44.69 4.3
2021 01 22 15:00 267.8 0.0 0.00 21.8 -5.7 42.39 4.0
2021 01 22 16:00 267.9 0.0 0.00 22.2 -5.5 40.4 4.1
2021 01 22 17:00 268.1 0.0 0.00 22.1 -5.5 41.3 2.1
2021 01 22 18:00 268.8 0.0 0.00 20.9 -6.2 46.02 1.9
2021 01 22 19:00 269.1 0.0 0.00 19.7 -6.8 50.17 0.3
2021 01 22 20:00 269.1 0.0 0.00 19.4 -7.0 51.92 1.2
2021 01 22 21:00 269.1 0.0 0.00 18.0 -7.8 53.78 1.8
2021 01 22 22:00 269.1 0.0 0.00 16.8 -8.4 52.05 2.1
2021 01 22 23:00 269.1 0.0 0.00 15.3 -9.2 55.55 2.3
2021 01 22 24:00 269.5 0.0 0.00 14.4 -9.8 58.67 2.3
2021 01 23 1:00 269.9 0.0 0.00 13.3 -10.4 62.97 2.0
2021 01 23 2:00 269.9 0.0 0.00 12.5 -10.8 65.73 2.4
2021 01 23 3:00 269.9 0.0 0.00 12.3 -11.0 67.54 2.4
2021 01 23 4:00 269.9 0.0 0.00 12.3 -11.0 69.06 2.4
2021 01 23 5:00 269.9 0.0 0.00 12.8 -10.7 66.77 3.4
2021 01 23 6:00 269.9 0.0 0.00 12.1 -11.0 69.32 3.4
2021 01 23 7:00 269.9 0.0 0.00 11.9 -11.2 68.4 4.3
2021 01 23 8:00 269.7 0.0 0.00 12.6 -10.8 69.18 5.2
2021 01 23 9:00 269.1 0.0 0.00 14.5 -9.7 63.54 7.6
2021 01 23 10:00 268.5 0.0 0.00 16.6 -8.6 58.35 8.0
2021 01 23 11:00 267.8 0.0 0.00 20.6 -6.3 48.44 8.4
2021 01 23 12:00 267.2 0.0 0.00 25.1 -3.8 39.23 10.2
2021 01 23 13:00 266.9 0.0 0.00 28.5 -2.0 36.78 11.0
2021 01 23 14:00 266.9 0.0 0.00 30.9 -0.6 37.33 11.1
2021 01 23 15:00 267.2 0.0 0.00 32.0 0.0 38.93 11.0
2021 01 23 16:00 267.5 0.0 0.00 32.1 0.1 40.71 11.2
2021 01 23 17:00 267.7 0.0 0.00 31.6 -0.2 45.2 8.9
2021 01 23 18:00 268.2 0.0 0.00 32.0 0.0 45.4 9.2
2021 01 23 19:00 267.9 0.0 0.00 32.1 0.1 44.66 6.9
2021 01 23 20:00 268.4 0.0 0.00 30.9 -0.6 54.26 9.0
2021 01 23 21:00 268.9 0.0 0.00 29.9 -1.2 66.2 9.0
2021 01 23 22:00 268.9 0.0 0.00 30.0 -1.1 63.17 8.3
2021 01 23 23:00 268.7 0.0 0.00 30.8 -0.7 56.38 7.8
2021 01 23 24:00 268.8 0.0 0.00 31.3 -0.4 57.38 10.2
2021 01 24 1:00 268.9 0.0 0.00 31.1 -0.5 59.98 7.3
2021 01 24 2:00 268.9 0.0 0.00 31.1 -0.5 61.04 5.5
2021 01 24 3:00 268.9 0.0 0.00 31.1 -0.5 61.48 3.5
2021 01 24 4:00 268.9 0.0 0.00 31.2 -0.4 61.84 2.1
2021 01 24 5:00 268.9 0.0 0.00 31.2 -0.5 64.24 1.3
2021 01 24 6:00 269.0 0.0 0.00 31.1 -0.5 65.65 0.7
2021 01 24 7:00 269.2 0.0 0.00 31.0 -0.6 67.01 0.2
2021 01 24 8:00 269.6 0.0 0.00 30.9 -0.6 69.35 0.5
2021 01 24 9:00 269.4 0.0 0.00 31.2 -0.4 69.86 0.8
2021 01 24 10:00 269.0 0.0 0.00 32.4 0.2 70.33 0.8
2021 01 24 11:00 268.9 0.0 0.00 33.2 0.7 70.18 4.6
2021 01 24 12:00 268.9 0.0 0.00 33.3 0.7 66.69 4.4
2021 01 24 13:00 268.9 0.0 0.00 33.0 0.5 66.34 5.4
2021 01 24 14:00 268.8 0.0 0.00 33.1 0.6 66.43 4.9
2021 01 24 15:00 268.8 0.0 0.00 33.1 0.6 66.76 6.3
2021 01 24 16:00 268.9 0.0 0.00 32.7 0.4 69.95 7.2
2021 01 24 17:00 269.6 0.0 0.00 32.2 0.1 72.42 5.7
2021 01 24 18:00 269.6 0.0 0.00 31.8 -0.1 75.1 6.0
2021 01 24 19:00 269.7 0.0 0.00 31.4 -0.3 77.52 6.9
2021 01 24 20:00 270.1 0.0 0.00 30.9 -0.6 80 7.8
2021 01 24 21:00 270.3 0.0 0.00 30.3 -0.9 84.4 8.0
2021 01 24 22:00 270.9 0.0 0.00 29.6 -1.3 86.6 8.0
2021 01 24 23:00 270.9 0.0 0.00 29.1 -1.6 86.8 7.3
2021 01 24 24:00 270.9 0.0 0.00 28.8 -1.8 88.1 8.1
2021 01 25 1:00 270.9 0.0 0.00 28.3 -2.1 89 9.1
2021 01 25 2:00 270.9 0.0 0.00 28.4 -2.0 89 6.9
2021 01 25 3:00 270.9 0.0 0.00 28.5 -2.0 88.5 9.7
2021 01 25 4:00 270.9 0.0 0.00 28.7 -1.8 87.6 11.1
2021 01 25 5:00 270.9 0.0 0.00 28.9 -1.7 87.6 9.6
2021 01 25 6:00 270.9 0.0 0.00 28.7 -1.8 88.7 10.8
2021 01 25 7:00 270.9 0.0 0.00 28.8 -1.8 87.9 11.2
2021 01 25 8:00 275.7 0.0 0.00 28.7 -1.8 88.3 11.1
2021 01 25 9:00 273.8 0.0 0.00 28.6 -1.9 88.6 14.0
2021 01 25 10:00 271.6 0.0 0.00 28.9 -1.7 87.2 15.2
2021 01 25 11:00 270.9 0.0 0.00 29.4 -1.4 85.1 15.0
2021 01 25 12:00 270.9 0.0 0.00 29.3 -1.5 85 14.5
2021 01 25 13:00 282.6 0.0 0.00 28.8 -1.8 92.9 15.0
2021 01 25 14:00 Wet 291.0 0.0 0.00 28.0 -2.2 100 15.6
2021 01 25 15:00 Wet 285.7 0.0 0.00 27.5 -2.5 100 15.4
2021 01 25 16:00 282.1 0.0 0.00 27.6 -2.4 100 16.3
2021 01 25 17:00 278.5 0.0 0.00 27.3 -2.6 100 16.8
2021 01 25 18:00 276.0 0.0 0.00 26.5 -3.1 100 14.6
2021 01 25 19:00 274.9 0.0 0.00 26.0 -3.3 100 12.0
2021 01 25 20:00 274.3 0.0 0.00 26.0 -3.3 100 12.0
2021 01 25 21:00 273.5 0.0 0.00 25.7 -3.5 100 12.4
2021 01 25 22:00 272.6 0.0 0.00 25.3 -3.7 100 13.1
2021 01 25 23:00 272.6 0.0 0.00 25.1 -3.8 100 11.6
2021 01 25 24:00 272.3 0.0 0.00 24.4 -4.2 100 11.8
2021 01 26 1:00 271.7 0.0 0.00 23.9 -4.5 100 11.0
2021 01 26 2:00 271.7 0.0 0.00 23.1 -5.0 100 10.3
2021 01 26 3:00 271.8 0.0 0.00 21.5 -5.8 100 10.2
2021 01 26 4:00 Wet 285.1 0.0 0.00 20.4 -6.4 100 8.8
2021 01 26 5:00 Wet 304.7 0.0 0.00 20.1 -6.6 100 7.5
2021 01 26 6:00 Wet 311.5 0.0 0.00 20.3 -6.5 100 7.1
2021 01 26 7:00 Wet 312.1 0.0 0.00 20.5 -6.4 100 6.0
2021 01 26 8:00 Wet 311.8 0.0 0.00 20.6 -6.3 100 6.1
2021 01 26 9:00 Wet 311.2 0.0 0.00 20.7 -6.3 100 5.8
2021 01 26 10:00 Wet 309.4 0.0 0.00 21.4 -5.9 100 6.1
2021 01 26 11:00 Wet 305.8 0.0 0.00 22.0 -5.6 100 6.9
2021 01 26 12:00 Wet 298.7 0.0 0.00 22.2 -5.4 100 7.6
2021 01 26 13:00 Wet 288.4 0.0 0.00 22.5 -5.3 100 7.0
2021 01 26 14:00 277.9 0.0 0.00 22.9 -5.1 100 6.3
2021 01 26 15:00 271.2 0.0 0.00 22.6 -5.2 100 6.9
2021 01 26 16:00 270.3 0.0 0.00 22.5 -5.3 99.8 7.1
2021 01 26 17:00 270.4 0.0 0.00 22.5 -5.3 99.1 6.3
2021 01 26 18:00 270.9 0.0 0.00 21.9 -5.6 100 4.8
2021 01 26 19:00 271.0 0.0 0.00 21.2 -6.0 96.2 6.0
2021 01 26 20:00 271.1 0.0 0.00 20.3 -6.5 92.9 6.0
2021 01 26 21:00 271.0 0.0 0.00 19.4 -7.0 91.1 6.4
2021 01 26 22:00 270.7 0.0 0.00 18.5 -7.5 89.4 7.9
2021 01 26 23:00 270.6 0.0 0.00 18.1 -7.7 88.7 7.3
2021 01 26 24:00 270.5 0.0 0.00 17.8 -7.9 87.9 8.2
2021 01 27 1:00 270.5 0.0 0.00 17.5 -8.0 87.6 6.7
2021 01 27 2:00 270.4 0.0 0.00 17.4 -8.1 86.7 9.9
2021 01 27 3:00 270.4 0.0 0.00 18.1 -7.7 86.4 7.3
2021 01 27 4:00 270.5 0.0 0.00 18.3 -7.6 87.1 5.7
2021 01 27 5:00 271.0 0.0 0.00 18.3 -7.6 87.9 4.1
2021 01 27 6:00 273.8 0.0 0.00 17.5 -8.1 93.9 6.3
2021 01 27 7:00 274.9 0.0 0.00 16.6 -8.5 95.2 5.4
2021 01 27 8:00 274.9 0.0 0.00 16.2 -8.8 93.6 6.1
2021 01 27 9:00 273.3 0.0 0.00 15.9 -8.9 92.7 7.6
2021 01 27 10:00 272.0 0.0 0.00 16.5 -8.6 93.2 7.7
2021 01 27 11:00 271.1 0.0 0.00 17.3 -8.2 93.7 8.4
2021 01 27 12:00 270.0 0.0 0.00 18.9 -7.3 92.8 8.2
2021 01 27 13:00 269.5 0.0 0.00 20.8 -6.2 89.7 8.4
2021 01 27 14:00 269.3 0.1 1.52 22.0 -5.6 83.7 7.4
2021 01 27 15:00 268.9 0.0 1.02 22.8 -5.1 74.46 8.3
2021 01 27 16:00 268.9 0.0 0.00 22.9 -5.1 71.35 6.6
2021 01 27 17:00 269.3 0.0 0.00 22.7 -5.2 67.93 3.4
2021 01 27 18:00 270.2 0.0 0.00 20.1 -6.6 69.54 2.2
2021 01 27 19:00 270.5 0.0 0.00 17.5 -8.1 72.57 1.1
2021 01 27 20:00 270.9 0.0 0.00 16.1 -8.8 73.56 1.4
2021 01 27 21:00 271.3 0.0 0.00 13.8 -10.1 76.19 2.1
2021 01 27 22:00 272.0 0.0 0.00 12.2 -11.0 80 1.1
2021 01 27 23:00 273.0 0.0 0.00 11.1 -11.6 82.1 0.3
2021 01 27 24:00 273.7 0.0 0.00 10.0 -12.2 84.6 0.0
2021 01 28 1:00 274.7 0.0 0.00 8.9 -12.9 87.4 0.0
2021 01 28 2:00 275.5 0.0 0.00 8.5 -13.1 86.5 0.2
2021 01 28 3:00 276.1 0.0 0.00 7.1 -13.8 86.8 0.6
2021 01 28 4:00 276.3 0.0 0.00 7.3 -13.7 85.7 1.0
2021 01 28 5:00 276.8 0.0 0.00 6.8 -14.0 87 0.0
2021 01 28 6:00 276.8 0.0 0.00 6.4 -14.2 86.9 0.2
2021 01 28 7:00 276.9 0.0 0.00 5.4 -14.8 85.4 0.8
2021 01 28 8:00 276.8 0.0 0.00 5.2 -14.9 84.4 1.4
2021 01 28 9:00 275.9 0.0 0.00 8.9 -12.8 83.1 0.2
2021 01 28 10:00 274.4 0.0 0.00 12.9 -10.6 76.24 1.4
2021 01 28 11:00 272.0 0.0 0.00 17.9 -7.8 65.8 6.9
2021 01 28 12:00 268.4 0.0 0.00 21.2 -6.0 61.74 6.1
2021 01 28 13:00 269.9 0.0 0.00 22.8 -5.1 60.58 8.9
2021 01 28 14:00 281.9 0.0 0.00 24.4 -4.2 61.32 8.6
2021 01 28 15:00 273.9 0.0 0.00 25.7 -3.5 57.58 10.0
2021 01 28 16:00 271.9 0.0 0.00 25.9 -3.4 64.16 6.7
2021 01 28 17:00 271.6 0.0 0.00 25.4 -3.7 64.75 8.5
2021 01 28 18:00 271.6 0.0 0.00 22.5 -5.3 70.82 6.3
2021 01 28 19:00 272.1 0.0 0.00 21.1 -6.0 76.47 4.5
2021 01 28 20:00 272.6 0.0 0.00 20.2 -6.5 80.5 4.5
2021 01 28 21:00 272.5 0.0 0.00 19.9 -6.7 80.5 5.1
2021 01 28 22:00 272.5 0.0 0.00 19.6 -6.9 81.4 4.4
2021 01 28 23:00 273.0 0.0 0.00 18.3 -7.6 84.7 3.4
2021 01 28 24:00 273.8 0.0 0.00 17.5 -8.1 86 4.2
2021 01 29 1:00 273.8 0.0 0.00 18.3 -7.6 84.3 6.0
2021 01 29 2:00 273.1 0.0 0.00 18.8 -7.3 82.8 6.4
2021 01 29 3:00 272.1 0.0 0.00 19.9 -6.7 80.9 5.7
2021 01 29 4:00 271.8 0.0 0.00 21.4 -5.9 79.46 6.7
2021 01 29 5:00 271.8 0.0 0.00 21.6 -5.8 79.52 6.4
2021 01 29 6:00 271.8 0.0 0.00 22.5 -5.3 79.49 8.4
2021 01 29 7:00 271.8 0.0 0.00 22.3 -5.4 80.6 7.3
2021 01 29 8:00 271.7 0.0 0.00 22.2 -5.4 81.5 7.3
2021 01 29 9:00 270.7 0.0 0.00 23.3 -4.9 80.3 7.7
2021 01 29 10:00 269.8 0.0 0.00 27.4 -2.6 74.87 9.2
2021 01 29 11:00 269.5 0.0 0.25 31.0 -0.6 72.06 9.8
2021 01 29 12:00 269.3 0.0 0.00 33.7 0.9 71.04 11.4
2021 01 29 13:00 269.2 0.0 0.51 35.6 2.0 68.9 10.3
2021 01 29 14:00 269.2 0.0 0.00 36.4 2.4 67.65 9.6
2021 01 29 15:00 269.3 0.0 0.25 36.9 2.7 67.57 9.9
2021 01 29 16:00 269.3 0.0 0.00 38.0 3.3 66.27 9.9
2021 01 29 17:00 269.5 0.0 0.00 38.0 3.3 66.63 9.3
2021 01 29 18:00 270.2 0.0 0.00 35.6 2.0 72.73 9.9
2021 01 29 19:00 270.2 0.0 0.00 33.7 0.9 74.84 9.1
2021 01 29 20:00 270.3 0.0 0.00 33.9 1.1 73.25 10.0
2021 01 29 21:00 270.3 0.0 0.00 34.1 1.1 72.64 9.7
2021 01 29 22:00 270.3 0.0 0.00 33.5 0.8 73.2 10.7
2021 01 29 23:00 270.3 0.0 0.00 32.8 0.5 74.9 10.2
2021 01 29 24:00 270.3 0.0 0.00 33.0 0.5 74.62 10.7
2021 01 30 1:00 270.3 0.0 0.00 33.9 1.0 72.82 11.7
2021 01 30 2:00 270.3 0.0 0.00 34.5 1.4 72.16 10.5
2021 01 30 3:00 270.3 0.0 0.00 34.7 1.5 73.01 9.4
2021 01 30 4:00 270.3 0.0 0.00 34.6 1.5 74.17 9.2
2021 01 30 5:00 270.3 0.0 0.00 34.3 1.3 76.28 9.1
2021 01 30 6:00 270.3 0.0 0.00 34.5 1.4 78.49 10.3
2021 01 30 7:00 270.3 0.0 0.00 34.7 1.5 79.55 10.1
2021 01 30 8:00 270.3 0.0 0.00 35.0 1.7 80.2 11.0
2021 01 30 9:00 270.2 0.0 0.00 35.9 2.2 80.2 11.1
2021 01 30 10:00 270.2 0.0 0.00 37.0 2.8 79.94 10.5
2021 01 30 11:00 270.2 0.0 0.00 38.3 3.5 80.4 11.4
2021 01 30 12:00 270.6 0.0 0.00 38.6 3.7 83.4 9.5
2021 01 30 13:00 Wet 351.6 0.0 0.00 37.6 3.1 94.7 8.7
2021 01 30 14:00 Wet 510.7 0.1 2.03 36.4 2.5 100 8.4
2021 01 30 15:00 Wet 534.9 0.2 4.83 36.2 2.3 100 6.1
2021 01 30 16:00 Wet 569.8 0.3 7.37 35.0 1.7 100 7.9
2021 01 30 17:00 Wet 565.8 0.2 4.06 34.1 1.2 100 8.0
2021 01 30 18:00 Wet 510.9 0.1 2.54 33.6 0.9 100 9.5
2021 01 30 19:00 Wet 490.9 0.1 2.03 33.3 0.7 100 8.3
2021 01 30 20:00 Wet 444.1 0.0 0.51 32.7 0.4 100 9.7
2021 01 30 21:00 Wet 430.8 0.0 0.25 32.4 0.2 100 7.5
2021 01 30 22:00 Wet 392.9 0.0 0.00 32.2 0.1 100 5.8
2021 01 30 23:00 Wet 355.4 0.0 0.00 32.0 -0.0 100 6.2
2021 01 30 24:00 Wet 314.4 0.0 0.00 31.8 -0.1 100 7.3
2021 01 31 1:00 Wet 300.5 0.0 0.00 31.4 -0.3 100 3.1
2021 01 31 2:00 Wet 298.4 0.0 0.00 30.6 -0.8 100 0.0
2021 01 31 3:00 Wet 295.4 0.0 0.00 29.6 -1.3 100 0.0
2021 01 31 4:00 Wet 294.2 0.0 0.00 29.3 -1.5 100 0.0
2021 01 31 5:00 Wet 293.2 0.0 0.00 29.7 -1.3 100 0.0
2021 01 31 6:00 Wet 291.8 0.0 0.00 29.9 -1.2 99.7 0.0
2021 01 31 7:00 Wet 290.0 0.0 0.00 30.1 -1.1 90.4 0.0
2021 01 31 8:00 Wet 287.6 0.0 0.00 29.8 -1.2 87.6 0.0
2021 01 31 9:00 Wet 285.2 0.0 0.00 29.6 -1.3 86.6 0.0
2021 01 31 10:00 281.9 0.0 0.00 29.6 -1.3 84.7 0.0
2021 01 31 11:00 278.1 0.0 0.00 29.8 -1.2 83.4 0.0
2021 01 31 12:00 274.3 0.0 0.00 30.2 -1.0 81.8 4.0
2021 01 31 13:00 271.9 0.0 0.00 30.7 -0.7 80.4 9.1
2021 01 31 14:00 270.9 0.0 0.00 31.0 -0.6 79.37 9.5
2021 01 31 15:00 270.3 0.0 0.00 31.4 -0.3 76.93 10.7
2021 01 31 16:00 270.3 0.0 0.00 31.7 -0.2 76.39 9.6
2021 01 31 17:00 270.3 0.0 0.00 31.4 -0.3 76.53 10.8
2021 01 31 18:00 270.7 0.0 0.00 31.1 -0.5 77.93 9.0
2021 01 31 19:00 270.9 0.0 0.00 30.9 -0.6 80.2 9.3
2021 01 31 20:00 270.9 0.0 0.00 30.5 -0.9 80.4 8.9
2021 01 31 21:00 270.9 0.0 0.00 29.9 -1.2 81.2 9.4
2021 01 31 22:00 270.9 0.0 0.00 29.4 -1.4 83.6 7.2
2021 01 31 23:00 270.9 0.0 0.00 28.5 -2.0 84.9 7.0
2021 01 31 24:00 271.0 0.0 0.00 27.8 -2.3 86.3 7.1
2021 02 01 1:00 271.2 0.0 0.00 27.4 -2.5 87.4 6.8
2021 02 01 2:00 271.8 0.0 0.00 26.2 -3.2 88.4 8.5
2021 02 01 3:00 271.8 0.0 0.00 25.4 -3.7 89.3 9.3
2021 02 01 4:00 271.7 0.0 0.00 25.2 -3.8 88.7 7.6
2021 02 01 5:00 271.7 0.0 0.00 25.2 -3.8 87.4 6.4
2021 02 01 6:00 271.7 0.0 0.00 25.2 -3.8 88.5 8.1
2021 02 01 7:00 271.7 0.0 0.00 25.0 -3.9 90.2 8.0
2021 02 01 8:00 271.7 0.0 0.00 24.5 -4.1 92.7 8.5
2021 02 01 9:00 271.7 0.0 0.00 23.8 -4.5 98.8 7.8
2021 02 01 10:00 271.7 0.0 0.00 23.6 -4.7 99.9 8.5
2021 02 01 11:00 271.2 0.0 0.00 23.6 -4.7 91.3 7.3
2021 02 01 12:00 270.8 0.0 0.00 24.3 -4.3 86.6 6.4
2021 02 01 13:00 270.7 0.0 0.00 24.5 -4.2 85.5 6.8
2021 02 01 14:00 270.5 0.0 0.00 25.0 -3.9 83.5 6.8
2021 02 01 15:00 270.3 0.0 0.00 25.6 -3.5 80.4 6.0
2021 02 01 16:00 270.3 0.0 0.00 26.1 -3.3 78.38 5.8
2021 02 01 17:00 270.3 0.0 0.00 26.3 -3.1 76.83 6.4
2021 02 01 18:00 270.6 0.0 0.00 26.2 -3.2 75.49 5.9
2021 02 01 19:00 271.0 0.0 0.00 26.3 -3.2 76.02 4.6
2021 02 01 20:00 271.0 0.0 0.00 26.1 -3.2 75.85 2.3
2021 02 01 21:00 271.0 0.0 0.00 25.8 -3.4 76.46 1.8
2021 02 01 22:00 271.0 0.0 0.00 25.8 -3.4 76.96 2.4
2021 02 01 23:00 272.1 0.0 0.00 24.6 -4.1 79.64 0.2
2021 02 01 24:00 273.8 0.0 0.00 22.0 -5.5 85.6 1.4
2021 02 02 1:00 276.0 0.0 0.00 20.5 -6.4 90 1.4
2021 02 02 2:00 278.1 0.0 0.00 19.0 -7.2 95.8 3.0
2021 02 02 3:00 280.0 0.0 0.00 17.5 -8.1 100 1.2
2021 02 02 4:00 281.8 0.0 0.00 16.2 -8.8 100 0.6
2021 02 02 5:00 283.6 0.0 0.00 13.9 -10.0 100 3.4
2021 02 02 6:00 Wet 284.9 0.0 0.00 13.4 -10.3 100 3.1
2021 02 02 7:00 Wet 285.7 0.0 0.00 14.2 -9.9 100 2.4
2021 02 02 8:00 Wet 286.2 0.0 0.00 14.7 -9.6 99.4 1.2
2021 02 02 9:00 Wet 286.2 0.0 0.00 15.4 -9.2 99.5 1.7
2021 02 02 10:00 Wet 285.8 0.0 0.00 17.2 -8.2 100 0.7
2021 02 02 11:00 Wet 284.1 0.0 0.00 18.9 -7.3 100 1.9
2021 02 02 12:00 281.2 0.0 0.00 20.5 -6.4 100 2.5
2021 02 02 13:00 282.1 0.0 0.00 22.8 -5.1 100 2.0
2021 02 02 14:00 Wet 287.1 0.0 0.00 27.2 -2.6 97.8 0.4
2021 02 02 15:00 274.6 0.0 0.00 28.1 -2.2 90 1.9
2021 02 02 16:00 272.6 0.0 0.00 28.6 -1.9 83.9 3.8
2021 02 02 17:00 271.5 0.0 0.00 29.1 -1.6 76.52 5.1
2021 02 02 18:00 271.9 0.0 0.00 27.3 -2.6 78.53 4.7
2021 02 02 19:00 273.0 0.0 0.00 24.1 -4.4 86 4.3
2021 02 02 20:00 274.3 0.0 0.00 22.1 -5.5 93.1 5.2
2021 02 02 21:00 276.6 0.0 0.00 20.5 -6.4 100 6.5
2021 02 02 22:00 278.6 0.0 0.00 20.7 -6.3 100 6.0
2021 02 02 23:00 280.0 0.0 0.00 20.6 -6.3 100 5.4
2021 02 02 24:00 281.0 0.0 0.00 20.0 -6.7 100 4.9
2021 02 03 1:00 281.7 0.0 0.00 19.8 -6.8 100 3.5
2021 02 03 2:00 282.4 0.0 0.00 20.4 -6.4 100 3.8
2021 02 03 3:00 282.9 0.0 0.00 21.0 -6.1 100 3.9
2021 02 03 4:00 283.4 0.0 0.00 21.0 -6.1 100 4.3
2021 02 03 5:00 Wet 284.0 0.0 0.00 20.9 -6.2 100 4.7
2021 02 03 6:00 Wet 284.3 0.0 0.00 21.3 -6.0 100 3.6
2021 02 03 7:00 Wet 284.7 0.0 0.00 21.7 -5.7 100 4.1
2021 02 03 8:00 Wet 285.2 0.0 0.00 22.4 -5.3 100 3.9
2021 02 03 9:00 Wet 285.1 0.0 0.00 23.3 -4.8 100 4.7
2021 02 03 10:00 Wet 284.6 0.0 0.00 25.4 -3.7 100 4.1
2021 02 03 11:00 282.9 0.0 0.00 28.4 -2.0 100 8.7
2021 02 03 12:00 Wet 291.6 0.0 0.00 32.9 0.5 86.4 10.5
2021 02 03 13:00 269.5 0.0 0.00 37.4 3.0 65.61 12.2
2021 02 03 14:00 268.9 0.0 0.00 40.6 4.8 60.52 10.2
2021 02 03 15:00 268.8 0.0 0.00 42.8 6.0 58.4 10.1
2021 02 03 16:00 268.7 0.0 0.00 44.4 6.9 56.2 10.8
2021 02 03 17:00 268.8 0.0 0.00 44.4 6.9 57.07 9.7
2021 02 03 18:00 269.5 0.0 0.00 42.0 5.6 65.27 9.2
2021 02 03 19:00 269.8 0.0 0.00 41.3 5.2 67.09 11.4
2021 02 03 20:00 269.8 0.0 0.00 40.5 4.8 67.36 10.0
2021 02 03 21:00 269.5 0.0 0.00 40.8 4.9 64.17 12.4
2021 02 03 22:00 269.5 0.0 0.00 42.0 5.6 57.58 13.7
2021 02 03 23:00 269.4 0.0 0.00 41.6 5.3 58.09 12.9
2021 02 03 24:00 269.4 0.0 0.00 41.5 5.3 58.22 14.4
2021 02 04 1:00 269.3 0.0 0.00 41.8 5.5 58.31 14.3
2021 02 04 2:00 269.4 0.0 0.00 41.5 5.3 60.62 10.8
2021 02 04 3:00 269.5 0.0 0.00 40.3 4.6 65.14 6.0
2021 02 04 4:00 269.5 0.0 0.00 40.5 4.7 65.59 7.9
2021 02 04 5:00 269.5 0.0 0.00 39.9 4.4 69.06 7.4
2021 02 04 6:00 270.1 0.0 0.00 39.6 4.2 72.31 6.8
2021 02 04 7:00 Wet 330.6 0.0 0.25 38.4 3.5 78.2 5.4
2021 02 04 8:00 Wet 356.2 0.0 0.00 36.9 2.7 86.3 4.8
2021 02 04 9:00 Wet 408.1 0.0 0.51 36.1 2.3 100 3.8
2021 02 04 10:00 Wet 529.3 0.0 0.76 33.0 0.5 100 12.1
2021 02 04 11:00 Wet 336.0 0.0 0.00 30.1 -1.1 100 14.9
2021 02 04 12:00 Wet 299.6 0.0 0.00 26.4 -3.1 100 16.1
2021 02 04 13:00 Wet 294.7 0.0 0.25 24.1 -4.4 100 17.7
2021 02 04 14:00 Wet 289.2 0.0 0.00 23.3 -4.9 100 16.8
2021 02 04 15:00 283.3 0.0 0.00 22.5 -5.3 100 19.0
2021 02 04 16:00 279.3 0.0 0.00 21.5 -5.8 100 18.0
2021 02 04 17:00 276.8 0.0 0.00 20.6 -6.3 100 17.7
2021 02 04 18:00 274.9 0.0 0.00 19.6 -6.9 100 13.5
2021 02 04 19:00 273.8 0.0 0.00 18.6 -7.4 93.3 12.0
2021 02 04 20:00 272.7 0.0 0.00 18.2 -7.7 77.85 13.8
2021 02 04 21:00 271.9 0.0 0.00 17.4 -8.1 75.64 11.6
2021 02 04 22:00 271.8 0.0 0.00 17.1 -8.3 74.63 9.8
2021 02 04 23:00 271.8 0.0 0.00 16.0 -8.9 76.88 5.9
2021 02 04 24:00 271.9 0.0 0.00 15.8 -9.0 77.73 6.8
2021 02 05 1:00 271.9 0.0 0.00 16.7 -8.5 77.7 7.3
2021 02 05 2:00 271.8 0.0 0.00 18.4 -7.5 76.9 7.0
2021 02 05 3:00 271.4 0.0 0.00 19.2 -7.1 78.73 4.9
2021 02 05 4:00 271.5 0.0 0.00 20.1 -6.6 81 4.6
2021 02 05 5:00 271.5 0.0 0.00 21.0 -6.1 81 8.2
2021 02 05 6:00 270.7 0.0 0.00 19.5 -6.9 67.79 11.0
2021 02 05 7:00 270.5 0.0 0.00 16.6 -8.6 69.11 6.5
2021 02 05 8:00 270.7 0.0 0.00 14.9 -9.5 69.49 7.8
2021 02 05 9:00 269.9 0.0 0.00 15.1 -9.4 61.11 10.3
2021 02 05 10:00 269.3 0.0 0.00 16.3 -8.7 59.65 10.5
2021 02 05 11:00 269.0 0.0 0.00 17.3 -8.2 57.32 11.1
2021 02 05 12:00 269.0 0.0 0.00 18.8 -7.3 56.58 10.5
2021 02 05 13:00 269.0 0.0 0.00 20.2 -6.6 53.66 11.9
2021 02 05 14:00 268.9 0.0 0.00 20.5 -6.4 54.2 11.0
2021 02 05 15:00 269.0 0.0 0.00 21.0 -6.1 53 10.5
2021 02 05 16:00 269.0 0.0 0.00 21.7 -5.7 52.22 10.0
2021 02 05 17:00 269.0 0.0 0.00 21.9 -5.6 52.34 8.0
2021 02 05 18:00 269.3 0.0 0.00 19.7 -6.8 55.01 6.1
2021 02 05 19:00 269.7 0.0 0.00 17.1 -8.3 59.38 4.8
2021 02 05 20:00 269.8 0.0 0.00 16.5 -8.6 59.67 6.6
2021 02 05 21:00 269.8 0.0 0.00 14.9 -9.5 63.65 4.4
2021 02 05 22:00 270.2 0.0 0.00 13.6 -10.2 66.71 2.9
2021 02 05 23:00 270.6 0.0 0.00 12.0 -11.1 70.79 2.7
2021 02 05 24:00 270.6 0.0 0.00 11.9 -11.1 71.36 3.3
2021 02 06 1:00 271.2 0.0 0.00 9.9 -12.2 76.03 3.7
2021 02 06 2:00 271.3 0.0 0.00 10.1 -12.1 75.99 4.1
2021 02 06 3:00 271.9 0.0 0.00 8.9 -12.8 78.58 1.6
2021 02 06 4:00 272.8 0.0 0.00 8.7 -12.9 76.51 1.5
2021 02 06 5:00 273.6 0.0 0.00 6.1 -14.4 80.5 1.7
2021 02 06 6:00 274.4 0.0 0.00 6.2 -14.4 80.3 0.6
2021 02 06 7:00 274.7 0.0 0.00 8.1 -13.3 79.75 1.0
2021 02 06 8:00 274.0 0.0 0.00 9.3 -12.6 79.32 2.9
2021 02 06 9:00 272.1 0.0 0.00 11.6 -11.3 76.79 3.4
2021 02 06 10:00 270.1 0.0 0.00 12.4 -10.9 76.89 6.4
2021 02 06 11:00 270.3 0.0 0.00 10.2 -12.1 84.9 8.4
2021 02 06 12:00 269.6 0.0 0.00 9.3 -12.6 84.9 7.2
2021 02 06 13:00 269.5 0.0 0.00 10.1 -12.2 84.8 4.2
2021 02 06 14:00 269.5 0.0 0.00 10.2 -12.1 85.1 4.8
2021 02 06 15:00 269.8 0.0 0.00 9.3 -12.6 84.7 5.7
2021 02 06 16:00 269.8 0.0 0.00 8.5 -13.1 84.4 5.2
2021 02 06 17:00 269.9 0.0 0.00 8.4 -13.1 83.9 3.6
2021 02 06 18:00 270.6 0.0 0.00 6.7 -14.1 82.9 3.5
2021 02 06 19:00 270.6 0.0 0.00 4.2 -15.4 81.7 4.5
2021 02 06 20:00 271.4 0.0 0.00 2.4 -16.4 81.9 0.5
2021 02 06 21:00 272.8 0.0 0.00 1.4 -17.0 82.2 0.1
2021 02 06 22:00 274.2 0.0 0.00 0.3 -17.6 81.9 2.9
2021 02 06 23:00 275.5 0.0 0.00 -0.2 -17.9 81.3 5.8
2021 02 06 24:00 276.4 0.0 0.00 -0.8 -18.2 80.7 3.2
2021 02 07 1:00 277.2 0.0 0.00 -2.2 -19.0 80.4 2.0
2021 02 07 2:00 278.0 0.0 0.00 -3.6 -19.8 80.2 1.2
2021 02 07 3:00 278.9 0.0 0.00 -5.1 -20.6 79.52 2.8
2021 02 07 4:00 279.6 0.0 0.00 -6.9 -21.6 78.76 0.7
2021 02 07 5:00 280.0 0.0 0.00 -7.6 -22.0 78.47 3.2
2021 02 07 6:00 280.4 0.0 0.00 -7.4 -21.9 78.7 0.3
2021 02 07 7:00 280.4 0.0 0.00 -6.1 -21.1 78.38 4.8
2021 02 07 8:00 279.6 0.0 0.00 -5.4 -20.8 76.52 5.2
2021 02 07 9:00 278.0 0.0 0.00 -4.9 -20.5 74.65 8.0
2021 02 07 10:00 274.8 0.0 0.00 -4.2 -20.1 73.05 6.6
2021 02 07 11:00 271.0 0.0 0.00 -3.7 -19.9 75.73 5.2
2021 02 07 12:00 269.2 0.0 0.00 -2.7 -19.3 77.65 5.6
2021 02 07 13:00 269.1 0.0 0.00 -1.6 -18.6 77.18 7.1
2021 02 07 14:00 268.9 0.0 0.00 -1.1 -18.4 77.82 6.6
2021 02 07 15:00 269.0 0.0 0.00 -0.4 -18.0 77.83 6.3
2021 02 07 16:00 269.2 0.0 0.00 0.4 -17.6 78.68 6.0
2021 02 07 17:00 269.9 0.0 0.00 0.2 -17.6 78.74 7.5
2021 02 07 18:00 270.0 0.0 0.00 -0.2 -17.9 77.94 7.9
2021 02 07 19:00 270.1 0.0 0.00 -0.5 -18.1 78.61 6.5
2021 02 07 20:00 270.6 0.0 0.00 -0.6 -18.1 80.5 5.5
2021 02 07 21:00 270.7 0.0 0.00 -0.6 -18.1 80.8 6.0
2021 02 07 22:00 270.7 0.0 0.00 -0.6 -18.1 80.5 7.0
2021 02 07 23:00 270.9 0.0 0.00 -0.8 -18.2 80.6 6.9
2021 02 07 24:00 271.4 0.0 0.00 -1.0 -18.4 80.4 7.1
2021 02 08 1:00 270.8 0.0 0.00 -1.3 -18.5 80.4 7.1
2021 02 08 2:00 270.7 0.0 0.00 -1.4 -18.5 80.2 7.1
2021 02 08 3:00 270.7 0.0 0.00 -1.3 -18.5 80 6.8
2021 02 08 4:00 270.7 0.0 0.00 -1.5 -18.6 79.76 6.2
2021 02 08 5:00 270.7 0.0 0.00 -1.9 -18.8 79.71 7.1
2021 02 08 6:00 270.7 0.0 0.00 -1.9 -18.9 79.74 6.6
2021 02 08 7:00 270.7 0.0 0.00 -2.0 -18.9 79.64 7.9
2021 02 08 8:00 270.6 0.0 0.00 -1.9 -18.9 79.82 8.0
2021 02 08 9:00 270.0 0.0 0.00 -1.3 -18.5 80.3 6.2
2021 02 08 10:00 269.9 0.0 0.00 -0.3 -17.9 80.4 6.5
2021 02 08 11:00 269.7 0.0 0.00 1.0 -17.2 79.94 6.1
2021 02 08 12:00 274.9 0.0 0.00 2.0 -16.7 80.3 6.3
2021 02 08 13:00 275.9 0.0 0.00 2.7 -16.3 80.7 5.6
2021 02 08 14:00 Wet 284.8 0.0 0.00 3.4 -15.9 81.3 6.6
2021 02 08 15:00 Wet 311.2 0.0 0.00 3.4 -15.9 83 8.0
2021 02 08 16:00 Wet 321.4 0.0 0.00 3.7 -15.7 83.3 8.1
2021 02 08 17:00 Wet 324.1 0.0 0.00 3.6 -15.8 83.4 6.8
2021 02 08 18:00 Wet 324.8 0.0 0.00 3.4 -15.9 83.4 7.1
2021 02 08 19:00 Wet 325.2 0.0 0.00 3.3 -15.9 83.2 5.4
2021 02 08 20:00 Wet 325.0 0.0 0.00 3.3 -16.0 82.7 6.2
2021 02 08 21:00 Wet 324.7 0.0 0.00 3.2 -16.0 82.1 6.5
2021 02 08 22:00 Wet 324.6 0.0 0.00 3.2 -16.0 81.7 7.4
2021 02 08 23:00 Wet 324.6 0.0 0.00 3.3 -15.9 81.8 6.3
2021 02 08 24:00 Wet 324.6 0.0 0.00 3.3 -15.9 81.6 6.2
2021 02 09 1:00 Wet 324.6 0.0 0.00 3.0 -16.1 81 6.9
2021 02 09 2:00 Wet 324.6 0.0 0.00 3.1 -16.0 81.2 5.8
2021 02 09 3:00 Wet 324.6 0.0 0.00 2.5 -16.4 80.7 5.4
2021 02 09 4:00 Wet 324.6 0.0 0.00 1.7 -16.8 80.1 6.3
2021 02 09 5:00 Wet 324.6 0.0 0.00 1.2 -17.1 79.84 5.6
2021 02 09 6:00 Wet 324.7 0.0 0.00 0.1 -17.7 78.6 5.9
2021 02 09 7:00 Wet 324.7 0.0 0.00 -0.6 -18.1 77.84 5.9
2021 02 09 8:00 Wet 324.7 0.0 0.00 -0.7 -18.2 77.27 6.1
2021 02 09 9:00 Wet 324.7 0.0 0.00 -0.5 -18.0 76.1 7.2
2021 02 09 10:00 Wet 324.7 0.0 0.00 0.1 -17.7 75.45 6.9
2021 02 09 11:00 Wet 324.5 0.0 0.00 1.9 -16.7 74.65 5.9
2021 02 09 12:00 Wet 323.9 0.0 0.00 3.5 -15.9 73.18 3.8
2021 02 09 13:00 Wet 323.8 0.0 0.00 5.2 -14.9 69.9 3.7
2021 02 09 14:00 Wet 323.5 0.0 0.00 7.0 -13.9 60.97 4.9
2021 02 09 15:00 Wet 323.0 0.0 0.00 8.7 -12.9 56.12 3.7
2021 02 09 16:00 Wet 322.8 0.0 0.00 9.3 -12.6 54.84 4.6
2021 02 09 17:00 Wet 322.2 0.0 0.00 8.2 -13.2 55.48 5.5
2021 02 09 18:00 Wet 321.5 0.0 0.00 6.9 -13.9 56.47 7.1
2021 02 09 19:00 Wet 320.7 0.0 0.00 6.1 -14.4 57.3 6.5
2021 02 09 20:00 Wet 319.7 0.0 0.00 5.5 -14.7 57.41 3.3
2021 02 09 21:00 Wet 318.8 0.0 0.00 4.9 -15.1 57.42 3.2
2021 02 09 22:00 Wet 318.1 0.0 0.00 4.5 -15.3 57.5 4.0
2021 02 09 23:00 Wet 317.0 0.0 0.00 4.5 -15.3 56.99 5.9
2021 02 09 24:00 Wet 315.7 0.0 0.00 4.8 -15.1 56.96 6.8
2021 02 10 1:00 Wet 314.1 0.0 0.00 5.1 -14.9 55.68 7.0
2021 02 10 2:00 Wet 312.2 0.0 0.00 5.1 -14.9 55.91 6.7
2021 02 10 3:00 Wet 310.4 0.0 0.00 5.0 -15.0 57.69 7.3
2021 02 10 4:00 Wet 308.4 0.0 0.00 4.9 -15.0 58.7 6.8
2021 02 10 5:00 Wet 306.4 0.0 0.00 5.1 -14.9 57.55 7.3
2021 02 10 6:00 Wet 304.2 0.0 0.00 5.5 -14.7 57 6.6
20